Provisional Data: Lititz Run near Lititz, PA


Please select a monitoring station.
Please select start date.
Please select start date.

Toggle Unit: C/F Toggle Unit: C/F
Sample Time Temperature (C) Temperature (F) Specific Conductivity (mS/cm) pH   Turbidity (NTU+) DO (mg/L)
5/17/2022 12:00:00 AM 16.22 61.196 0.608 7.59 20.28 7.15
5/17/2022 12:15:00 AM 16.06 60.908 0.626 7.59 18.39 7.22
5/17/2022 12:30:00 AM 15.91 60.638 0.641 7.61 17.02 7.27
5/17/2022 12:45:00 AM 15.77 60.386 0.654 7.61 13.79 7.34
5/17/2022 1:00:00 AM 15.63 60.134 0.665 7.62 13.92 7.39
5/17/2022 1:15:00 AM 15.5 59.9 0.674 7.61 12.86 7.44
5/17/2022 1:30:00 AM 15.37 59.666 0.68 7.63 12.05 7.49
5/17/2022 1:45:00 AM 15.25 59.45 0.685 7.64 11.35 7.53
5/17/2022 2:00:00 AM 15.13 59.234 0.689 7.63 10.8 7.59
5/17/2022 2:15:00 AM 15.01 59.018 0.692 7.65 10.25 7.62
5/17/2022 2:30:00 AM 14.9 58.82 0.693 7.65 9.73 7.67
5/17/2022 2:45:00 AM 14.8 58.64 0.693 7.66 9.51 7.7
5/17/2022 3:00:00 AM 14.7 58.46 0.693 7.66 9.65 7.74
5/17/2022 3:15:00 AM 14.6 58.28 0.693 7.67 8.97 7.78
5/17/2022 3:30:00 AM 14.51 58.118 0.693 7.67 8.95 7.82
5/17/2022 3:45:00 AM 14.42 57.956 0.694 7.68 8.71 7.86
5/17/2022 4:00:00 AM 14.33 57.794 0.695 7.68 8.57 7.9
5/17/2022 4:15:00 AM 14.24 57.632 0.695 7.69 8.83 7.94
5/17/2022 4:30:00 AM 14.15 57.47 0.694 7.69 8 7.98
5/17/2022 4:45:00 AM 14.07 57.326 0.693 7.7 7.81 8.01
5/17/2022 5:00:00 AM 13.98 57.164 0.693 7.69 7.91 8.04
5/17/2022 5:15:00 AM 13.91 57.038 0.683 7.7 8.01 8.07
5/17/2022 5:30:00 AM 13.84 56.912 0.694 7.69 7.78 8.11
5/17/2022 5:45:00 AM 13.78 56.804 0.695 7.7 8.17 8.14
5/17/2022 6:00:00 AM 13.71 56.678 0.697 7.7 8.2 8.18
5/17/2022 6:15:00 AM 13.65 56.57 0.698 7.71 8.4 8.21
5/17/2022 6:30:00 AM 13.6 56.48 0.7 7.71 7.73 8.26
5/17/2022 6:45:00 AM 13.55 56.39 0.702 7.72 7.05 8.32
5/17/2022 7:00:00 AM 13.51 56.318 0.705 7.73 6.66 8.37
5/17/2022 7:15:00 AM 13.48 56.264 0.708 7.74 6.53 8.44
5/17/2022 7:30:00 AM 13.45 56.21 0.711 7.74 6.53 8.49
5/17/2022 7:45:00 AM 13.43 56.174 0.713 7.74 6.26 8.57
5/17/2022 8:00:00 AM 13.43 56.174 0.716 7.76 6.34 8.7
5/17/2022 8:15:00 AM 13.45 56.21 0.719 7.76 6.23 8.81
5/17/2022 8:30:00 AM 13.47 56.246 0.721 7.78 6.04 8.93
5/17/2022 8:45:00 AM 13.5 56.3 0.724 7.79 6.35 9.05
5/17/2022 9:00:00 AM 13.54 56.372 0.725 7.81 6.34 9.19
5/17/2022 9:15:00 AM 13.6 56.48 0.727 7.81 6.08 9.34
5/17/2022 9:30:00 AM 13.66 56.588 0.728 7.84 6.56 9.5
5/17/2022 9:45:00 AM 13.75 56.75 0.732 7.85 6.09 9.66
5/17/2022 10:00:00 AM 13.85 56.93 0.738 7.87 6.35 9.82
5/17/2022 10:15:00 AM 13.97 57.146 0.744 7.88 6.06 9.98
5/17/2022 10:30:00 AM 14.1 57.38 0.751 7.91 6.06 10.13
5/17/2022 10:45:00 AM 14.26 57.668 0.76 7.93 5.97 10.28
5/17/2022 11:00:00 AM 14.43 57.974 0.77 7.94 6.08 10.41
5/17/2022 11:15:00 AM 14.62 58.316 0.779 7.96 6.29 10.54
5/17/2022 11:30:00 AM 14.82 58.676 0.788 7.98 6.9 10.66
5/17/2022 11:45:00 AM 15.03 59.054 0.793 8 5.88 10.78
5/17/2022 12:00:00 PM 15.25 59.45 0.797 8.01 5.74 10.9
5/17/2022 12:15:00 PM 15.4 59.72 0.798 8.03 5.99 10.87
5/17/2022 12:30:00 PM 15.6 60.08 0.799 8.04 5.64 10.97
5/17/2022 12:45:00 PM 15.78 60.404 0.798 8.06 5.9 11.04
5/17/2022 1:00:00 PM 16 60.8 0.796 8.08 6.28 11.15
5/17/2022 1:15:00 PM 16.2 61.16 0.795 8.1 6.87 11.17
5/17/2022 1:30:00 PM 16.34 61.412 0.797 8.11 6.05 11.07
5/17/2022 1:45:00 PM 16.44 61.592 0.801 8.11 6.37 10.89
5/17/2022 2:00:00 PM 16.64 61.952 0.807 8.11 6.18 11
5/17/2022 2:15:00 PM 16.82 62.276 0.81 8.13 6.09 11.06
5/17/2022 2:30:00 PM 17.01 62.618 0.811 8.15 6.68 11.11
5/17/2022 2:45:00 PM 17.16 62.888 0.81 8.15 6.22 11.03
5/17/2022 3:00:00 PM 17.29 63.122 0.809 8.16 6.1 11
5/17/2022 3:15:00 PM 17.38 63.284 0.808 8.16 6.09 10.94
5/17/2022 3:30:00 PM 17.44 63.392 0.807 8.16 6.1 10.84
5/17/2022 3:45:00 PM 17.49 63.482 0.806 8.16 5.97 10.76
5/17/2022 4:00:00 PM 17.53 63.554 0.804 8.16 6.21 10.68
5/17/2022 4:15:00 PM 17.56 63.608 0.8 8.16 5.94 10.55
5/17/2022 4:30:00 PM 17.56 63.608 0.795 8.15 6.09 10.45
5/17/2022 4:45:00 PM 17.55 63.59 0.792 8.14 5.98 10.33
5/17/2022 5:00:00 PM 17.53 63.554 0.79 8.13 5.94 10.2
5/17/2022 5:15:00 PM 17.5 63.5 0.789 8.12 5.85 10.08
5/17/2022 5:30:00 PM 17.47 63.446 0.788 8.11 5.89 9.96
5/17/2022 5:45:00 PM 17.42 63.356 0.788 8.1 5.67 9.83
5/17/2022 6:00:00 PM 17.36 63.248 0.789 8.08 5.5 9.65
5/17/2022 6:15:00 PM 17.29 63.122 0.79 8.06 5.76 9.55
5/17/2022 6:30:00 PM 17.21 62.978 0.791 8.05 5.99 9.4
5/17/2022 6:45:00 PM 17.12 62.816 0.79 8.03 5.83 9.27
5/17/2022 7:00:00 PM 17.02 62.636 0.79 8.02 5.83 9.16
5/17/2022 7:15:00 PM 16.92 62.456 0.789 8.01 5.95 9.04
5/17/2022 7:30:00 PM 16.82 62.276 0.789 7.99 5.75 8.92
5/17/2022 7:45:00 PM 16.71 62.078 0.79 7.98 6.11 8.8
5/17/2022 8:00:00 PM 16.6 61.88 0.79 7.97 6.29 8.7
5/17/2022 8:15:00 PM 16.49 61.682 0.791 7.95 6.19 8.6
5/17/2022 8:30:00 PM 16.38 61.484 0.792 7.93 6.39 8.51
5/17/2022 8:45:00 PM 16.27 61.286 0.793 7.93 6.68 8.42
5/17/2022 9:00:00 PM 16.15 61.07 0.794 7.91 6.98 8.35
5/17/2022 9:15:00 PM 16.04 60.872 0.796 7.9 7.26 8.29
5/17/2022 9:30:00 PM 15.92 60.656 0.798 7.88 7.09 8.24
5/17/2022 9:45:00 PM 15.79 60.422 0.801 7.88 7.25 8.19
5/17/2022 10:00:00 PM 15.67 60.206 0.804 7.87 7.26 8.15
5/17/2022 10:15:00 PM 15.55 59.99 0.808 7.87 6.95 8.12
5/17/2022 10:30:00 PM 15.43 59.774 0.809 7.85 6.91 8.1
5/17/2022 10:45:00 PM 15.3 59.54 0.81 7.85 7.01 8.08
5/17/2022 11:00:00 PM 15.19 59.342 0.811 7.84 6.97 8.07
5/17/2022 11:15:00 PM 15.06 59.108 0.811 7.84 7.16 8.06
5/17/2022 11:30:00 PM 14.95 58.91 0.812 7.83 7.46 8.06
5/17/2022 11:45:00 PM 14.84 58.712 0.812 7.83 6.96 8.06
5/18/2022 12:00:00 AM 14.73 58.514 0.812 7.82 7.07 8.07
5/18/2022 12:15:00 AM 14.63 58.334 0.812 7.82 7.87 8.08
5/18/2022 12:30:00 AM 14.53 58.154 0.812 7.82 8.31 8.09
5/18/2022 12:45:00 AM 14.44 57.992 0.812 7.82 7.96 8.11
5/18/2022 1:00:00 AM 14.36 57.848 0.812 7.81 7.4 8.13
5/18/2022 1:15:00 AM 14.27 57.686 0.812 7.81 7.02 8.14
5/18/2022 1:30:00 AM 14.19 57.542 0.811 7.81 7.2 8.16
5/18/2022 1:45:00 AM 14.11 57.398 0.809 7.8 7.08 8.18
5/18/2022 2:00:00 AM 14.03 57.254 0.807 7.81 7.21 8.2
5/18/2022 2:15:00 AM 13.95 57.11 0.804 7.81 7.41 8.22
5/18/2022 2:30:00 AM 13.88 56.984 0.801 7.8 7.23 8.24
5/18/2022 2:45:00 AM 13.81 56.858 0.798 7.81 6.8 8.26
5/18/2022 3:00:00 AM 13.73 56.714 0.795 7.8 6.99 8.28
5/18/2022 3:15:00 AM 13.66 56.588 0.791 7.8 6.88 8.31
5/18/2022 3:30:00 AM 13.6 56.48 0.787 7.8 7.62 8.33
5/18/2022 3:45:00 AM 13.53 56.354 0.782 7.81 7.92 8.35
5/18/2022 4:00:00 AM 13.46 56.228 0.778 7.81 7.91 8.37
5/18/2022 4:15:00 AM 13.4 56.12 0.775 7.8 7.12 8.4
5/18/2022 4:30:00 AM 13.33 55.994 0.771 7.81 7.55 8.43
5/18/2022 4:45:00 AM 13.27 55.886 0.768 7.8 8.01 8.45
5/18/2022 5:00:00 AM 13.2 55.76 0.764 7.81 8.13 8.48
5/18/2022 5:15:00 AM 13.14 55.652 0.761 7.81 7.45 8.5
5/18/2022 5:30:00 AM 13.08 55.544 0.758 7.82 7.7 8.52
5/18/2022 5:45:00 AM 13.01 55.418 0.756 7.81 6.86 8.54
5/18/2022 6:00:00 AM 12.96 55.328 0.754 7.82 6.93 8.58
5/18/2022 6:15:00 AM 12.91 55.238 0.752 7.82 6.52 8.62
5/18/2022 6:30:00 AM 12.87 55.166 0.75 7.83 6.1 8.66
5/18/2022 6:45:00 AM 12.83 55.094 0.749 7.83 6.55 8.72
5/18/2022 7:00:00 AM 12.8 55.04 0.748 7.84 6.06 8.78
5/18/2022 7:15:00 AM 12.78 55.004 0.748 7.83 6.11 8.84
5/18/2022 7:30:00 AM 12.77 54.986 0.748 7.84 6.1 8.89
5/18/2022 7:45:00 AM 12.77 54.986 0.75 7.85 5.82 8.97
5/18/2022 8:00:00 AM 12.79 55.022 0.751 7.86 5.78 9.08
5/18/2022 8:15:00 AM 12.82 55.076 0.752 7.86 5.76 9.21
5/18/2022 8:30:00 AM 12.85 55.13 0.753 7.88 5.97 9.33
5/18/2022 8:45:00 AM 12.88 55.184 0.754 7.89 5.69 9.45
5/18/2022 9:00:00 AM 12.92 55.256 0.755 7.91 5.83 9.6
5/18/2022 9:15:00 AM 12.98 55.364 0.756 7.91 5.75 9.74
5/18/2022 9:30:00 AM 13.05 55.49 0.756 7.93 5.97 9.9
5/18/2022 9:45:00 AM 13.13 55.634 0.757 7.95 5.82 10.07
5/18/2022 10:00:00 AM 13.23 55.814 0.757 7.96 6.23 10.22
5/18/2022 10:15:00 AM 13.34 56.012 0.758 7.98 5.74 10.4
5/18/2022 10:30:00 AM 13.46 56.228 0.761 8 5.78 10.57
5/18/2022 10:45:00 AM 13.6 56.48 0.766 8.01 5.76 10.72
5/18/2022 11:00:00 AM 13.74 56.732 0.773 8.04 5.66 10.85
5/18/2022 11:15:00 AM 13.91 57.038 0.781 8.05 5.51 10.98
5/18/2022 11:30:00 AM 14.08 57.344 0.788 8.07 5.77 11.1
5/18/2022 11:45:00 AM 14.27 57.686 0.794 8.09 5.64 11.22
5/18/2022 12:00:00 PM 14.48 58.064 0.798 8.11 5.7 11.36
5/18/2022 12:15:00 PM 14.66 58.388 0.801 8.13 5.62 11.43
5/18/2022 12:30:00 PM 14.86 58.748 0.804 8.13 5.57 11.5
5/18/2022 12:45:00 PM 15.06 59.108 0.806 8.16 5.63 11.56
5/18/2022 1:00:00 PM 15.24 59.432 0.805 8.16 5.5 11.58
5/18/2022 1:15:00 PM 15.45 59.81 0.804 8.19 5.75 11.66
5/18/2022 1:30:00 PM 15.67 60.206 0.802 8.2 5.54 11.74
5/18/2022 1:45:00 PM 15.86 60.548 0.801 8.21 5.75 11.74
5/18/2022 2:00:00 PM 16.04 60.872 0.801 8.23 5.82 11.71
5/18/2022 2:15:00 PM 16.22 61.196 0.803 8.24 5.87 11.68
5/18/2022 2:30:00 PM 16.36 61.448 0.805 8.24 5.8 11.62
5/18/2022 2:45:00 PM 16.49 61.682 0.807 8.23 5.88 11.55
5/18/2022 3:00:00 PM 16.6 61.88 0.809 8.24 5.79 11.47
5/18/2022 3:15:00 PM 16.68 62.024 0.809 8.24 6 11.35
5/18/2022 3:30:00 PM 16.75 62.15 0.81 8.23 5.86 11.29
5/18/2022 3:45:00 PM 16.82 62.276 0.81 8.24 6.07 11.21
5/18/2022 4:00:00 PM 16.84 62.312 0.809 8.23 5.84 11.03
5/18/2022 4:15:00 PM 16.91 62.438 0.807 8.21 5.65 10.99
5/18/2022 4:30:00 PM 16.91 62.438 0.804 8.22 5.56 10.85
5/18/2022 4:45:00 PM 16.9 62.42 0.799 8.2 5.38 10.65
5/18/2022 5:00:00 PM 16.87 62.366 0.795 8.18 5.43 10.38
5/18/2022 5:15:00 PM 16.81 62.258 0.793 8.15 5.39 10.1
5/18/2022 5:30:00 PM 16.75 62.15 0.791 8.13 5.49 9.86
5/18/2022 5:45:00 PM 16.71 62.078 0.791 8.11 5.31 9.71
5/18/2022 6:00:00 PM 16.7 62.06 0.79 8.09 5.21 9.64
5/18/2022 6:15:00 PM 16.68 62.024 0.789 8.09 5.32 9.56
5/18/2022 6:30:00 PM 16.65 61.97 0.789 8.08 5.51 9.5
5/18/2022 6:45:00 PM 16.59 61.862 0.791 8.06 5.47 9.36
5/18/2022 7:00:00 PM 16.52 61.736 0.794 8.04 5.44 9.21
5/18/2022 7:15:00 PM 16.45 61.61 0.796 8.03 5.36 9.14
5/18/2022 7:30:00 PM 16.36 61.448 0.797 8.02 5.63 8.99
5/18/2022 7:45:00 PM 16.26 61.268 0.799 7.99 5.63 8.88
5/18/2022 8:00:00 PM 16.14 61.052 0.801 7.98 5.63 8.73
5/18/2022 8:15:00 PM 16.03 60.854 0.802 7.95 5.86 8.6
5/18/2022 8:30:00 PM 15.91 60.638 0.803 7.95 6.6 8.48
5/18/2022 8:45:00 PM 15.8 60.44 0.806 7.94 6.32 8.4
5/18/2022 9:00:00 PM 15.7 60.26 0.809 7.91 6.67 8.34
5/18/2022 9:15:00 PM 15.6 60.08 0.813 7.91 6.92 8.29
5/18/2022 9:30:00 PM 15.51 59.918 0.816 7.91 6.95 8.26
5/18/2022 9:45:00 PM 15.41 59.738 0.82 7.9 7.04 8.23
5/18/2022 10:00:00 PM 15.32 59.576 0.822 7.88 7.18 8.2
5/18/2022 10:15:00 PM 15.24 59.432 0.825 7.88 6.8 8.18
5/18/2022 10:30:00 PM 15.15 59.27 0.827 7.87 6.9 8.16
5/18/2022 10:45:00 PM 15.06 59.108 0.83 7.87 6.76 8.15
5/18/2022 11:00:00 PM 14.98 58.964 0.832 7.85 7.27 8.13
5/18/2022 11:15:00 PM 14.9 58.82 0.834 7.86 7.51 8.12
5/18/2022 11:30:00 PM 14.82 58.676 0.836 7.84 12.33 8.11
5/18/2022 11:45:00 PM 14.75 58.55 0.837 7.85 7.55 8.1
5/19/2022 12:00:00 AM 14.69 58.442 0.837 7.84 7.16 8.1
5/19/2022 12:15:00 AM 14.63 58.334 0.837 7.84 7.22 8.09
5/19/2022 12:30:00 AM 14.57 58.226 0.838 7.84 7.59 8.09
5/19/2022 12:45:00 AM 14.52 58.136 0.838 7.83 7.77 8.09
5/19/2022 1:00:00 AM 14.47 58.046 0.837 7.83 7.16 8.1
5/19/2022 1:15:00 AM 14.42 57.956 0.837 7.82 7.02 8.1
5/19/2022 1:30:00 AM 14.38 57.884 0.837 7.83 7.11 8.1
5/19/2022 1:45:00 AM 14.34 57.812 0.836 7.81 7.47 8.1
5/19/2022 2:00:00 AM 14.31 57.758 0.833 7.82 7.52 8.1
5/19/2022 2:15:00 AM 14.27 57.686 0.827 7.81 8.11 8.11
5/19/2022 2:30:00 AM 14.24 57.632 0.821 7.82 7.85 8.12
5/19/2022 2:45:00 AM 14.19 57.542 0.813 7.82 8.16 8.12
5/19/2022 3:00:00 AM 14.15 57.47 0.804 7.81 8.27 8.13
5/19/2022 3:15:00 AM 14.12 57.416 0.795 7.81 8.75 8.14
5/19/2022 3:30:00 AM 14.09 57.362 0.788 7.81 9.14 8.16
5/19/2022 3:45:00 AM 14.05 57.29 0.778 7.79 10.33 8.16
5/19/2022 4:00:00 AM 14.02 57.236 0.764 7.8 11.12 8.15
5/19/2022 4:15:00 AM 13.98 57.164 0.753 7.79 11.68 8.17
5/19/2022 4:30:00 AM 13.94 57.092 0.742 7.79 11.83 8.16
5/19/2022 4:45:00 AM 13.92 57.056 0.734 7.76 12.35 8.15
5/19/2022 5:00:00 AM 13.91 57.038 0.723 7.76 12.4 8.13
5/19/2022 5:15:00 AM 13.91 57.038 0.707 7.73 12.44 8.09
5/19/2022 5:30:00 AM 13.93 57.074 0.686 7.73 11.95 8.05
5/19/2022 5:45:00 AM 13.96 57.128 0.663 7.71 12.11 8
5/19/2022 6:00:00 AM 14.01 57.218 0.639 7.69 12.14 7.94
5/19/2022 6:15:00 AM 14.09 57.362 0.617 7.67 11.87 7.88
5/19/2022 6:30:00 AM 14.17 57.506 0.599 7.67 11.42 7.84
5/19/2022 6:45:00 AM 14.25 57.65 0.587 7.65 11.33 7.82
5/19/2022 7:00:00 AM 14.3 57.74 0.58 7.65 10.48 7.83
5/19/2022 7:15:00 AM 14.33 57.794 0.576 7.65 10 7.85
5/19/2022 7:30:00 AM 14.35 57.83 0.573 7.65 9.6 7.91
5/19/2022 7:45:00 AM 14.35 57.83 0.573 7.64 9.1 7.96
5/19/2022 8:00:00 AM 14.35 57.83 0.574 7.65 9.27 8.01
5/19/2022 8:15:00 AM 14.35 57.83 0.576 7.65 8.76 8.08
5/19/2022 8:30:00 AM 14.35 57.83 0.58 7.66 8.6 8.13
5/19/2022 8:45:00 AM 14.36 57.848 0.585 7.65 8.48 8.17
5/19/2022 9:00:00 AM 14.37 57.866 0.588 7.67 8.25 8.23
5/19/2022 9:15:00 AM 14.37 57.866 0.591 7.67 8.12 8.29
5/19/2022 9:30:00 AM 14.38 57.884 0.596 7.68 8.32 8.41
5/19/2022 9:45:00 AM 14.38 57.884 0.606 7.69 8.21 8.49
5/19/2022 10:00:00 AM 14.39 57.902 0.618 7.7 8.38 8.66
5/19/2022 10:15:00 AM 14.39 57.902 0.633 7.71 8.39 8.74
5/19/2022 10:30:00 AM 14.41 57.938 0.648 7.74 8.02 8.9
5/19/2022 10:45:00 AM 14.44 57.992 0.663 7.75 7.85 9.06
5/19/2022 11:00:00 AM 14.46 58.028 0.678 7.76 7.7 9.16
5/19/2022 11:15:00 AM 14.53 58.154 0.692 7.79 7.72 9.4
5/19/2022 11:30:00 AM 14.56 58.208 0.703 7.8 7.79 9.46
5/19/2022 11:45:00 AM 14.63 58.334 0.711 7.81 7.41 9.65
5/19/2022 12:00:00 PM 14.75 58.55 0.717 7.85 7.32 9.91
5/19/2022 12:15:00 PM 14.84 58.712 0.721 7.86 7.39 10.02
5/19/2022 12:30:00 PM 14.97 58.946 0.725 7.9 7.29 10.23
5/19/2022 12:45:00 PM 15.04 59.072 0.727 7.91 7.04 10.27
5/19/2022 1:00:00 PM 15.13 59.234 0.73 7.92 6.89 10.37
5/19/2022 1:15:00 PM 15.35 59.63 0.731 7.96 6.56 10.7
5/19/2022 1:30:00 PM 15.48 59.864 0.734 7.99 7.7 10.77
5/19/2022 1:45:00 PM 15.58 60.044 0.737 7.99 6.27 10.83
5/19/2022 2:00:00 PM 15.71 60.278 0.738 8.02 5.76 10.89
5/19/2022 2:15:00 PM 15.88 60.584 0.738 8.04 5.97 10.98
5/19/2022 2:30:00 PM 16.04 60.872 0.739 8.06 5.95 11.03
5/19/2022 2:45:00 PM 16.2 61.16 0.741 8.06 5.67 11.04
5/19/2022 3:00:00 PM 16.27 61.286 0.743 8.07 5.71 10.83
5/19/2022 3:15:00 PM 16.28 61.304 0.746 8.06 5.43 10.61
5/19/2022 3:30:00 PM 16.27 61.286 0.749 8.05 6.03 10.39
5/19/2022 3:45:00 PM 16.32 61.376 0.752 8.03 5.46 10.28
5/19/2022 4:00:00 PM 16.36 61.448 0.755 8.03 5.56 10.21
5/19/2022 4:15:00 PM 16.42 61.556 0.757 8.03 5.62 10.09
5/19/2022 4:30:00 PM 16.5 61.7 0.759 8.03 5.56 10.17
5/19/2022 4:45:00 PM 16.54 61.772 0.761 8.03 5.46 10.09
5/19/2022 5:00:00 PM 16.61 61.898 0.766 8.04 5.48 10.03
5/19/2022 5:15:00 PM 16.68 62.024 0.773 8.03 5.46 9.97
5/19/2022 5:30:00 PM 16.72 62.096 0.777 8.03 5.42 9.86
5/19/2022 5:45:00 PM 16.71 62.078 0.778 8.02 5.27 9.75
5/19/2022 6:00:00 PM 16.67 62.006 0.776 8.01 5.38 9.61
5/19/2022 6:15:00 PM 16.62 61.916 0.773 7.99 5.25 9.47
5/19/2022 6:30:00 PM 16.58 61.844 0.774 7.98 5.55 9.34
5/19/2022 6:45:00 PM 16.55 61.79 0.778 7.97 5.23 9.23
5/19/2022 7:00:00 PM 16.53 61.754 0.782 7.97 5.51 9.13
5/19/2022 7:15:00 PM 16.5 61.7 0.785 7.96 5.41 9.03
5/19/2022 7:30:00 PM 16.46 61.628 0.787 7.95 5 8.93
5/19/2022 7:45:00 PM 16.41 61.538 0.789 7.94 5.43 8.83
5/19/2022 8:00:00 PM 16.35 61.43 0.791 7.92 5.21 8.72
5/19/2022 8:15:00 PM 16.29 61.322 0.793 7.91 5.52 8.63
5/19/2022 8:30:00 PM 16.21 61.178 0.795 7.9 5.59 8.54
5/19/2022 8:45:00 PM 16.14 61.052 0.798 7.88 6.06 8.46
5/19/2022 9:00:00 PM 16.05 60.89 0.8 7.88 6.29 8.39
5/19/2022 9:15:00 PM 15.97 60.746 0.801 7.88 6.54 8.33
5/19/2022 9:30:00 PM 15.89 60.602 0.803 7.87 6.26 8.27
5/19/2022 9:45:00 PM 15.81 60.458 0.805 7.86 6.65 8.23
5/19/2022 10:00:00 PM 15.73 60.314 0.808 7.84 6.64 8.18
5/19/2022 10:15:00 PM 15.65 60.17 0.811 7.85 6.34 8.13
5/19/2022 10:30:00 PM 15.57 60.026 0.814 7.83 6.44 8.1
5/19/2022 10:45:00 PM 15.49 59.882 0.815 7.83 6.5 8.07
5/19/2022 11:00:00 PM 15.42 59.756 0.817 7.82 6.49 8.04
5/19/2022 11:15:00 PM 15.35 59.63 0.818 7.82 6.49 8.03
5/19/2022 11:30:00 PM 15.27 59.486 0.819 7.8 6.28 8.01
5/19/2022 11:45:00 PM 15.2 59.36 0.821 7.8 6.35 8.01
5/20/2022 12:00:00 AM 15.13 59.234 0.822 7.8 6.17 8
5/20/2022 12:15:00 AM 15.06 59.108 0.823 7.8 6.43 8
5/20/2022 12:30:00 AM 14.99 58.982 0.823 7.8 6.51 8
5/20/2022 12:45:00 AM 14.93 58.874 0.824 7.79 6.48 8.01
5/20/2022 1:00:00 AM 14.87 58.766 0.825 7.79 6.3 8.02
5/20/2022 1:15:00 AM 14.82 58.676 0.826 7.79 6.65 8.02
5/20/2022 1:30:00 AM 14.76 58.568 0.828 7.79 6.85 8.03
5/20/2022 1:45:00 AM 14.71 58.478 0.829 7.78 6.4 8.04
5/20/2022 2:00:00 AM 14.65 58.37 0.829 7.79 6.46 8.05
5/20/2022 2:15:00 AM 14.6 58.28 0.827 7.79 6.7 8.06
5/20/2022 2:30:00 AM 14.55 58.19 0.824 7.78 6.79 8.08
5/20/2022 2:45:00 AM 14.49 58.082 0.821 7.79 6.64 8.09
5/20/2022 3:00:00 AM 14.43 57.974 0.817 7.79 6.58 8.11
5/20/2022 3:15:00 AM 14.38 57.884 0.813 7.79 6.52 8.12
5/20/2022 3:30:00 AM 14.33 57.794 0.809 7.79 6.34 8.15
5/20/2022 3:45:00 AM 14.28 57.704 0.805 7.78 6.36 8.16
5/20/2022 4:00:00 AM 14.23 57.614 0.801 7.79 6.55 8.18
5/20/2022 4:15:00 AM 14.19 57.542 0.797 7.78 6.58 8.2
5/20/2022 4:30:00 AM 14.14 57.452 0.792 7.79 6.43 8.22
5/20/2022 4:45:00 AM 14.1 57.38 0.788 7.79 6.75 8.23
5/20/2022 5:00:00 AM 14.05 57.29 0.785 7.78 6.97 8.25
5/20/2022 5:15:00 AM 14.01 57.218 0.782 7.79 6.99 8.27
5/20/2022 5:30:00 AM 13.97 57.146 0.78 7.79 6.94 8.28
5/20/2022 5:45:00 AM 13.94 57.092 0.777 7.78 6.59 8.3
5/20/2022 6:00:00 AM 13.9 57.02 0.775 7.79 6.24 8.32
5/20/2022 6:15:00 AM 13.88 56.984 0.774 7.8 6.28 8.35
5/20/2022 6:30:00 AM 13.85 56.93 0.772 7.8 6.17 8.4
5/20/2022 6:45:00 AM 13.83 56.894 0.77 7.8 5.94 8.45
5/20/2022 7:00:00 AM 13.82 56.876 0.768 7.81 5.74 8.53
5/20/2022 7:15:00 AM 13.81 56.858 0.767 7.81 6.16 8.61
5/20/2022 7:30:00 AM 13.81 56.858 0.767 7.81 5.79 8.68
5/20/2022 7:45:00 AM 13.81 56.858 0.767 7.82 5.59 8.74
5/20/2022 8:00:00 AM 13.82 56.876 0.768 7.82 5.52 8.76
5/20/2022 8:15:00 AM 13.81 56.858 0.768 7.82 5.62 8.73
5/20/2022 8:30:00 AM 13.81 56.858 0.769 7.81 5.46 8.75
5/20/2022 8:45:00 AM 13.82 56.876 0.77 7.82 5.48 8.81
5/20/2022 9:00:00 AM 13.84 56.912 0.771 7.83 5.54 8.97
5/20/2022 9:15:00 AM 13.87 56.966 0.771 7.84 5.38 9.12
5/20/2022 9:30:00 AM 13.9 57.02 0.772 7.85 5.31 9.17
5/20/2022 9:45:00 AM 13.92 57.056 0.773 7.85 5.58 9.2
5/20/2022 10:00:00 AM 13.97 57.146 0.775 7.87 5.46 9.4
5/20/2022 10:15:00 AM 14.05 57.29 0.778 7.89 5.54 9.63
5/20/2022 10:30:00 AM 14.13 57.434 0.783 7.89 5.35 9.68
5/20/2022 10:45:00 AM 14.22 57.596 0.789 7.9 5.18 9.71
5/20/2022 11:00:00 AM 14.26 57.668 0.796 7.89 5.44 9.55
5/20/2022 11:15:00 AM 14.36 57.848 0.804 7.91 5.35 9.74
5/20/2022 11:30:00 AM 14.48 58.064 0.812 7.93 5.29 9.96
5/20/2022 11:45:00 AM 14.61 58.298 0.819 7.94 5.21 10.12
5/20/2022 12:00:00 PM 14.86 58.748 0.823 7.98 5.23 10.49
5/20/2022 12:15:00 PM 14.97 58.946 0.824 7.99 5.36 10.44
5/20/2022 12:30:00 PM 15.03 59.054 0.823 7.98 5.11 10.15
5/20/2022 12:45:00 PM 15.11 59.198 0.821 7.99 5.19 10.29
5/20/2022 1:00:00 PM 15.15 59.27 0.819 7.99 5.33 10.25
5/20/2022 1:15:00 PM 15.22 59.396 0.818 7.99 5.33 10.16
5/20/2022 1:30:00 PM 15.25 59.45 0.817 7.98 5.52 9.93
5/20/2022 1:45:00 PM 15.3 59.54 0.814 7.98 5.56 9.92
5/20/2022 2:00:00 PM 15.34 59.612 0.812 7.98 5.48 9.89
5/20/2022 2:15:00 PM 15.43 59.774 0.81 7.99 5.43 10.06
5/20/2022 2:30:00 PM 15.57 60.026 0.81 8.02 5.52 10.33
5/20/2022 2:45:00 PM 15.66 60.188 0.81 8.02 5.5 10.16
5/20/2022 3:00:00 PM 15.76 60.368 0.802 8.01 6.45 9.85
5/20/2022 3:15:00 PM 15.79 60.422 0.796 7.97 8.87 9.57
5/20/2022 3:30:00 PM 15.73 60.314 0.803 7.96 10.06 9.38
5/20/2022 3:45:00 PM 15.72 60.296 0.813 7.94 11.68 9.27
5/20/2022 4:00:00 PM 15.74 60.332 0.817 7.91 13.27 9.17
5/20/2022 4:15:00 PM 15.85 60.53 0.803 7.89 13.55 9.01
5/20/2022 4:30:00 PM 16.06 60.908 0.758 7.87 17.05 8.8
5/20/2022 4:45:00 PM 16.29 61.322 0.693 7.84 19.27 8.57
5/20/2022 5:00:00 PM 16.57 61.826 0.632 7.79 20.38 8.23
5/20/2022 5:15:00 PM 16.93 62.474 0.587 7.76 23.24 7.89
5/20/2022 5:30:00 PM 17.26 63.068 0.554 7.72 22.39 7.65
5/20/2022 5:45:00 PM 17.49 63.482 0.522 7.69 23 7.52
5/20/2022 6:00:00 PM 17.61 63.698 0.492 7.67 25.81 7.47
5/20/2022 6:15:00 PM 17.68 63.824 0.475 7.66 28.87 7.38
5/20/2022 6:30:00 PM 17.74 63.932 0.475 7.64 31.76 7.32
5/20/2022 6:45:00 PM 17.76 63.968 0.484 7.64 30.96 7.28
5/20/2022 7:00:00 PM 17.73 63.914 0.495 7.62 27.13 7.29
5/20/2022 7:15:00 PM 17.66 63.788 0.503 7.62 24.98 7.32
5/20/2022 7:30:00 PM 17.58 63.644 0.51 7.62 23.51 7.33
5/20/2022 7:45:00 PM 17.49 63.482 0.517 7.62 24.92 7.32
5/20/2022 8:00:00 PM 17.41 63.338 0.526 7.6 27.41 7.31
5/20/2022 8:15:00 PM 17.32 63.176 0.537 7.61 26.58 7.32
5/20/2022 8:30:00 PM 17.23 63.014 0.55 7.6 26.91 7.34
5/20/2022 8:45:00 PM 17.15 62.87 0.563 7.61 25.99 7.37
5/20/2022 9:00:00 PM 17.07 62.726 0.577 7.62 25.34 7.41
5/20/2022 9:15:00 PM 16.98 62.564 0.591 7.61 23.63 7.45
5/20/2022 9:30:00 PM 16.89 62.402 0.605 7.63 21.86 7.51
5/20/2022 9:45:00 PM 16.79 62.222 0.62 7.64 19.22 7.56
5/20/2022 10:00:00 PM 16.69 62.042 0.634 7.64 19.68 7.6
5/20/2022 10:15:00 PM 16.59 61.862 0.645 7.65 17.62 7.62
5/20/2022 10:30:00 PM 16.5 61.7 0.655 7.65 16.09 7.63
5/20/2022 10:45:00 PM 16.4 61.52 0.664 7.64 15.72 7.64
5/20/2022 11:00:00 PM 16.32 61.376 0.671 7.65 15.83 7.64
5/20/2022 11:15:00 PM 16.24 61.232 0.678 7.66 14.37 7.65
5/20/2022 11:30:00 PM 16.16 61.088 0.684 7.66 13.33 7.65
5/20/2022 11:45:00 PM 16.09 60.962 0.691 7.66 10.87 7.65
5/21/2022 12:00:00 AM 16.03 60.854 0.697 7.65 105.67 7.66
5/21/2022 12:15:00 AM 15.97 60.746 0.703 7.66 10 7.67
5/21/2022 12:30:00 AM 15.92 60.656 0.707 7.66 9.33 7.68
5/21/2022 12:45:00 AM 15.86 60.548 0.711 7.65 9.17 7.69
5/21/2022 1:00:00 AM 15.8 60.44 0.713 7.66 9.2 7.7
5/21/2022 1:15:00 AM 15.74 60.332 0.714 7.66 9.23 7.72
5/21/2022 1:30:00 AM 15.68 60.224 0.716 7.66 8.87 7.73
5/21/2022 1:45:00 AM 15.63 60.134 0.719 7.66 8.53 7.75
5/21/2022 2:00:00 AM 15.57 60.026 0.721 7.67 9.76 7.78
5/21/2022 2:15:00 AM 15.52 59.936 0.723 7.67 8.63 7.78
5/21/2022 2:30:00 AM 15.46 59.828 0.723 7.66 8.63 7.8
5/21/2022 2:45:00 AM 15.41 59.738 0.724 7.67 8.46 7.82
5/21/2022 3:00:00 AM 15.35 59.63 0.723 7.66 8.63 7.84
5/21/2022 3:15:00 AM 15.3 59.54 0.723 7.67 8.37 7.87
5/21/2022 3:30:00 AM 15.25 59.45 0.722 7.67 8.09 7.89
5/21/2022 3:45:00 AM 15.19 59.342 0.721 7.68 8.12 7.91
5/21/2022 4:00:00 AM 15.14 59.252 0.72 7.68 7.91 7.93
5/21/2022 4:15:00 AM 15.08 59.144 0.718 7.67 7.99 7.95
5/21/2022 4:30:00 AM 15.03 59.054 0.716 7.69 7.37 7.97
5/21/2022 4:45:00 AM 14.98 58.964 0.715 7.69 7.63 7.99
5/21/2022 5:00:00 AM 14.93 58.874 0.715 7.69 7.69 8.02
5/21/2022 5:15:00 AM 14.88 58.784 0.714 7.69 8.08 8.03
5/21/2022 5:30:00 AM 14.84 58.712 0.714 7.68 7.59 8.05
5/21/2022 5:45:00 AM 14.79 58.622 0.714 7.7 8.55 8.07
5/21/2022 6:00:00 AM 14.76 58.568 0.714 7.7 6.8 8.09
5/21/2022 6:15:00 AM 14.71 58.478 0.713 7.7 7.08 8.12
5/21/2022 6:30:00 AM 14.67 58.406 0.714 7.7 6.97 8.17
5/21/2022 6:45:00 AM 14.64 58.352 0.715 7.71 6.79 8.22
5/21/2022 7:00:00 AM 14.62 58.316 0.717 7.72 6.52 8.28
5/21/2022 7:15:00 AM 14.6 58.28 0.719 7.71 6.58 8.35
5/21/2022 7:30:00 AM 14.58 58.244 0.721 7.72 5.93 8.42
5/21/2022 7:45:00 AM 14.57 58.226 0.723 7.73 6.04 8.5
5/21/2022 8:00:00 AM 14.57 58.226 0.725 7.74 6.27 8.59
5/21/2022 8:15:00 AM 14.58 58.244 0.725 7.75 6.64 8.7
5/21/2022 8:30:00 AM 14.6 58.28 0.726 7.75 5.86 8.81
5/21/2022 8:45:00 AM 14.62 58.316 0.726 7.76 5.91 8.93
5/21/2022 9:00:00 AM 14.66 58.388 0.725 7.78 6.01 9.06
5/21/2022 9:15:00 AM 14.71 58.478 0.725 7.79 6.04 9.21
5/21/2022 9:30:00 AM 14.77 58.586 0.725 7.8 6.38 9.35
5/21/2022 9:45:00 AM 14.83 58.694 0.726 7.82 5.79 9.5
5/21/2022 10:00:00 AM 14.91 58.838 0.727 7.82 5.91 9.66
5/21/2022 10:15:00 AM 15.02 59.036 0.73 7.85 6.43 9.82
5/21/2022 10:30:00 AM 15.13 59.234 0.732 7.87 5.7 9.98
5/21/2022 10:45:00 AM 15.26 59.468 0.736 7.89 5.52 10.12
5/21/2022 11:00:00 AM 15.4 59.72 0.74 7.9 5.66 10.25
5/21/2022 11:15:00 AM 15.58 60.044 0.746 7.92 5.66 10.38
5/21/2022 11:30:00 AM 15.77 60.386 0.752 7.95 5.52 10.5
5/21/2022 11:45:00 AM 15.98 60.764 0.758 7.97 5.38 10.63
5/21/2022 12:00:00 PM 16.19 61.142 0.763 7.98 5.51 10.74
5/21/2022 12:15:00 PM 16.41 61.538 0.768 8.01 5.33 10.84
5/21/2022 12:30:00 PM 16.62 61.916 0.772 8.03 5.34 10.93
5/21/2022 12:45:00 PM 16.85 62.33 0.775 8.03 5.38 11
5/21/2022 1:00:00 PM 17.07 62.726 0.776 8.06 4.92 11.05
5/21/2022 1:15:00 PM 17.29 63.122 0.777 8.07 5.02 11.1
5/21/2022 1:30:00 PM 17.5 63.5 0.778 8.1 5.19 11.13
5/21/2022 1:45:00 PM 17.7 63.86 0.778 8.11 5.12 11.14
5/21/2022 2:00:00 PM 17.89 64.202 0.779 8.11 5.78 11.13
5/21/2022 2:15:00 PM 18.06 64.508 0.779 8.13 5.15 11.08
5/21/2022 2:30:00 PM 18.18 64.724 0.779 8.13 5.26 10.94
5/21/2022 2:45:00 PM 18.3 64.94 0.781 8.13 5.57 10.87
5/21/2022 3:00:00 PM 18.36 65.048 0.782 8.13 5.6 10.71
5/21/2022 3:15:00 PM 18.45 65.21 0.782 8.12 5.59 10.66
5/21/2022 3:30:00 PM 18.5 65.3 0.781 8.12 5.6 10.55
5/21/2022 3:45:00 PM 18.57 65.426 0.781 8.12 5.36 10.45
5/21/2022 4:00:00 PM 18.64 65.552 0.78 8.12 5.02 10.4
5/21/2022 4:15:00 PM 18.7 65.66 0.779 8.11 5.04 10.31
5/21/2022 4:30:00 PM 18.77 65.786 0.776 8.11 5.12 10.23
5/21/2022 4:45:00 PM 18.79 65.82201 0.775 8.11 4.92 10.12
5/21/2022 5:00:00 PM 18.8 65.84 0.775 8.1 5.05 9.99
5/21/2022 5:15:00 PM 18.79 65.82201 0.775 8.08 5.01 9.84
5/21/2022 5:30:00 PM 18.78 65.804 0.776 8.08 4.98 9.71
5/21/2022 5:45:00 PM 18.76 65.768 0.776 8.06 5.06 9.58
5/21/2022 6:00:00 PM 18.73 65.714 0.776 8.05 4.83 9.44
5/21/2022 6:15:00 PM 18.7 65.66 0.775 8.04 5.34 9.3
5/21/2022 6:30:00 PM 18.66 65.588 0.775 8.02 5.08 9.17
5/21/2022 6:45:00 PM 18.62 65.516 0.775 8 4.82 9.04
5/21/2022 7:00:00 PM 18.57 65.426 0.775 7.99 5.24 8.91
5/21/2022 7:15:00 PM 18.52 65.336 0.776 7.97 4.8 8.78
5/21/2022 7:30:00 PM 18.45 65.21 0.776 7.96 5.02 8.65
5/21/2022 7:45:00 PM 18.37 65.066 0.776 7.94 5.1 8.52
5/21/2022 8:00:00 PM 18.28 64.904 0.777 7.93 5.85 8.38
5/21/2022 8:15:00 PM 18.19 64.742 0.778 7.9 5.6 8.27
5/21/2022 8:30:00 PM 18.09 64.562 0.778 7.9 5.59 8.16
5/21/2022 8:45:00 PM 17.99 64.382 0.778 7.88 6.17 8.08
5/21/2022 9:00:00 PM 17.9 64.22 0.779 7.88 6.58 7.99
5/21/2022 9:15:00 PM 17.8 64.04 0.781 7.85 6.67 7.92
5/21/2022 9:30:00 PM 17.7 63.86 0.782 7.85 6.79 7.87
5/21/2022 9:45:00 PM 17.6 63.68 0.783 7.84 6.36 7.81
5/21/2022 10:00:00 PM 17.5 63.5 0.784 7.82 6.62 7.77
5/21/2022 10:15:00 PM 17.4 63.32 0.785 7.82 6.83 7.72
5/21/2022 10:30:00 PM 17.29 63.122 0.787 7.8 7.82 7.69
5/21/2022 10:45:00 PM 17.19 62.942 0.789 7.81 7.08 7.66
5/21/2022 11:00:00 PM 17.09 62.762 0.791 7.79 6.92 7.64
5/21/2022 11:15:00 PM 17 62.6 0.792 7.79 7.18 7.62
5/21/2022 11:30:00 PM 16.9 62.42 0.792 7.79 7.6 7.61
5/21/2022 11:45:00 PM 16.81 62.258 0.793 7.78 7.16 7.6
5/22/2022 12:00:00 AM 16.73 62.114 0.794 7.78 7.28 7.6
5/22/2022 12:15:00 AM 16.65 61.97 0.794 7.77 7.23 7.6
5/22/2022 12:30:00 AM 16.57 61.826 0.795 7.77 7.4 7.6
5/22/2022 12:45:00 AM 16.49 61.682 0.795 7.77 7.25 7.62
5/22/2022 1:00:00 AM 16.42 61.556 0.796 7.76 6.82 7.62
5/22/2022 1:15:00 AM 16.35 61.43 0.797 7.76 6.67 7.64
5/22/2022 1:30:00 AM 16.28 61.304 0.798 7.76 6.55 7.65
5/22/2022 1:45:00 AM 16.22 61.196 0.798 7.75 6.79 7.67
5/22/2022 2:00:00 AM 16.16 61.088 0.797 7.76 6.83 7.69
5/22/2022 2:15:00 AM 16.1 60.98 0.796 7.75 7.36 7.7
5/22/2022 2:30:00 AM 16.04 60.872 0.795 7.75 7.28 7.71
5/22/2022 2:45:00 AM 15.98 60.764 0.794 7.75 7.4 7.73
5/22/2022 3:00:00 AM 15.91 60.638 0.793 7.75 7.93 7.75
5/22/2022 3:15:00 AM 15.84 60.512 0.79 7.74 6.97 7.77
5/22/2022 3:30:00 AM 15.78 60.404 0.787 7.74 7.16 7.79
5/22/2022 3:45:00 AM 15.72 60.296 0.784 7.75 7.34 7.8
5/22/2022 4:00:00 AM 15.65 60.17 0.781 7.74 6.86 7.82
5/22/2022 4:15:00 AM 15.6 60.08 0.778 7.75 6.78 7.84
5/22/2022 4:30:00 AM 15.54 59.972 0.776 7.75 7.05 7.86
5/22/2022 4:45:00 AM 15.49 59.882 0.773 7.75 7.19 7.88
5/22/2022 5:00:00 AM 15.45 59.81 0.771 7.75 7.56 7.89
5/22/2022 5:15:00 AM 15.4 59.72 0.767 7.75 7.92 7.91
5/22/2022 5:30:00 AM 15.35 59.63 0.764 7.75 8.63 7.92
5/22/2022 5:45:00 AM 15.31 59.558 0.762 7.75 7.67 7.94
5/22/2022 6:00:00 AM 15.26 59.468 0.76 7.75 6.9 7.96
5/22/2022 6:15:00 AM 15.22 59.396 0.757 7.75 6.64 7.99
5/22/2022 6:30:00 AM 15.18 59.324 0.755 7.75 6.15 8.02
5/22/2022 6:45:00 AM 15.15 59.27 0.754 7.75 6.25 8.07
5/22/2022 7:00:00 AM 15.12 59.216 0.754 7.75 6.32 8.11
5/22/2022 7:15:00 AM 15.09 59.162 0.754 7.75 6.03 8.15
5/22/2022 7:30:00 AM 15.07 59.126 0.754 7.75 6.35 8.19
5/22/2022 7:45:00 AM 15.05 59.09 0.756 7.75 5.91 8.24
5/22/2022 8:00:00 AM 15.03 59.054 0.757 7.75 5.88 8.32
5/22/2022 8:15:00 AM 15.02 59.036 0.759 7.75 6 8.4
5/22/2022 8:30:00 AM 15.03 59.054 0.759 7.76 5.55 8.55
5/22/2022 8:45:00 AM 15.05 59.09 0.759 7.78 5.67 8.71
5/22/2022 9:00:00 AM 15.1 59.18 0.758 7.8 5.24 8.9
5/22/2022 9:15:00 AM 15.17 59.306 0.756 7.81 5.78 9.1
5/22/2022 9:30:00 AM 15.24 59.432 0.755 7.83 5.69 9.28
5/22/2022 9:45:00 AM 15.29 59.522 0.754 7.85 5.96 9.41
5/22/2022 10:00:00 AM 15.33 59.594 0.754 7.85 5.52 9.49
5/22/2022 10:15:00 AM 15.33 59.594 0.754 7.86 5.34 9.5
5/22/2022 10:30:00 AM 15.37 59.666 0.755 7.87 5.54 9.63
5/22/2022 10:45:00 AM 15.47 59.846 0.755 7.9 5.44 9.85
5/22/2022 11:00:00 AM 15.61 60.098 0.756 7.9 5.35 10.04
5/22/2022 11:15:00 AM 15.79 60.422 0.759 7.94 5.13 10.24
5/22/2022 11:30:00 AM 15.98 60.764 0.763 7.95 5.3 10.39
5/22/2022 11:45:00 AM 16.17 61.106 0.768 7.99 5.33 10.53
5/22/2022 12:00:00 PM 16.38 61.484 0.772 8 5.26 10.66
5/22/2022 12:15:00 PM 16.59 61.862 0.777 8.03 5.29 10.77
5/22/2022 12:30:00 PM 16.79 62.222 0.781 8.05 5.16 10.86
5/22/2022 12:45:00 PM 16.98 62.564 0.785 8.07 5.76 10.91
5/22/2022 1:00:00 PM 17.18 62.924 0.789 8.08 5.51 10.97
5/22/2022 1:15:00 PM 17.35 63.23 0.791 8.1 5.3 10.96
5/22/2022 1:30:00 PM 17.48 63.464 0.795 8.09 5.24 10.83
5/22/2022 1:45:00 PM 17.69 63.842 0.797 8.12 5.37 10.99
5/22/2022 2:00:00 PM 17.9 64.22 0.797 8.13 5.25 11.03
5/22/2022 2:15:00 PM 18.05 64.49 0.797 8.14 5.12 10.93
5/22/2022 2:30:00 PM 18.18 64.724 0.796 8.15 5.12 10.85
5/22/2022 2:45:00 PM 18.33 64.994 0.796 8.16 5.03 10.87
5/22/2022 3:00:00 PM 18.48 65.264 0.796 8.16 5.25 10.84
5/22/2022 3:15:00 PM 18.54 65.372 0.796 8.15 4.94 10.55
5/22/2022 3:30:00 PM 18.58 65.444 0.796 8.14 5.31 10.42
5/22/2022 3:45:00 PM 18.61 65.498 0.795 8.14 4.82 10.3
5/22/2022 4:00:00 PM 18.66 65.588 0.795 8.14 5.08 10.25
5/22/2022 4:15:00 PM 18.68 65.624 0.795 8.13 5.09 10.11
5/22/2022 4:30:00 PM 18.67 65.606 0.794 8.11 5.49 9.84
5/22/2022 4:45:00 PM 18.64 65.552 0.794 8.1 5.5 9.72
5/22/2022 5:00:00 PM 18.59 65.462 0.793 8.09 5.3 9.65
5/22/2022 5:15:00 PM 18.58 65.444 0.791 8.09 5.19 9.69
5/22/2022 5:30:00 PM 18.58 65.444 0.791 8.09 4.95 9.63
5/22/2022 5:45:00 PM 18.61 65.498 0.79 8.07 5.51 9.58
5/22/2022 6:00:00 PM 18.59 65.462 0.791 8.08 5.17 9.51
5/22/2022 6:15:00 PM 18.5 65.3 0.792 8.06 5.2 9.35
5/22/2022 6:30:00 PM 18.4 65.12 0.793 8.03 5.8 9.19
5/22/2022 6:45:00 PM 18.29 64.922 0.794 8.03 5.15 9.02
5/22/2022 7:00:00 PM 18.17 64.706 0.795 8 5.38 8.85
5/22/2022 7:15:00 PM 18.08 64.544 0.796 7.98 4.98 8.75
5/22/2022 7:30:00 PM 17.98 64.364 0.797 7.97 5.14 8.66
5/22/2022 7:45:00 PM 17.9 64.22 0.798 7.95 5.51 8.58
5/22/2022 8:00:00 PM 17.82 64.076 0.798 7.95 5.17 8.49
5/22/2022 8:15:00 PM 17.75 63.95 0.799 7.94 5.68 8.38
5/22/2022 8:30:00 PM 17.68 63.824 0.801 7.93 5.92 8.3
5/22/2022 8:45:00 PM 17.6 63.68 0.804 7.92 5.79 8.22
5/22/2022 9:00:00 PM 17.53 63.554 0.802 7.91 6.42 8.16
5/22/2022 9:15:00 PM 17.45 63.41 0.801 7.89 7.51 8.07
5/22/2022 9:30:00 PM 17.4 63.32 0.795 7.89 7.87 7.97
5/22/2022 9:45:00 PM 17.3 63.14 0.798 7.87 7.68 7.91
5/22/2022 10:00:00 PM 17.18 62.924 0.802 7.86 8.71 7.87
5/22/2022 10:15:00 PM 17.08 62.744 0.803 7.84 7.46 7.84
5/22/2022 10:30:00 PM 16.99 62.582 0.803 7.83 7.53 7.79
5/22/2022 10:45:00 PM 16.88 62.384 0.805 7.83 8.9 7.75
5/22/2022 11:00:00 PM 16.76 62.168 0.808 7.81 10.24 7.72
5/22/2022 11:15:00 PM 16.64 61.952 0.809 7.79 13.32 7.68
5/22/2022 11:30:00 PM 16.54 61.772 0.811 7.77 13.86 7.66
5/22/2022 11:45:00 PM 16.45 61.61 0.814 7.76 12.85 7.67
5/23/2022 12:00:00 AM 16.43 61.574 0.803 7.74 12.25 7.65
5/23/2022 12:15:00 AM 16.48 61.664 0.771 7.74 11.92 7.62
5/23/2022 12:30:00 AM 16.55 61.79 0.729 7.72 11.03 7.55
5/23/2022 12:45:00 AM 16.7 62.06 0.686 7.71 10.87 7.4
5/23/2022 1:00:00 AM 16.93 62.474 0.649 7.67 11.02 7.21
5/23/2022 1:15:00 AM 17.23 63.014 0.619 7.66 11.19 6.98
5/23/2022 1:30:00 AM 17.53 63.554 0.598 7.64 11.13 6.77
5/23/2022 1:45:00 AM 17.78 64.004 0.587 7.62 11 6.61
5/23/2022 2:00:00 AM 17.93 64.274 0.585 7.61 10.12 6.54
5/23/2022 2:15:00 AM 17.99 64.382 0.585 7.6 9.66 6.52
5/23/2022 2:30:00 AM 17.95 64.31 0.587 7.59 9.92 6.54
5/23/2022 2:45:00 AM 17.86 64.148 0.593 7.59 9 6.59
5/23/2022 3:00:00 AM 17.72 63.896 0.604 7.59 9.52 6.67
5/23/2022 3:15:00 AM 17.55 63.59 0.617 7.6 9.6 6.76
5/23/2022 3:30:00 AM 17.36 63.248 0.629 7.61 9.6 6.86
5/23/2022 3:45:00 AM 17.14 62.852 0.64 7.62 9.93 6.96
5/23/2022 4:00:00 AM 16.92 62.456 0.648 7.63 10.07 7.07
5/23/2022 4:15:00 AM 16.71 62.078 0.655 7.64 10.07 7.17
5/23/2022 4:30:00 AM 16.52 61.736 0.661 7.65 9.69 7.27
5/23/2022 4:45:00 AM 16.35 61.43 0.666 7.65 9.4 7.36
5/23/2022 5:00:00 AM 16.2 61.16 0.671 7.67 9 7.44
5/23/2022 5:15:00 AM 16.07 60.926 0.675 7.66 8.84 7.47
5/23/2022 5:30:00 AM 15.95 60.71 0.679 7.68 8.27 7.58
5/23/2022 5:45:00 AM 15.84 60.512 0.683 7.7 7.8 7.63
5/23/2022 6:00:00 AM 15.74 60.332 0.685 7.7 7.7 7.69
5/23/2022 6:15:00 AM 15.66 60.188 0.686 7.7 7.26 7.74
5/23/2022 6:30:00 AM 15.58 60.044 0.686 7.71 7.07 7.82
5/23/2022 6:45:00 AM 15.51 59.918 0.687 7.73 6.76 7.89
5/23/2022 7:00:00 AM 15.44 59.792 0.689 7.72 6.35 7.96
5/23/2022 7:15:00 AM 15.36 59.648 0.692 7.74 6.35 8.05
5/23/2022 7:30:00 AM 15.3 59.54 0.695 7.75 6.49 8.13
5/23/2022 7:45:00 AM 15.24 59.432 0.697 7.76 6.23 8.22
5/23/2022 8:00:00 AM 15.18 59.324 0.699 7.77 6.51 8.33
5/23/2022 8:15:00 AM 15.13 59.234 0.701 7.76 6.24 8.45
5/23/2022 8:30:00 AM 15.08 59.144 0.702 7.78 6.2 8.55
5/23/2022 8:45:00 AM 15.05 59.09 0.703 7.8 6.31 8.7
5/23/2022 9:00:00 AM 15.03 59.054 0.706 7.81 6.56 8.9
5/23/2022 9:15:00 AM 15.03 59.054 0.708 7.83 6.23 9.1
5/23/2022 9:30:00 AM 15.03 59.054 0.709 7.84 6.32 9.24
5/23/2022 9:45:00 AM 15.05 59.09 0.711 7.85 6.23 9.39
5/23/2022 10:00:00 AM 15.07 59.126 0.715 7.88 6.31 9.53
5/23/2022 10:15:00 AM 15.09 59.162 0.719 7.89 5.85 9.65
5/23/2022 10:30:00 AM 15.14 59.252 0.725 7.9 6.46 9.81
5/23/2022 10:45:00 AM 15.21 59.378 0.734 7.92 6.59 9.98
5/23/2022 11:00:00 AM 15.32 59.576 0.743 7.94 6.25 10.13
5/23/2022 11:15:00 AM 15.45 59.81 0.753 7.96 6.1 10.29
5/23/2022 11:30:00 AM 15.56 60.008 0.761 7.97 5.69 10.41
5/23/2022 11:45:00 AM 15.7 60.26 0.767 8 5.93 10.56
5/23/2022 12:00:00 PM 15.86 60.548 0.771 8.01 5.81 10.71
5/23/2022 12:15:00 PM 16.01 60.818 0.772 8.04 5.62 10.82
5/23/2022 12:30:00 PM 16.16 61.088 0.772 8.06 5.77 10.92
5/23/2022 12:45:00 PM 16.32 61.376 0.772 8.07 5.76 11.01
5/23/2022 1:00:00 PM 16.49 61.682 0.772 8.1 6.18 11.1
5/23/2022 1:15:00 PM 16.67 62.006 0.773 8.11 6.03 11.17
5/23/2022 1:30:00 PM 16.84 62.312 0.771 8.13 5.67 11.23
5/23/2022 1:45:00 PM 17 62.6 0.771 8.15 5.67 11.27
5/23/2022 2:00:00 PM 17.1 62.78 0.771 8.16 5.76 11.25
5/23/2022 2:15:00 PM 17.15 62.87 0.77 8.16 5.51 11.15
5/23/2022 2:30:00 PM 17.2 62.96 0.771 8.15 5.59 11.09
5/23/2022 2:45:00 PM 17.3 63.14 0.773 8.17 5.76 11.12
5/23/2022 3:00:00 PM 17.37 63.266 0.777 8.17 5.59 11.02
5/23/2022 3:15:00 PM 17.43 63.374 0.781 8.17 5.91 10.93
5/23/2022 3:30:00 PM 17.49 63.482 0.785 8.17 5.53 10.88
5/23/2022 3:45:00 PM 17.51 63.518 0.786 8.16 5.77 10.78
5/23/2022 4:00:00 PM 17.52 63.536 0.786 8.15 6.86 10.69
5/23/2022 4:15:00 PM 17.49 63.482 0.786 8.15 6.13 10.58
5/23/2022 4:30:00 PM 17.46 63.428 0.787 8.14 5.56 10.43
5/23/2022 4:45:00 PM 17.43 63.374 0.788 8.13 5.35 10.33
5/23/2022 5:00:00 PM 17.38 63.284 0.79 8.1 5.61 10.19
5/23/2022 5:15:00 PM 17.32 63.176 0.791 8.1 5.72 10.02
5/23/2022 5:30:00 PM 17.26 63.068 0.792 8.08 5.54 9.85
5/23/2022 5:45:00 PM 17.19 62.942 0.792 8.07 5.33 9.7
5/23/2022 6:00:00 PM 17.12 62.816 0.791 8.05 5.48 9.58
5/23/2022 6:15:00 PM 17.04 62.672 0.789 8.04 5.59 9.47
5/23/2022 6:30:00 PM 16.96 62.528 0.786 8.02 5.79 9.37
5/23/2022 6:45:00 PM 16.87 62.366 0.783 8.01 5.72 9.25
5/23/2022 7:00:00 PM 16.77 62.186 0.781 7.99 5.57 9.12
5/23/2022 7:15:00 PM 16.67 62.006 0.781 7.97 5.64 9
5/23/2022 7:30:00 PM 16.58 61.844 0.782 7.97 5.69 8.92
5/23/2022 7:45:00 PM 16.48 61.664 0.783 7.95 5.5 8.84
5/23/2022 8:00:00 PM 16.39 61.502 0.784 7.94 5.93 8.75
5/23/2022 8:15:00 PM 16.29 61.322 0.784 7.91 5.82 8.66
5/23/2022 8:30:00 PM 16.18 61.124 0.785 7.91 5.97 8.56
5/23/2022 8:45:00 PM 16.09 60.962 0.785 7.9 7.15 8.47
5/23/2022 9:00:00 PM 15.99 60.782 0.787 7.89 6.6 8.41
5/23/2022 9:15:00 PM 15.91 60.638 0.788 7.88 7.03 8.36
5/23/2022 9:30:00 PM 15.82 60.476 0.791 7.87 7.49 8.32
5/23/2022 9:45:00 PM 15.74 60.332 0.793 7.85 6.8 8.28
5/23/2022 10:00:00 PM 15.67 60.206 0.797 7.85 6.98 8.25
5/23/2022 10:15:00 PM 15.6 60.08 0.802 7.85 7.2 8.22
5/23/2022 10:30:00 PM 15.54 59.972 0.806 7.84 6.98 8.19
5/23/2022 10:45:00 PM 15.48 59.864 0.809 7.84 6.78 8.18
5/23/2022 11:00:00 PM 15.43 59.774 0.811 7.83 6.93 8.15
5/23/2022 11:15:00 PM 15.38 59.684 0.812 7.83 6.79 8.13
5/23/2022 11:30:00 PM 15.34 59.612 0.813 7.82 6.98 8.12
5/23/2022 11:45:00 PM 15.3 59.54 0.814 7.82 7.1 8.11
5/24/2022 12:00:00 AM 15.26 59.468 0.815 7.82 6.89 8.1
5/24/2022 12:15:00 AM 15.22 59.396 0.817 7.82 6.87 8.1
5/24/2022 12:30:00 AM 15.18 59.324 0.818 7.81 6.65 8.1
5/24/2022 12:45:00 AM 15.13 59.234 0.82 7.82 7.22 8.11
5/24/2022 1:00:00 AM 15.09 59.162 0.823 7.81 6.71 8.12
5/24/2022 1:15:00 AM 15.04 59.072 0.824 7.81 6.94 8.12
5/24/2022 1:30:00 AM 15.01 59.018 0.825 7.81 7.17 8.13
5/24/2022 1:45:00 AM 14.97 58.946 0.826 7.8 6.6 8.14
5/24/2022 2:00:00 AM 14.94 58.892 0.826 7.81 6.86 8.14
5/24/2022 2:15:00 AM 14.9 58.82 0.825 7.81 6.68 8.15
5/24/2022 2:30:00 AM 14.87 58.766 0.825 7.8 6.68 8.16
5/24/2022 2:45:00 AM 14.83 58.694 0.824 7.81 6.39 8.17
5/24/2022 3:00:00 AM 14.79 58.622 0.821 7.81 6.69 8.18
5/24/2022 3:15:00 AM 14.75 58.55 0.816 7.8 6.42 8.19
5/24/2022 3:30:00 AM 14.71 58.478 0.81 7.81 6.64 8.21
5/24/2022 3:45:00 AM 14.67 58.406 0.805 7.81 6.62 8.23
5/24/2022 4:00:00 AM 14.63 58.334 0.8 7.8 7.15 8.24
5/24/2022 4:15:00 AM 14.59 58.262 0.795 7.81 6.92 8.26
5/24/2022 4:30:00 AM 14.55 58.19 0.79 7.8 6.81 8.28
5/24/2022 4:45:00 AM 14.51 58.118 0.784 7.8 6.81 8.29
5/24/2022 5:00:00 AM 14.47 58.046 0.779 7.81 7.27 8.31
5/24/2022 5:15:00 AM 14.44 57.992 0.775 7.82 6.87 8.32
5/24/2022 5:30:00 AM 14.41 57.938 0.772 7.82 7.71 8.34
5/24/2022 5:45:00 AM 14.38 57.884 0.769 7.82 7.02 8.36
5/24/2022 6:00:00 AM 14.35 57.83 0.766 7.82 6.89 8.37
5/24/2022 6:15:00 AM 14.32 57.776 0.765 7.82 6.77 8.39
5/24/2022 6:30:00 AM 14.31 57.758 0.765 7.81 6.46 8.42
5/24/2022 6:45:00 AM 14.29 57.722 0.766 7.82 6.23 8.45
5/24/2022 7:00:00 AM 14.28 57.704 0.766 7.82 6.36 8.5
5/24/2022 7:15:00 AM 14.27 57.686 0.766 7.83 5.93 8.56
5/24/2022 7:30:00 AM 14.27 57.686 0.766 7.82 6.15 8.64
5/24/2022 7:45:00 AM 14.27 57.686 0.767 7.83 6.05 8.7
5/24/2022 8:00:00 AM 14.27 57.686 0.769 7.84 5.85 8.8
5/24/2022 8:15:00 AM 14.28 57.704 0.771 7.86 5.6 8.87
5/24/2022 8:30:00 AM 14.29 57.722 0.774 7.86 5.7 8.96
5/24/2022 8:45:00 AM 14.3 57.74 0.776 7.87 5.87 9.02
5/24/2022 9:00:00 AM 14.31 57.758 0.777 7.87 5.88 9.06
5/24/2022 9:15:00 AM 14.32 57.776 0.778 7.88 6.05 9.14
5/24/2022 9:30:00 AM 14.34 57.812 0.779 7.89 5.95 9.25
5/24/2022 9:45:00 AM 14.36 57.848 0.781 7.9 6.11 9.36
5/24/2022 10:00:00 AM 14.4 57.92 0.784 7.91 5.87 9.48
5/24/2022 10:15:00 AM 14.45 58.01 0.787 7.92 5.81 9.63
5/24/2022 10:30:00 AM 14.5 58.1 0.792 7.94 5.73 9.76
5/24/2022 10:45:00 AM 14.56 58.208 0.799 7.95 6.05 9.88
5/24/2022 11:00:00 AM 14.67 58.406 0.807 7.97 6.19 10.12
5/24/2022 11:15:00 AM 14.76 58.568 0.816 7.99 5.89 10.31
5/24/2022 11:30:00 AM 14.84 58.712 0.824 7.99 5.48 10.33
5/24/2022 11:45:00 AM 14.91 58.838 0.829 8.01 5.36 10.34
5/24/2022 12:00:00 PM 14.91 58.838 0.832 8.01 5.41 10.18
5/24/2022 12:15:00 PM 14.92 58.856 0.834 8 5.34 10.09
5/24/2022 12:30:00 PM 14.92 58.856 0.837 7.99 5.21 9.99
5/24/2022 12:45:00 PM 14.93 58.874 0.84 8 5.46 9.93
5/24/2022 1:00:00 PM 14.95 58.91 0.843 8 5.71 9.91
5/24/2022 1:15:00 PM 14.98 58.964 0.845 7.99 5.71 9.9
5/24/2022 1:30:00 PM 15.01 59.018 0.849 7.99 5.43 9.85
5/24/2022 1:45:00 PM 15.05 59.09 0.854 7.99 5.41 9.85
5/24/2022 2:00:00 PM 15.08 59.144 0.858 7.99 5.65 9.77
5/24/2022 2:15:00 PM 15.11 59.198 0.861 7.99 5.26 9.76
5/24/2022 2:30:00 PM 15.15 59.27 0.862 8 5.63 9.82
5/24/2022 2:45:00 PM 15.17 59.306 0.864 8 5.73 9.82
5/24/2022 3:00:00 PM 15.18 59.324 0.864 8.01 6.2 9.78
5/24/2022 3:15:00 PM 15.18 59.324 0.861 8.01 5.91 9.78
5/24/2022 3:30:00 PM 15.17 59.306 0.857 8.01 6 9.81
5/24/2022 3:45:00 PM 15.18 59.324 0.852 8.01 5.77 9.9
5/24/2022 4:00:00 PM 15.18 59.324 0.846 8.02 6.4 9.85
5/24/2022 4:15:00 PM 15.18 59.324 0.84 8.02 6.16 9.87
5/24/2022 4:30:00 PM 15.18 59.324 0.835 8.02 6.21 9.93
5/24/2022 4:45:00 PM 15.17 59.306 0.833 8.02 6.12 9.83
5/24/2022 5:00:00 PM 15.16 59.288 0.831 8.01 6.54 9.78
5/24/2022 5:15:00 PM 15.14 59.252 0.83 8.02 6.45 9.74
5/24/2022 5:30:00 PM 15.13 59.234 0.827 8 6.58 9.71
5/24/2022 5:45:00 PM 15.13 59.234 0.825 8.01 6.73 9.68
5/24/2022 6:00:00 PM 15.12 59.216 0.824 8.01 7.89 9.7
5/24/2022 6:15:00 PM 15.12 59.216 0.824 8 7.21 9.68
5/24/2022 6:30:00 PM 15.11 59.198 0.825 8.01 7.56 9.62
5/24/2022 6:45:00 PM 15.1 59.18 0.827 8 6.92 9.6
5/24/2022 7:00:00 PM 15.1 59.18 0.828 8 7.35 9.54
5/24/2022 7:15:00 PM 15.09 59.162 0.828 7.99 7.36 9.48
5/24/2022 7:30:00 PM 15.07 59.126 0.827 7.99 7.07 9.41
5/24/2022 7:45:00 PM 15.05 59.09 0.824 7.98 7.4 9.32
5/24/2022 8:00:00 PM 15.03 59.054 0.822 7.97 7.45 9.24
5/24/2022 8:15:00 PM 14.99 58.982 0.82 7.96 7.57 9.16
5/24/2022 8:30:00 PM 14.96 58.928 0.82 7.96 7.41 9.08
5/24/2022 8:45:00 PM 14.92 58.856 0.82 7.94 8.84 9.01
5/24/2022 9:00:00 PM 14.89 58.802 0.821 7.94 8.08 8.95
5/24/2022 9:15:00 PM 14.86 58.748 0.822 7.92 8.17 8.9
5/24/2022 9:30:00 PM 14.84 58.712 0.823 7.92 8.45 8.86
5/24/2022 9:45:00 PM 14.81 58.658 0.825 7.92 8.19 8.82
5/24/2022 10:00:00 PM 14.79 58.622 0.827 7.92 8.12 8.78
5/24/2022 10:15:00 PM 14.77 58.586 0.83 7.91 8.17 8.75
5/24/2022 10:30:00 PM 14.75 58.55 0.833 7.89 7.85 8.71
5/24/2022 10:45:00 PM 14.73 58.514 0.836 7.9 8.07 8.66
5/24/2022 11:00:00 PM 14.7 58.46 0.838 7.89 7.81 8.63
5/24/2022 11:15:00 PM 14.68 58.424 0.839 7.88 7.86 8.59
5/24/2022 11:30:00 PM 14.65 58.37 0.84 7.88 8.12 8.57
5/24/2022 11:45:00 PM 14.62 58.316 0.84 7.88 8.04 8.54
5/25/2022 12:00:00 AM 14.59 58.262 0.84 7.87 7.71 8.52
5/25/2022 12:15:00 AM 14.57 58.226 0.84 7.86 7.65 8.51
5/25/2022 12:30:00 AM 14.54 58.172 0.84 7.87 7.64 8.49
5/25/2022 12:45:00 AM 14.52 58.136 0.84 7.86 7.82 8.48
5/25/2022 1:00:00 AM 14.49 58.082 0.841 7.86 7.41 8.48
5/25/2022 1:15:00 AM 14.47 58.046 0.841 7.86 7.81 8.48
5/25/2022 1:30:00 AM 14.44 57.992 0.84 7.84 8.44 8.48
5/25/2022 1:45:00 AM 14.41 57.938 0.838 7.86 8.29 8.48
5/25/2022 2:00:00 AM 14.38 57.884 0.835 7.86 8.24 8.48
5/25/2022 2:15:00 AM 14.34 57.812 0.833 7.85 8.5 8.48
5/25/2022 2:30:00 AM 14.3 57.74 0.83 7.86 8.49 8.49
5/25/2022 2:45:00 AM 14.26 57.668 0.827 7.85 8.11 8.49
5/25/2022 3:00:00 AM 14.21 57.578 0.823 7.86 7.78 8.49
5/25/2022 3:15:00 AM 14.17 57.506 0.819 7.86 7.65 8.52
5/25/2022 3:30:00 AM 14.13 57.434 0.815 7.86 7.82 8.54
5/25/2022 3:45:00 AM 14.08 57.344 0.809 7.85 7.46 8.54
5/25/2022 4:00:00 AM 14.03 57.254 0.803 7.85 7.42 8.56
5/25/2022 4:15:00 AM 13.98 57.164 0.798 7.85 7.66 8.58
5/25/2022 4:30:00 AM 13.94 57.092 0.794 7.86 7.35 8.6
5/25/2022 4:45:00 AM 13.89 57.002 0.791 7.85 7.68 8.61
5/25/2022 5:00:00 AM 13.84 56.912 0.787 7.86 7.71 8.63
5/25/2022 5:15:00 AM 13.8 56.84 0.785 7.86 7.83 8.64
5/25/2022 5:30:00 AM 13.76 56.768 0.782 7.87 7.85 8.66
5/25/2022 5:45:00 AM 13.73 56.714 0.779 7.87 7.59 8.68
5/25/2022 6:00:00 AM 13.7 56.66 0.777 7.87 6.84 8.7
5/25/2022 6:15:00 AM 13.67 56.606 0.775 7.86 6.97 8.73
5/25/2022 6:30:00 AM 13.65 56.57 0.773 7.87 7.32 8.75
5/25/2022 6:45:00 AM 13.63 56.534 0.771 7.86 6.93 8.81
5/25/2022 7:00:00 AM 13.61 56.498 0.77 7.88 6.76 8.89
5/25/2022 7:15:00 AM 13.6 56.48 0.768 7.89 6.79 8.97
5/25/2022 7:30:00 AM 13.6 56.48 0.767 7.88 6.59 9.07
5/25/2022 7:45:00 AM 13.6 56.48 0.767 7.91 6.17 9.18
5/25/2022 8:00:00 AM 13.61 56.498 0.768 7.91 6.03 9.28
5/25/2022 8:15:00 AM 13.63 56.534 0.769 7.92 6.12 9.37
5/25/2022 8:30:00 AM 13.66 56.588 0.77 7.94 6.24 9.52
5/25/2022 8:45:00 AM 13.7 56.66 0.771 7.95 6.27 9.68
5/25/2022 9:00:00 AM 13.74 56.732 0.772 7.96 6.11 9.78
5/25/2022 9:15:00 AM 13.79 56.822 0.773 7.97 6.11 9.91
5/25/2022 9:30:00 AM 13.83 56.894 0.773 7.98 6.24 10
5/25/2022 9:45:00 AM 13.88 56.984 0.773 8 6.31 10.14
5/25/2022 10:00:00 AM 13.95 57.11 0.775 8 6.33 10.29
5/25/2022 10:15:00 AM 14.03 57.254 0.779 8.03 6.25 10.44
5/25/2022 10:30:00 AM 14.11 57.398 0.783 8.04 6 10.55
5/25/2022 10:45:00 AM 14.2 57.56 0.789 8.04 6.16 10.7
5/25/2022 11:00:00 AM 14.3 57.74 0.797 8.07 5.96 10.81
5/25/2022 11:15:00 AM 14.44 57.992 0.804 8.09 6.37 10.97
5/25/2022 11:30:00 AM 14.57 58.226 0.81 8.1 6.12 11.07
5/25/2022 11:45:00 AM 14.71 58.478 0.814 8.12 6.49 11.17
5/25/2022 12:00:00 PM 14.85 58.73 0.816 8.14 6.23 11.28
5/25/2022 12:15:00 PM 14.99 58.982 0.817 8.16 6.25 11.41
5/25/2022 12:30:00 PM 15.11 59.198 0.817 8.17 5.97 11.46
5/25/2022 12:45:00 PM 15.24 59.432 0.816 8.19 6.19 11.52
5/25/2022 1:00:00 PM 15.38 59.684 0.816 8.2 6.57 11.63
5/25/2022 1:15:00 PM 15.52 59.936 0.816 8.22 6.19 11.67
5/25/2022 1:30:00 PM 15.67 60.206 0.817 8.23 6.62 11.7
5/25/2022 1:45:00 PM 15.84 60.512 0.818 8.25 7.53 11.71
5/25/2022 2:00:00 PM 16.01 60.818 0.82 8.26 8.06 11.7
5/25/2022 2:15:00 PM 16.15 61.07 0.822 8.26 7.28 11.67
5/25/2022 2:30:00 PM 16.21 61.178 0.826 8.25 7.05 11.54
5/25/2022 2:45:00 PM 16.27 61.286 0.83 8.25 7.06 11.4
5/25/2022 3:00:00 PM 16.35 61.43 0.832 8.24 6.81 11.37
5/25/2022 3:15:00 PM 16.44 61.592 0.834 8.24 6.93 11.36
5/25/2022 3:30:00 PM 16.55 61.79 0.835 8.25 6.51 11.33
5/25/2022 3:45:00 PM 16.65 61.97 0.836 8.25 6.57 11.21
5/25/2022 4:00:00 PM 16.74 62.132 0.836 8.24 6.4 11.14
5/25/2022 4:15:00 PM 16.79 62.222 0.834 8.24 6.89 10.99
5/25/2022 4:30:00 PM 16.84 62.312 0.831 8.24 6.55 10.97
5/25/2022 4:45:00 PM 16.83 62.294 0.827 8.23 6.43 10.77
5/25/2022 5:00:00 PM 16.86 62.348 0.824 8.23 6.27 10.68
5/25/2022 5:15:00 PM 16.84 62.312 0.821 8.21 6.35 10.53
5/25/2022 5:30:00 PM 16.8 62.24 0.818 8.2 6.44 10.38
5/25/2022 5:45:00 PM 16.76 62.168 0.816 8.18 6.18 10.35
5/25/2022 6:00:00 PM 16.69 62.042 0.814 8.18 6.33 10.2
5/25/2022 6:15:00 PM 16.64 61.952 0.813 8.16 6.26 10.07
5/25/2022 6:30:00 PM 16.6 61.88 0.812 8.15 6.24 9.91
5/25/2022 6:45:00 PM 16.56 61.808 0.812 8.13 6.44 9.83
5/25/2022 7:00:00 PM 16.52 61.736 0.811 8.12 6.38 9.71
5/25/2022 7:15:00 PM 16.47 61.646 0.811 8.11 6.59 9.6
5/25/2022 7:30:00 PM 16.42 61.556 0.812 8.08 6.64 9.49
5/25/2022 7:45:00 PM 16.36 61.448 0.813 8.07 6.79 9.37
5/25/2022 8:00:00 PM 16.3 61.34 0.814 8.06 6.73 9.24
5/25/2022 8:15:00 PM 16.23 61.214 0.815 8.04 7.3 9.11
5/25/2022 8:30:00 PM 16.15 61.07 0.815 8.03 6.79 9
5/25/2022 8:45:00 PM 16.06 60.908 0.815 8.01 7.09 8.9
5/25/2022 9:00:00 PM 15.98 60.764 0.816 8 7.02 8.81
5/25/2022 9:15:00 PM 15.9 60.62 0.819 7.97 8.21 8.74
5/25/2022 9:30:00 PM 15.82 60.476 0.823 7.97 7.77 8.67
5/25/2022 9:45:00 PM 15.75 60.35 0.827 7.96 7.83 8.6
5/25/2022 10:00:00 PM 15.69 60.242 0.831 7.94 7.75 8.54
5/25/2022 10:15:00 PM 15.64 60.152 0.835 7.94 8.13 8.49
5/25/2022 10:30:00 PM 15.58 60.044 0.837 7.92 7.69 8.44
5/25/2022 10:45:00 PM 15.51 59.918 0.84 7.92 7.9 8.39
5/25/2022 11:00:00 PM 15.45 59.81 0.842 7.92 8.05 8.35
5/25/2022 11:15:00 PM 15.37 59.666 0.844 7.91 7.96 8.33
5/25/2022 11:30:00 PM 15.31 59.558 0.847 7.9 7.8 8.31
5/25/2022 11:45:00 PM 15.25 59.45 0.85 7.9 8.04 8.28
5/26/2022 12:00:00 AM 15.19 59.342 0.852 7.89 8.01 8.27
5/26/2022 12:15:00 AM 15.13 59.234 0.853 7.89 7.87 8.26
5/26/2022 12:30:00 AM 15.07 59.126 0.855 7.88 7.28 8.26
5/26/2022 12:45:00 AM 15.02 59.036 0.857 7.88 7.41 8.26
5/26/2022 1:00:00 AM 14.97 58.946 0.859 7.88 7.61 8.26
5/26/2022 1:15:00 AM 14.91 58.838 0.861 7.88 8.14 8.26
5/26/2022 1:30:00 AM 14.87 58.766 0.862 7.87 9.17 8.27
5/26/2022 1:45:00 AM 14.82 58.676 0.862 7.88 7.64 8.28
5/26/2022 2:00:00 AM 14.77 58.586 0.861 7.87 8.09 8.29
5/26/2022 2:15:00 AM 14.72 58.496 0.86 7.86 7.53 8.29
5/26/2022 2:30:00 AM 14.68 58.424 0.858 7.87 8.23 8.3
5/26/2022 2:45:00 AM 14.63 58.334 0.856 7.86 8.04 8.31
5/26/2022 3:00:00 AM 14.58 58.244 0.852 7.87 8.07 8.33
5/26/2022 3:15:00 AM 14.54 58.172 0.848 7.86 8.17 8.34
5/26/2022 3:30:00 AM 14.49 58.082 0.844 7.88 8.11 8.36
5/26/2022 3:45:00 AM 14.43 57.974 0.838 7.87 8.37 8.37
5/26/2022 4:00:00 AM 14.38 57.884 0.833 7.86 9.04 8.39
5/26/2022 4:15:00 AM 14.33 57.794 0.828 7.87 8.9 8.41
5/26/2022 4:30:00 AM 14.28 57.704 0.823 7.88 8.79 8.42
5/26/2022 4:45:00 AM 14.22 57.596 0.819 7.87 7.9 8.44
5/26/2022 5:00:00 AM 14.17 57.506 0.815 7.88 8.46 8.46
5/26/2022 5:15:00 AM 14.13 57.434 0.812 7.87 7.99 8.48
5/26/2022 5:30:00 AM 14.09 57.362 0.808 7.88 8.11 8.5
5/26/2022 5:45:00 AM 14.05 57.29 0.806 7.87 8.13 8.51
5/26/2022 6:00:00 AM 14.02 57.236 0.804 7.88 7.72 8.54
5/26/2022 6:15:00 AM 13.99 57.182 0.802 7.88 6.98 8.56
5/26/2022 6:30:00 AM 13.96 57.128 0.8 7.87 6.88 8.6
5/26/2022 6:45:00 AM 13.93 57.074 0.798 7.89 6.97 8.64
5/26/2022 7:00:00 AM 13.91 57.038 0.797 7.89 6.71 8.71
5/26/2022 7:15:00 AM 13.89 57.002 0.796 7.89 6.65 8.79
5/26/2022 7:30:00 AM 13.88 56.984 0.795 7.91 6.41 8.9
5/26/2022 7:45:00 AM 13.87 56.966 0.795 7.9 6.47 9.01
5/26/2022 8:00:00 AM 13.88 56.984 0.795 7.92 6.27 9.12
5/26/2022 8:15:00 AM 13.89 57.002 0.795 7.93 5.98 9.25
5/26/2022 8:30:00 AM 13.91 57.038 0.795 7.94 6.02 9.37
5/26/2022 8:45:00 AM 13.93 57.074 0.795 7.96 5.88 9.48
5/26/2022 9:00:00 AM 13.95 57.11 0.796 7.96 6.32 9.57
5/26/2022 9:15:00 AM 13.98 57.164 0.797 7.97 6.28 9.68
5/26/2022 9:30:00 AM 14.01 57.218 0.798 7.98 6.19 9.75
5/26/2022 9:45:00 AM 14.05 57.29 0.798 7.99 6.02 9.88
5/26/2022 10:00:00 AM 14.09 57.362 0.798 8 5.81 9.97
5/26/2022 10:15:00 AM 14.12 57.416 0.8 8 6.09 10.02
5/26/2022 10:30:00 AM 14.18 57.524 0.803 8.02 5.72 10.13
5/26/2022 10:45:00 AM 14.25 57.65 0.808 8.03 6.13 10.26
5/26/2022 11:00:00 AM 14.32 57.776 0.814 8.03 5.71 10.25
5/26/2022 11:15:00 AM 14.4 57.92 0.823 8.05 6.16 10.31
5/26/2022 11:30:00 AM 14.48 58.064 0.831 8.05 5.52 10.35
5/26/2022 11:45:00 AM 14.56 58.208 0.839 8.06 6.08 10.37
5/26/2022 12:00:00 PM 14.65 58.37 0.844 8.06 5.89 10.41
5/26/2022 12:15:00 PM 14.74 58.532 0.847 8.08 6.24 10.49
5/26/2022 12:30:00 PM 14.83 58.694 0.849 8.09 6.11 10.59
5/26/2022 12:45:00 PM 14.95 58.91 0.85 8.11 5.95 10.71
5/26/2022 1:00:00 PM 15.02 59.036 0.851 8.11 5.83 10.65
5/26/2022 1:15:00 PM 15.08 59.144 0.852 8.11 5.82 10.59
5/26/2022 1:30:00 PM 15.14 59.252 0.853 8.1 5.92 10.56
5/26/2022 1:45:00 PM 15.17 59.306 0.852 8.11 5.71 10.47
5/26/2022 2:00:00 PM 15.21 59.378 0.851 8.1 5.84 10.38
5/26/2022 2:15:00 PM 15.24 59.432 0.849 8.1 6.95 10.33
5/26/2022 2:30:00 PM 15.28 59.504 0.846 8.1 5.84 10.29
5/26/2022 2:45:00 PM 15.32 59.576 0.844 8.1 5.91 10.28
5/26/2022 3:00:00 PM 15.36 59.648 0.842 8.1 5.87 10.28
5/26/2022 3:15:00 PM 15.4 59.72 0.84 8.11 5.76 10.22
5/26/2022 3:30:00 PM 15.44 59.792 0.838 8.11 5.96 10.19
5/26/2022 3:45:00 PM 15.48 59.864 0.836 8.11 5.73 10.21
5/26/2022 4:00:00 PM 15.52 59.936 0.835 8.09 5.93 10.16
5/26/2022 4:15:00 PM 15.56 60.008 0.834 8.11 5.73 10.18
5/26/2022 4:30:00 PM 15.59 60.062 0.834 8.11 5.63 10.15
5/26/2022 4:45:00 PM 15.6 60.08 0.834 8.09 5.45 10.09
5/26/2022 5:00:00 PM 15.62 60.116 0.835 8.1 5.61 10.03
5/26/2022 5:15:00 PM 15.62 60.116 0.835 8.09 5.79 9.96
5/26/2022 5:30:00 PM 15.63 60.134 0.835 8.09 5.72 9.89
5/26/2022 5:45:00 PM 15.63 60.134 0.835 8.07 5.89 9.77
5/26/2022 6:00:00 PM 15.62 60.116 0.835 8.07 5.55 9.64
5/26/2022 6:15:00 PM 15.62 60.116 0.836 8.05 5.74 9.53
5/26/2022 6:30:00 PM 15.62 60.116 0.836 8.05 5.94 9.45
5/26/2022 6:45:00 PM 15.63 60.134 0.837 8.03 5.84 9.41
5/26/2022 7:00:00 PM 15.64 60.152 0.837 8.04 5.89 9.34
5/26/2022 7:15:00 PM 15.64 60.152 0.838 8.03 6.82 9.28
5/26/2022 7:30:00 PM 15.63 60.134 0.838 8.02 5.82 9.2
5/26/2022 7:45:00 PM 15.61 60.098 0.838 8 5.95 9.1
5/26/2022 8:00:00 PM 15.6 60.08 0.839 8 5.92 9
5/26/2022 8:15:00 PM 15.58 60.044 0.841 7.99 6.67 8.92
5/26/2022 8:30:00 PM 15.55 59.99 0.844 7.98 6.97 8.82
5/26/2022 8:45:00 PM 15.53 59.954 0.848 7.96 7.57 8.73
5/26/2022 9:00:00 PM 15.5 59.9 0.851 7.96 6.79 8.65
5/26/2022 9:15:00 PM 15.48 59.864 0.855 7.94 7.36 8.58
5/26/2022 9:30:00 PM 15.46 59.828 0.858 7.94 7.32 8.52
5/26/2022 9:45:00 PM 15.43 59.774 0.862 7.94 7.18 8.47
5/26/2022 10:00:00 PM 15.4 59.72 0.866 7.93 7.45 8.43
5/26/2022 10:15:00 PM 15.38 59.684 0.87 7.92 7.96 8.39
5/26/2022 10:30:00 PM 15.35 59.63 0.874 7.91 7.89 8.35
5/26/2022 10:45:00 PM 15.33 59.594 0.877 7.9 7.96 8.32
5/26/2022 11:00:00 PM 15.31 59.558 0.88 7.9 8.24 8.3
5/26/2022 11:15:00 PM 15.29 59.522 0.882 7.9 7.8 8.27
5/26/2022 11:30:00 PM 15.27 59.486 0.884 7.88 7.33 8.25
5/26/2022 11:45:00 PM 15.25 59.45 0.885 7.89 7.41 8.23
5/27/2022 12:00:00 AM 15.23 59.414 0.886 7.88 7.73 8.22
5/27/2022 12:15:00 AM 15.21 59.378 0.887 7.88 7.64 8.21
5/27/2022 12:30:00 AM 15.19 59.342 0.888 7.88 7.47 8.2
5/27/2022 12:45:00 AM 15.17 59.306 0.89 7.88 8.07 8.19
5/27/2022 1:00:00 AM 15.15 59.27 0.891 7.88 7.8 8.18
5/27/2022 1:15:00 AM 15.13 59.234 0.891 7.86 7.39 8.18
5/27/2022 1:30:00 AM 15.11 59.198 0.891 7.87 7.33 8.18
5/27/2022 1:45:00 AM 15.09 59.162 0.89 7.87 8 8.18
5/27/2022 2:00:00 AM 15.07 59.126 0.89 7.86 7.35 8.18
5/27/2022 2:15:00 AM 15.06 59.108 0.889 7.86 8.08 8.18
5/27/2022 2:30:00 AM 15.03 59.054 0.887 7.86 7.16 8.18
5/27/2022 2:45:00 AM 15.01 59.018 0.884 7.86 7.06 8.16
5/27/2022 3:00:00 AM 14.98 58.964 0.879 7.85 7.38 8.18
5/27/2022 3:15:00 AM 14.96 58.928 0.874 7.86 7.17 8.2
5/27/2022 3:30:00 AM 14.93 58.874 0.869 7.85 7.17 8.2
5/27/2022 3:45:00 AM 14.9 58.82 0.864 7.85 7.63 8.21
5/27/2022 4:00:00 AM 14.88 58.784 0.859 7.86 7.08 8.22
5/27/2022 4:15:00 AM 14.85 58.73 0.852 7.85 7.74 8.23
5/27/2022 4:30:00 AM 14.82 58.676 0.846 7.86 7.58 8.24
5/27/2022 4:45:00 AM 14.79 58.622 0.84 7.86 7.79 8.25
5/27/2022 5:00:00 AM 14.76 58.568 0.834 7.85 7.75 8.27
5/27/2022 5:15:00 AM 14.73 58.514 0.829 7.86 8.55 8.28
5/27/2022 5:30:00 AM 14.71 58.478 0.825 7.86 7.5 8.29
5/27/2022 5:45:00 AM 14.69 58.442 0.821 7.86 7.16 8.31
5/27/2022 6:00:00 AM 14.66 58.388 0.817 7.86 6.93 8.32
5/27/2022 6:15:00 AM 14.64 58.352 0.811 7.86 6.92 8.34
5/27/2022 6:30:00 AM 14.62 58.316 0.805 7.87 6.85 8.37
5/27/2022 6:45:00 AM 14.59 58.262 0.801 7.87 7.12 8.39
5/27/2022 7:00:00 AM 14.57 58.226 0.798 7.87 7.23 8.42
5/27/2022 7:15:00 AM 14.56 58.208 0.797 7.87 6.48 8.45
5/27/2022 7:30:00 AM 14.55 58.19 0.797 7.87 6.16 8.49
5/27/2022 7:45:00 AM 14.55 58.19 0.798 7.87 6.3 8.52
5/27/2022 8:00:00 AM 14.56 58.208 0.799 7.87 6.72 8.57
5/27/2022 8:15:00 AM 14.57 58.226 0.801 7.88 6.21 8.63
5/27/2022 8:30:00 AM 14.59 58.262 0.804 7.89 6.23 8.68
5/27/2022 8:45:00 AM 14.6 58.28 0.807 7.88 6.23 8.72
5/27/2022 9:00:00 AM 14.63 58.334 0.808 7.89 6.13 8.81
5/27/2022 9:15:00 AM 14.65 58.37 0.808 7.9 5.75 8.92
5/27/2022 9:30:00 AM 14.68 58.424 0.807 7.91 5.94 8.96
5/27/2022 9:45:00 AM 14.71 58.478 0.808 7.92 6.24 9.06
5/27/2022 10:00:00 AM 14.75 58.55 0.809 7.92 6.43 9.16
5/27/2022 10:15:00 AM 14.79 58.622 0.811 7.94 5.87 9.21
5/27/2022 10:30:00 AM 14.85 58.73 0.814 7.94 5.75 9.3
5/27/2022 10:45:00 AM 14.89 58.802 0.819 7.95 6.07 9.27
5/27/2022 11:00:00 AM 14.93 58.874 0.826 7.95 5.95 9.25
5/27/2022 11:15:00 AM 14.98 58.964 0.833 7.95 5.67 9.25
5/27/2022 11:30:00 AM 15.03 59.054 0.841 7.96 5.94 9.23
5/27/2022 11:45:00 AM 15.09 59.162 0.848 7.95 5.95 9.25
5/27/2022 12:00:00 PM 15.15 59.27 0.855 7.96 5.63 9.26
5/27/2022 12:15:00 PM 15.21 59.378 0.86 7.96 5.66 9.24
5/27/2022 12:30:00 PM 15.27 59.486 0.863 7.97 5.62 9.29
5/27/2022 12:45:00 PM 15.32 59.576 0.864 7.97 5.44 9.32
5/27/2022 1:00:00 PM 15.39 59.702 0.864 7.99 5.62 9.45
5/27/2022 1:15:00 PM 15.46 59.828 0.863 7.99 5.17 9.54
5/27/2022 1:30:00 PM 15.57 60.026 0.862 8.02 5.39 9.79
5/27/2022 1:45:00 PM 15.63 60.134 0.862 8.02 5.59 9.72
5/27/2022 2:00:00 PM 15.68 60.224 0.857 8.02 5.81 9.53
5/27/2022 2:15:00 PM 15.71 60.278 0.845 8 10.95 9.33
5/27/2022 2:30:00 PM 15.78 60.404 0.828 8 7.91 9.1
5/27/2022 2:45:00 PM 15.73 60.314 0.832 7.99 7.39 9.06
5/27/2022 3:00:00 PM 15.72 60.296 0.831 7.99 7.51 9.11
5/27/2022 3:15:00 PM 15.75 60.35 0.826 8 7.8 9.21
5/27/2022 3:30:00 PM 15.8 60.44 0.822 7.99 8.2 9.28
5/27/2022 3:45:00 PM 15.85 60.53 0.819 8.01 8.47 9.41
5/27/2022 4:00:00 PM 15.88 60.584 0.818 8.01 8.61 9.5
5/27/2022 4:15:00 PM 15.91 60.638 0.815 8.02 10.2 9.49
5/27/2022 4:30:00 PM 15.94 60.692 0.81 8.01 9.09 9.41
5/27/2022 4:45:00 PM 15.93 60.674 0.81 7.99 10.11 9.28
5/27/2022 5:00:00 PM 15.9 60.62 0.815 7.97 9.58 9.12
5/27/2022 5:15:00 PM 15.87 60.566 0.819 7.96 9.63 9.04
5/27/2022 5:30:00 PM 15.87 60.566 0.822 7.94 9.2 9.07
5/27/2022 5:45:00 PM 15.89 60.602 0.82 7.96 9.25 9.16
5/27/2022 6:00:00 PM 15.91 60.638 0.81 7.96 8.34 9.28
5/27/2022 6:15:00 PM 15.92 60.656 0.796 7.95 7.77 9.33
5/27/2022 6:30:00 PM 15.92 60.656 0.782 7.94 8.03 9.23
5/27/2022 6:45:00 PM 15.95 60.71 0.767 7.91 7.97 9.04
5/27/2022 7:00:00 PM 16.02 60.836 0.752 7.86 7.74 8.76
5/27/2022 7:15:00 PM 16.13 61.034 0.736 7.83 8.25 8.47
5/27/2022 7:30:00 PM 16.27 61.286 0.722 7.79 8.6 8.22
5/27/2022 7:45:00 PM 16.41 61.538 0.713 7.78 8.8 8.04
5/27/2022 8:00:00 PM 16.52 61.736 0.707 7.74 8.79 7.91
5/27/2022 8:15:00 PM 16.59 61.862 0.705 7.75 8.92 7.83
5/27/2022 8:30:00 PM 16.62 61.916 0.709 7.74 8.49 7.77
5/27/2022 8:45:00 PM 16.61 61.898 0.718 7.73 8.71 7.74
5/27/2022 9:00:00 PM 16.57 61.826 0.73 7.73 8.78 7.73
5/27/2022 9:15:00 PM 16.48 61.664 0.746 7.72 8.76 7.73
5/27/2022 9:30:00 PM 16.38 61.484 0.762 7.73 8.54 7.72
5/27/2022 9:45:00 PM 16.27 61.286 0.776 7.74 8.58 7.73
5/27/2022 10:00:00 PM 16.15 61.07 0.789 7.74 8.09 7.74
5/27/2022 10:15:00 PM 16.04 60.872 0.799 7.74 8.11 7.74
5/27/2022 10:30:00 PM 15.94 60.692 0.807 7.74 7.62 7.75
5/27/2022 10:45:00 PM 15.85 60.53 0.813 7.73 7.7 7.76
5/27/2022 11:00:00 PM 15.76 60.368 0.817 7.74 7.39 7.76
5/27/2022 11:15:00 PM 15.69 60.242 0.819 7.73 7.43 7.77
5/27/2022 11:30:00 PM 15.62 60.116 0.819 7.74 7.6 7.77
5/27/2022 11:45:00 PM 15.57 60.026 0.818 7.74 7.53 7.79
5/28/2022 12:00:00 AM 15.52 59.936 0.818 7.75 7.72 7.8
5/28/2022 12:15:00 AM 15.48 59.864 0.817 7.74 7.89 7.81
5/28/2022 12:30:00 AM 15.47 59.846 0.815 7.75 7.65 7.81
5/28/2022 12:45:00 AM 15.42 59.756 0.818 7.75 7.69 7.81
5/28/2022 1:00:00 AM 15.37 59.666 0.821 7.75 7.71 7.82
5/28/2022 1:15:00 AM 15.33 59.594 0.823 7.74 8.46 7.84
5/28/2022 1:30:00 AM 15.29 59.522 0.823 7.75 7.77 7.84
5/28/2022 1:45:00 AM 15.26 59.468 0.824 7.74 8.2 7.85
5/28/2022 2:00:00 AM 15.22 59.396 0.826 7.75 7.95 7.87
5/28/2022 2:15:00 AM 15.18 59.324 0.825 7.73 8.88 7.88
5/28/2022 2:30:00 AM 15.14 59.252 0.822 7.74 9.1 7.89
5/28/2022 2:45:00 AM 15.1 59.18 0.82 7.74 9.22 7.9
5/28/2022 3:00:00 AM 15.06 59.108 0.82 7.74 9.54 7.91
5/28/2022 3:15:00 AM 15.03 59.054 0.817 7.74 8.63 7.93
5/28/2022 3:30:00 AM 15.01 59.018 0.808 7.72 8.65 7.94
5/28/2022 3:45:00 AM 15 59 0.793 7.74 8.26 7.96
5/28/2022 4:00:00 AM 14.98 58.964 0.776 7.73 7.95 7.96
5/28/2022 4:15:00 AM 14.97 58.946 0.759 7.71 7.76 7.94
5/28/2022 4:30:00 AM 14.99 58.982 0.744 7.72 8.32 7.9
5/28/2022 4:45:00 AM 15.03 59.054 0.729 7.71 7.9 7.82
5/28/2022 5:00:00 AM 15.11 59.198 0.714 7.7 8.11 7.74
5/28/2022 5:15:00 AM 15.21 59.378 0.7 7.69 8.48 7.66
5/28/2022 5:30:00 AM 15.31 59.558 0.69 7.67 8.4 7.59
5/28/2022 5:45:00 AM 15.39 59.702 0.683 7.68 7.93 7.56
5/28/2022 6:00:00 AM 15.44 59.792 0.682 7.67 8.93 7.55
5/28/2022 6:15:00 AM 15.45 59.81 0.684 7.67 8.18 7.57
5/28/2022 6:30:00 AM 15.43 59.774 0.688 7.68 7.51 7.62
5/28/2022 6:45:00 AM 15.39 59.702 0.696 7.68 7.42 7.68
5/28/2022 7:00:00 AM 15.33 59.594 0.706 7.7 6.97 7.78
5/28/2022 7:15:00 AM 15.26 59.468 0.718 7.7 7.37 7.89
5/28/2022 7:30:00 AM 15.2 59.36 0.73 7.72 6.9 8.03
5/28/2022 7:45:00 AM 15.15 59.27 0.741 7.74 6.68 8.17
5/28/2022 8:00:00 AM 15.12 59.216 0.75 7.76 6.74 8.37
5/28/2022 8:15:00 AM 15.1 59.18 0.758 7.78 6.48 8.53
5/28/2022 8:30:00 AM 15.06 59.108 0.763 7.79 6.37 8.57
5/28/2022 8:45:00 AM 15.03 59.054 0.767 7.8 6.85 8.65
5/28/2022 9:00:00 AM 15.02 59.036 0.769 7.81 6.08 8.81
5/28/2022 9:15:00 AM 15.01 59.018 0.771 7.83 6.29 8.87
5/28/2022 9:30:00 AM 15.01 59.018 0.772 7.83 6.56 9.02
5/28/2022 9:45:00 AM 15.04 59.072 0.773 7.86 6.22 9.19
5/28/2022 10:00:00 AM 15.1 59.18 0.774 7.88 6.45 9.42
5/28/2022 10:15:00 AM 15.18 59.324 0.775 7.9 6.1 9.63
5/28/2022 10:30:00 AM 15.27 59.486 0.777 7.93 6.18 9.8
5/28/2022 10:45:00 AM 15.35 59.63 0.78 7.94 6.18 9.94
5/28/2022 11:00:00 AM 15.45 59.81 0.785 7.97 6.48 10.11
5/28/2022 11:15:00 AM 15.56 60.008 0.792 7.98 6.01 10.22
5/28/2022 11:30:00 AM 15.63 60.134 0.802 8 6.19 10.26
5/28/2022 11:45:00 AM 15.74 60.332 0.813 8.02 5.74 10.34
5/28/2022 12:00:00 PM 15.86 60.548 0.823 8.03 5.98 10.46
5/28/2022 12:15:00 PM 16.02 60.836 0.833 8.05 5.8 10.56
5/28/2022 12:30:00 PM 16.16 61.088 0.841 8.07 6.08 10.62
5/28/2022 12:45:00 PM 16.34 61.412 0.848 8.09 5.58 10.75
5/28/2022 1:00:00 PM 16.54 61.772 0.853 8.11 6.03 10.86
5/28/2022 1:15:00 PM 16.72 62.096 0.858 8.12 6.11 10.96
5/28/2022 1:30:00 PM 16.87 62.366 0.861 8.14 5.93 10.97
5/28/2022 1:45:00 PM 16.98 62.564 0.863 8.14 5.82 10.95
5/28/2022 2:00:00 PM 17.1 62.78 0.865 8.16 5.79 10.95
5/28/2022 2:15:00 PM 17.24 63.032 0.866 8.17 5.97 10.97
5/28/2022 2:30:00 PM 17.38 63.284 0.867 8.18 6.4 10.93
5/28/2022 2:45:00 PM 17.43 63.374 0.867 8.18 5.58 10.73
5/28/2022 3:00:00 PM 17.43 63.374 0.868 8.15 5.69 10.39
5/28/2022 3:15:00 PM 17.44 63.392 0.868 8.15 5.45 10.34
5/28/2022 3:30:00 PM 17.47 63.446 0.868 8.14 5.59 10.29
5/28/2022 3:45:00 PM 17.57 63.626 0.867 8.15 5.35 10.28
5/28/2022 4:00:00 PM 17.72 63.896 0.866 8.16 5.63 10.35
5/28/2022 4:15:00 PM 17.81 64.058 0.866 8.17 5.43 10.31
5/28/2022 4:30:00 PM 17.85 64.13 0.865 8.16 5.93 10.25
5/28/2022 4:45:00 PM 17.82 64.076 0.864 8.15 6.59 10.11
5/28/2022 5:00:00 PM 17.81 64.058 0.862 8.15 5.95 10.07
5/28/2022 5:15:00 PM 17.79 64.022 0.86 8.13 5.8 9.98
5/28/2022 5:30:00 PM 17.76 63.968 0.858 8.14 5.83 9.86
5/28/2022 5:45:00 PM 17.72 63.896 0.857 8.13 5.7 9.79
5/28/2022 6:00:00 PM 17.64 63.752 0.856 8.1 5.95 9.66
5/28/2022 6:15:00 PM 17.57 63.626 0.855 8.1 6.91 9.52
5/28/2022 6:30:00 PM 17.52 63.536 0.854 8.09 6.19 9.41
5/28/2022 6:45:00 PM 17.49 63.482 0.854 8.08 5.77 9.33
5/28/2022 7:00:00 PM 17.43 63.374 0.852 8.05 6.31 9.21
5/28/2022 7:15:00 PM 17.36 63.248 0.851 8.05 5.93 9.11
5/28/2022 7:30:00 PM 17.27 63.086 0.85 8.04 5.93 9
5/28/2022 7:45:00 PM 17.17 62.906 0.848 8.02 6.34 8.86
5/28/2022 8:00:00 PM 17.06 62.708 0.847 7.99 6.86 8.73
5/28/2022 8:15:00 PM 16.96 62.528 0.846 7.99 6.49 8.64
5/28/2022 8:30:00 PM 16.85 62.33 0.845 7.98 7.21 8.55
5/28/2022 8:45:00 PM 16.75 62.15 0.845 7.96 6.57 8.48
5/28/2022 9:00:00 PM 16.65 61.97 0.844 7.95 6.68 8.42
5/28/2022 9:15:00 PM 16.56 61.808 0.844 7.94 7.07 8.36
5/28/2022 9:30:00 PM 16.47 61.646 0.843 7.93 7.98 8.3
5/28/2022 9:45:00 PM 16.38 61.484 0.843 7.92 7.39 8.25
5/28/2022 10:00:00 PM 16.29 61.322 0.842 7.92 7.37 8.2
5/28/2022 10:15:00 PM 16.21 61.178 0.841 7.91 8.05 8.16
5/28/2022 10:30:00 PM 16.13 61.034 0.841 7.9 7.59 8.13
5/28/2022 10:45:00 PM 16.05 60.89 0.841 7.89 7.41 8.1
5/28/2022 11:00:00 PM 15.97 60.746 0.841 7.89 7.52 8.08
5/28/2022 11:15:00 PM 15.89 60.602 0.841 7.88 7.72 8.05
5/28/2022 11:30:00 PM 15.82 60.476 0.841 7.87 7.4 8.03
5/28/2022 11:45:00 PM 15.76 60.368 0.84 7.87 7.01 8.02
5/29/2022 12:00:00 AM 15.69 60.242 0.839 7.86 7.97 8.01
5/29/2022 12:15:00 AM 15.62 60.116 0.838 7.86 7.37 8.01
5/29/2022 12:30:00 AM 15.56 60.008 0.836 7.85 7.36 8.01
5/29/2022 12:45:00 AM 15.49 59.882 0.833 7.85 7.81 8.02
5/29/2022 1:00:00 AM 15.44 59.792 0.831 7.84 7.2 8.02
5/29/2022 1:15:00 AM 15.39 59.702 0.83 7.84 6.89 8.03
5/29/2022 1:30:00 AM 15.34 59.612 0.828 7.84 7.34 8.04
5/29/2022 1:45:00 AM 15.29 59.522 0.828 7.82 7.33 8.05
5/29/2022 2:00:00 AM 15.24 59.432 0.827 7.84 7.49 8.06
5/29/2022 2:15:00 AM 15.19 59.342 0.827 7.83 6.84 8.07
5/29/2022 2:30:00 AM 15.15 59.27 0.826 7.83 7.51 8.08
5/29/2022 2:45:00 AM 15.11 59.198 0.825 7.82 7.51 8.09
5/29/2022 3:00:00 AM 15.07 59.126 0.823 7.83 6.97 8.1
5/29/2022 3:15:00 AM 15.03 59.054 0.821 7.83 7.29 8.11
5/29/2022 3:30:00 AM 14.99 58.982 0.819 7.82 6.69 8.12
5/29/2022 3:45:00 AM 14.94 58.892 0.816 7.84 7.1 8.14
5/29/2022 4:00:00 AM 14.9 58.82 0.813 7.84 7.08 8.16
5/29/2022 4:15:00 AM 14.85 58.73 0.81 7.84 7.2 8.17
5/29/2022 4:30:00 AM 14.8 58.64 0.807 7.84 7.11 8.19
5/29/2022 4:45:00 AM 14.74 58.532 0.804 7.83 8.11 8.2
5/29/2022 5:00:00 AM 14.7 58.46 0.8 7.83 7.27 8.22
5/29/2022 5:15:00 AM 14.65 58.37 0.796 7.84 8.69 8.24
5/29/2022 5:30:00 AM 14.6 58.28 0.792 7.84 7.79 8.26
5/29/2022 5:45:00 AM 14.56 58.208 0.789 7.83 7.59 8.28
5/29/2022 6:00:00 AM 14.51 58.118 0.785 7.85 7.1 8.31
5/29/2022 6:15:00 AM 14.47 58.046 0.781 7.85 7.8 8.35
5/29/2022 6:30:00 AM 14.43 57.974 0.779 7.85 6.61 8.4
5/29/2022 6:45:00 AM 14.41 57.938 0.776 7.84 6.77 8.45
5/29/2022 7:00:00 AM 14.38 57.884 0.775 7.86 7.75 8.49
5/29/2022 7:15:00 AM 14.37 57.866 0.775 7.86 6.6 8.59
5/29/2022 7:30:00 AM 14.36 57.848 0.774 7.86 6.18 8.68
5/29/2022 7:45:00 AM 14.35 57.83 0.774 7.87 6.13 8.75
5/29/2022 8:00:00 AM 14.37 57.866 0.775 7.88 5.88 8.87
5/29/2022 8:15:00 AM 14.38 57.884 0.775 7.88 6.11 8.94
5/29/2022 8:30:00 AM 14.42 57.956 0.776 7.89 5.62 9.07
5/29/2022 8:45:00 AM 14.45 58.01 0.776 7.91 5.63 9.23
5/29/2022 9:00:00 AM 14.48 58.064 0.775 7.92 5.86 9.33
5/29/2022 9:15:00 AM 14.53 58.154 0.774 7.93 5.97 9.44
5/29/2022 9:30:00 AM 14.58 58.244 0.773 7.94 6.13 9.58
5/29/2022 9:45:00 AM 14.67 58.406 0.773 7.96 6.08 9.74
5/29/2022 10:00:00 AM 14.75 58.55 0.771 7.98 5.83 9.89
5/29/2022 10:15:00 AM 14.83 58.694 0.77 8 5.95 10.05
5/29/2022 10:30:00 AM 14.91 58.838 0.769 8 6.1 10.17
5/29/2022 10:45:00 AM 14.98 58.964 0.768 8.02 5.94 10.24
5/29/2022 11:00:00 AM 15.1 59.18 0.77 8.03 6.1 10.4
5/29/2022 11:15:00 AM 15.2 59.36 0.772 8.05 5.58 10.48
5/29/2022 11:30:00 AM 15.32 59.576 0.775 8.07 5.47 10.58
5/29/2022 11:45:00 AM 15.41 59.738 0.781 8.07 5.72 10.61
5/29/2022 12:00:00 PM 15.57 60.026 0.787 8.1 5.64 10.74
5/29/2022 12:15:00 PM 15.72 60.296 0.793 8.11 5.42 10.8
5/29/2022 12:30:00 PM 15.86 60.548 0.8 8.11 5.68 10.86
5/29/2022 12:45:00 PM 16.05 60.89 0.806 8.14 5.67 10.93
5/29/2022 1:00:00 PM 16.17 61.106 0.812 8.14 5.31 10.9
5/29/2022 1:15:00 PM 16.37 61.466 0.817 8.15 5.56 10.94
5/29/2022 1:30:00 PM 16.55 61.79 0.821 8.16 5.59 11.01
5/29/2022 1:45:00 PM 16.74 62.132 0.824 8.18 5.36 11.1
5/29/2022 2:00:00 PM 16.94 62.492 0.827 8.2 5.55 11.12
5/29/2022 2:15:00 PM 17.12 62.816 0.829 8.21 5.39 11.11
5/29/2022 2:30:00 PM 17.26 63.068 0.83 8.21 5.51 11.03
5/29/2022 2:45:00 PM 17.41 63.338 0.831 8.22 5.78 10.99
5/29/2022 3:00:00 PM 17.52 63.536 0.831 8.22 6.03 10.93
5/29/2022 3:15:00 PM 17.59 63.662 0.83 8.22 5.78 10.85
5/29/2022 3:30:00 PM 17.6 63.68 0.829 8.21 5.28 10.69
5/29/2022 3:45:00 PM 17.62 63.716 0.828 8.21 5.52 10.6
5/29/2022 4:00:00 PM 17.67 63.806 0.828 8.19 5.88 10.51
5/29/2022 4:15:00 PM 17.75 63.95 0.827 8.2 6.18 10.45
5/29/2022 4:30:00 PM 17.83 64.094 0.827 8.2 5.77 10.42
5/29/2022 4:45:00 PM 17.88 64.184 0.827 8.19 6.06 10.35
5/29/2022 5:00:00 PM 17.92 64.256 0.827 8.2 5.96 10.23
5/29/2022 5:15:00 PM 17.92 64.256 0.826 8.18 5.9 10.11
5/29/2022 5:30:00 PM 17.9 64.22 0.826 8.18 6.04 9.98
5/29/2022 5:45:00 PM 17.87 64.166 0.825 8.15 5.89 9.84
5/29/2022 6:00:00 PM 17.82 64.076 0.824 8.14 5.86 9.7
5/29/2022 6:15:00 PM 17.77 63.986 0.823 8.13 5.77 9.58
5/29/2022 6:30:00 PM 17.72 63.896 0.823 8.12 5.86 9.46
5/29/2022 6:45:00 PM 17.67 63.806 0.823 8.11 6.22 9.36
5/29/2022 7:00:00 PM 17.62 63.716 0.823 8.09 5.72 9.25
5/29/2022 7:15:00 PM 17.57 63.626 0.823 8.08 5.77 9.14
5/29/2022 7:30:00 PM 17.52 63.536 0.823 8.05 5.8 9.03
5/29/2022 7:45:00 PM 17.44 63.392 0.824 8.05 6.37 8.9
5/29/2022 8:00:00 PM 17.36 63.248 0.826 8.02 5.92 8.79
5/29/2022 8:15:00 PM 17.27 63.086 0.828 8.02 5.8 8.68
5/29/2022 8:30:00 PM 17.17 62.906 0.83 8.01 5.59 8.58
5/29/2022 8:45:00 PM 17.07 62.726 0.831 7.99 6.01 8.49
5/29/2022 9:00:00 PM 16.97 62.546 0.831 7.98 6.24 8.41
5/29/2022 9:15:00 PM 16.87 62.366 0.831 7.95 7.03 8.34
5/29/2022 9:30:00 PM 16.76 62.168 0.831 7.96 7.21 8.29
5/29/2022 9:45:00 PM 16.65 61.97 0.831 7.95 7.56 8.24
5/29/2022 10:00:00 PM 16.55 61.79 0.831 7.94 7.55 8.2
5/29/2022 10:15:00 PM 16.45 61.61 0.83 7.93 7.62 8.16
5/29/2022 10:30:00 PM 16.35 61.43 0.829 7.92 7.41 8.14
5/29/2022 10:45:00 PM 16.25 61.25 0.827 7.9 7.24 8.11
5/29/2022 11:00:00 PM 16.16 61.088 0.827 7.91 6.88 8.1
5/29/2022 11:15:00 PM 16.07 60.926 0.826 7.89 7.6 8.08
5/29/2022 11:30:00 PM 15.97 60.746 0.826 7.9 8.36 8.07
5/29/2022 11:45:00 PM 15.88 60.584 0.826 7.89 8.58 8.06
5/30/2022 12:00:00 AM 15.8 60.44 0.826 7.88 7.46 8.06
5/30/2022 12:15:00 AM 15.71 60.278 0.826 7.88 8.19 8.05
5/30/2022 12:30:00 AM 15.63 60.134 0.826 7.87 7.55 8.06
5/30/2022 12:45:00 AM 15.55 59.99 0.825 7.87 7.61 8.07
5/30/2022 1:00:00 AM 15.47 59.846 0.826 7.87 7.69 8.08
5/30/2022 1:15:00 AM 15.4 59.72 0.826 7.86 7.53 8.09
5/30/2022 1:30:00 AM 15.34 59.612 0.827 7.86 7.63 8.1
5/30/2022 1:45:00 AM 15.28 59.504 0.828 7.86 7.02 8.1
5/30/2022 2:00:00 AM 15.23 59.414 0.828 7.86 7.84 8.12
5/30/2022 2:15:00 AM 15.17 59.306 0.828 7.86 7.63 8.13
5/30/2022 2:30:00 AM 15.12 59.216 0.828 7.84 7.92 8.14
5/30/2022 2:45:00 AM 15.06 59.108 0.829 7.85 14.83 8.16
5/30/2022 3:00:00 AM 15.01 59.018 0.829 7.85 7.59 8.17
5/30/2022 3:15:00 AM 14.96 58.928 0.828 7.85 7.59 8.18
5/30/2022 3:30:00 AM 14.91 58.838 0.827 7.85 7.55 8.2
5/30/2022 3:45:00 AM 14.86 58.748 0.826 7.85 7.33 8.21
5/30/2022 4:00:00 AM 14.82 58.676 0.823 7.85 7.51 8.22
5/30/2022 4:15:00 AM 14.76 58.568 0.82 7.84 7.91 8.25
5/30/2022 4:30:00 AM 14.71 58.478 0.817 7.86 7.97 8.27
5/30/2022 4:45:00 AM 14.66 58.388 0.813 7.86 7.61 8.28
5/30/2022 5:00:00 AM 14.61 58.298 0.81 7.86 7.76 8.3
5/30/2022 5:15:00 AM 14.56 58.208 0.806 7.86 8.03 8.32
5/30/2022 5:30:00 AM 14.51 58.118 0.802 7.85 7.89 8.34
5/30/2022 5:45:00 AM 14.46 58.028 0.8 7.86 8.76 8.37
5/30/2022 6:00:00 AM 14.42 57.956 0.797 7.86 7.13 8.39
5/30/2022 6:15:00 AM 14.38 57.884 0.795 7.86 6.98 8.42
5/30/2022 6:30:00 AM 14.34 57.812 0.792 7.85 7.22 8.47
5/30/2022 6:45:00 AM 14.31 57.758 0.789 7.86 8 8.51
5/30/2022 7:00:00 AM 14.28 57.704 0.787 7.86 6.89 8.57
5/30/2022 7:15:00 AM 14.26 57.668 0.785 7.87 6.57 8.64
5/30/2022 7:30:00 AM 14.24 57.632 0.784 7.88 6.68 8.7
5/30/2022 7:45:00 AM 14.24 57.632 0.784 7.88 6.17 8.76
5/30/2022 8:00:00 AM 14.25 57.65 0.785 7.87 6.97 8.85
5/30/2022 8:15:00 AM 14.27 57.686 0.786 7.9 5.87 8.95
5/30/2022 8:30:00 AM 14.3 57.74 0.787 7.9 5.89 9.06
5/30/2022 8:45:00 AM 14.34 57.812 0.788 7.91 6.24 9.15
5/30/2022 9:00:00 AM 14.39 57.902 0.789 7.92 6.67 9.26
5/30/2022 9:15:00 AM 14.44 57.992 0.789 7.94 6.36 9.38
5/30/2022 9:30:00 AM 14.51 58.118 0.789 7.95 6.02 9.5
5/30/2022 9:45:00 AM 14.58 58.244 0.788 7.95 5.96 9.62
5/30/2022 10:00:00 AM 14.67 58.406 0.787 7.98 6.26 9.74
5/30/2022 10:15:00 AM 14.77 58.586 0.786 7.97 6.27 9.86
5/30/2022 10:30:00 AM 14.88 58.784 0.785 8 6.45 10.01
5/30/2022 10:45:00 AM 15 59 0.785 8.02 6.64 10.14
5/30/2022 11:00:00 AM 15.14 59.252 0.785 8.02 6.31 10.27
5/30/2022 11:15:00 AM 15.29 59.522 0.787 8.05 6.26 10.39
5/30/2022 11:30:00 AM 15.47 59.846 0.79 8.07 6.27 10.51
5/30/2022 11:45:00 AM 15.67 60.206 0.796 8.09 7.18 10.63
5/30/2022 12:00:00 PM 15.89 60.602 0.805 8.11 6.59 10.73
5/30/2022 12:15:00 PM 16.14 61.052 0.813 8.12 6.53 10.81
5/30/2022 12:30:00 PM 16.39 61.502 0.822 8.14 5.86 10.9
5/30/2022 12:45:00 PM 16.64 61.952 0.829 8.16 6.03 10.98
5/30/2022 1:00:00 PM 16.89 62.402 0.835 8.18 5.91 11.04
5/30/2022 1:15:00 PM 17.14 62.852 0.841 8.18 5.94 11.07
5/30/2022 1:30:00 PM 17.38 63.284 0.846 8.2 6.67 11.11
5/30/2022 1:45:00 PM 17.62 63.716 0.849 8.22 5.61 11.12
5/30/2022 2:00:00 PM 17.83 64.094 0.852 8.23 5.99 11.12
5/30/2022 2:15:00 PM 18.03 64.454 0.853 8.24 5.37 11.07
5/30/2022 2:30:00 PM 18.21 64.778 0.855 8.24 6.36 11.03
5/30/2022 2:45:00 PM 18.38 65.084 0.857 8.25 5.66 10.96
5/30/2022 3:00:00 PM 18.53 65.354 0.858 8.25 5.53 10.87
5/30/2022 3:15:00 PM 18.65 65.57 0.857 8.25 5.76 10.78
5/30/2022 3:30:00 PM 18.75 65.75 0.856 8.24 5.58 10.68
5/30/2022 3:45:00 PM 18.83 65.894 0.855 8.24 5.5 10.57
5/30/2022 4:00:00 PM 18.9 66.02 0.854 8.24 5.65 10.47
5/30/2022 4:15:00 PM 18.95 66.11 0.854 8.24 5.37 10.36
5/30/2022 4:30:00 PM 18.99 66.182 0.853 8.22 5.55 10.26
5/30/2022 4:45:00 PM 19.02 66.236 0.852 8.22 5.19 10.15
5/30/2022 5:00:00 PM 19.01 66.218 0.85 8.21 5.84 10.02
5/30/2022 5:15:00 PM 19 66.2 0.85 8.2 5.64 9.89
5/30/2022 5:30:00 PM 18.98 66.164 0.849 8.19 6.95 9.77
5/30/2022 5:45:00 PM 18.94 66.092 0.848 8.18 5.38 9.65
5/30/2022 6:00:00 PM 18.89 66.002 0.847 8.15 5.3 9.51
5/30/2022 6:15:00 PM 18.83 65.894 0.846 8.15 5.75 9.37
5/30/2022 6:30:00 PM 18.77 65.786 0.846 8.12 5.54 9.23
5/30/2022 6:45:00 PM 18.69 65.642 0.846 8.11 5.98 9.11
5/30/2022 7:00:00 PM 18.62 65.516 0.846 8.1 5.71 8.99
5/30/2022 7:15:00 PM 18.54 65.372 0.845 8.09 5.75 8.88
5/30/2022 7:30:00 PM 18.44 65.192 0.843 8.07 6.11 8.75
5/30/2022 7:45:00 PM 18.34 65.012 0.843 8.04 5.4 8.64
5/30/2022 8:00:00 PM 18.23 64.814 0.843 8.04 5.92 8.53
5/30/2022 8:15:00 PM 18.13 64.634 0.844 8.01 5.95 8.43
5/30/2022 8:30:00 PM 18.02 64.436 0.844 8 5.95 8.34
5/30/2022 8:45:00 PM 17.91 64.238 0.843 7.99 6 8.26
5/30/2022 9:00:00 PM 17.79 64.022 0.843 7.98 6.48 8.18
5/30/2022 9:15:00 PM 17.67 63.806 0.842 7.95 6.44 8.11
5/30/2022 9:30:00 PM 17.56 63.608 0.842 7.95 6.79 8.06
5/30/2022 9:45:00 PM 17.45 63.41 0.843 7.94 7.25 8
5/30/2022 10:00:00 PM 17.34 63.212 0.844 7.93 7.39 7.96
5/30/2022 10:15:00 PM 17.23 63.014 0.846 7.92 7.36 7.92
5/30/2022 10:30:00 PM 17.12 62.816 0.847 7.91 8.04 7.9
5/30/2022 10:45:00 PM 17.02 62.636 0.848 7.91 7.17 7.88
5/30/2022 11:00:00 PM 16.91 62.438 0.849 7.9 7.64 7.85
5/30/2022 11:15:00 PM 16.81 62.258 0.85 7.89 7.76 7.82
5/30/2022 11:30:00 PM 16.72 62.096 0.851 7.88 8.28 7.81
5/30/2022 11:45:00 PM 16.63 61.934 0.853 7.88 7.47 7.8
5/31/2022 12:00:00 AM 16.54 61.772 0.856 7.87 8.2 7.8
5/31/2022 12:15:00 AM 16.45 61.61 0.858 7.85 8.13 7.79
5/31/2022 12:30:00 AM 16.37 61.466 0.859 7.85 7.97 7.79
5/31/2022 12:45:00 AM 16.29 61.322 0.859 7.85 8.51 7.8
5/31/2022 1:00:00 AM 16.22 61.196 0.86 7.84 7.45 7.8
5/31/2022 1:15:00 AM 16.15 61.07 0.86 7.84 7.46 7.81
5/31/2022 1:30:00 AM 16.08 60.944 0.861 7.84 7.39 7.8
5/31/2022 1:45:00 AM 16.02 60.836 0.861 7.84 9.01 7.82
5/31/2022 2:00:00 AM 15.96 60.728 0.859 7.84 7.67 7.84
5/31/2022 2:15:00 AM 15.9 60.62 0.857 7.83 7.47 7.85
5/31/2022 2:30:00 AM 15.84 60.512 0.855 7.83 8.49 7.85
5/31/2022 2:45:00 AM 15.78 60.404 0.852 7.82 9.02 7.88
5/31/2022 3:00:00 AM 15.73 60.314 0.848 7.83 7.62 7.9
5/31/2022 3:15:00 AM 15.68 60.224 0.843 7.83 8.18 7.91
5/31/2022 3:30:00 AM 15.62 60.116 0.839 7.83 7.58 7.93
5/31/2022 3:45:00 AM 15.57 60.026 0.835 7.83 8.48 7.95
5/31/2022 4:00:00 AM 15.52 59.936 0.831 7.83 7.96 7.96
5/31/2022 4:15:00 AM 15.46 59.828 0.826 7.82 8.81 7.98
5/31/2022 4:30:00 AM 15.41 59.738 0.822 7.83 7.77 8
5/31/2022 4:45:00 AM 15.35 59.63 0.817 7.82 10.64 8.03
5/31/2022 5:00:00 AM 15.29 59.522 0.812 7.84 9.22 8.04
5/31/2022 5:15:00 AM 15.23 59.414 0.806 7.83 11.26 8.08
5/31/2022 5:30:00 AM 15.17 59.306 0.801 7.84 8.24 8.1
5/31/2022 5:45:00 AM 15.11 59.198 0.797 7.83 8.08 8.13
5/31/2022 6:00:00 AM 15.05 59.09 0.793 7.83 12.03 8.16
5/31/2022 6:15:00 AM 15 59 0.791 7.83 7.94 8.2
5/31/2022 6:30:00 AM 14.96 58.928 0.789 7.84 8.12 8.24
5/31/2022 6:45:00 AM 14.92 58.856 0.788 7.84 9.56 8.3
5/31/2022 7:00:00 AM 14.89 58.802 0.787 7.83 10.84 8.35
5/31/2022 7:15:00 AM 14.87 58.766 0.787 7.84 11.01 8.41
5/31/2022 7:30:00 AM 14.85 58.73 0.788 7.85 7.2 8.47
5/31/2022 7:45:00 AM 14.84 58.712 0.79 7.84 6.98 8.5
5/31/2022 8:00:00 AM 14.85 58.73 0.792 7.86 8.97 8.61
5/31/2022 8:15:00 AM 14.87 58.766 0.794 7.87 7.88 8.71
5/31/2022 8:30:00 AM 14.91 58.838 0.796 7.86 7.31 8.81
5/31/2022 8:45:00 AM 14.94 58.892 0.797 7.88 7.37 8.91
5/31/2022 9:00:00 AM 14.99 58.982 0.798 7.9 8.07 9.03
5/31/2022 9:15:00 AM 15.04 59.072 0.799 7.91 6.7 9.14
5/31/2022 9:30:00 AM 15.11 59.198 0.8 7.92 7 9.26
5/31/2022 9:45:00 AM 15.18 59.324 0.8 7.93 8.13 9.37
5/31/2022 10:00:00 AM 15.26 59.468 0.8 7.93 6.51 9.5
5/31/2022 10:15:00 AM 15.36 59.648 0.801 7.96 6.58 9.63
5/31/2022 10:30:00 AM 15.47 59.846 0.804 7.97 6.74 9.77
5/31/2022 10:45:00 AM 15.6 60.08 0.809 7.99 6.94 9.9
5/31/2022 11:00:00 AM 15.77 60.386 0.816 8.01 6.44 10.03
5/31/2022 11:15:00 AM 15.95 60.71 0.825 8.03 6.34 10.15
5/31/2022 11:30:00 AM 16.15 61.07 0.836 8.04 6.74 10.26
5/31/2022 11:45:00 AM 16.38 61.484 0.847 8.06 6.55 10.38
5/31/2022 12:00:00 PM 16.62 61.916 0.857 8.08 8.41 10.48
5/31/2022 12:15:00 PM 16.87 62.366 0.864 8.11 6.12 10.58
5/31/2022 12:30:00 PM 17.1 62.78 0.868 8.13 5.87 10.69
5/31/2022 12:45:00 PM 17.35 63.23 0.871 8.15 6.64 10.78
5/31/2022 1:00:00 PM 17.58 63.644 0.872 8.16 6.33 10.85
5/31/2022 1:15:00 PM 17.81 64.058 0.873 8.18 5.46 10.91
5/31/2022 1:30:00 PM 18.03 64.454 0.875 8.2 6.04 10.95
5/31/2022 1:45:00 PM 18.25 64.85 0.879 8.21 6.05 10.98
5/31/2022 2:00:00 PM 18.47 65.246 0.885 8.23 6.57 10.98
5/31/2022 2:15:00 PM 18.67 65.606 0.89 8.24 6.68 10.94
5/31/2022 2:30:00 PM 18.85 65.93 0.894 8.24 5.96 10.9
5/31/2022 2:45:00 PM 18.98 66.164 0.896 8.24 5.92 10.76
5/31/2022 3:00:00 PM 19.13 66.434 0.895 8.25 5.77 10.73
5/31/2022 3:15:00 PM 19.23 66.614 0.892 8.25 6.01 10.62
5/31/2022 3:30:00 PM 19.33 66.794 0.888 8.24 6.09 10.53
5/31/2022 3:45:00 PM 19.41 66.938 0.882 8.25 6.18 10.45
5/31/2022 4:00:00 PM 19.47 67.046 0.877 8.25 5.58 10.36
5/31/2022 4:15:00 PM 19.52 67.136 0.873 8.24 6.12 10.28
5/31/2022 4:30:00 PM 19.55 67.19 0.87 8.24 6.79 10.18
5/31/2022 4:45:00 PM 19.56 67.208 0.868 8.24 6.89 10.07
5/31/2022 5:00:00 PM 19.55 67.19 0.867 8.22 6 9.93
5/31/2022 5:15:00 PM 19.53 67.154 0.867 8.21 5.25 9.8
5/31/2022 5:30:00 PM 19.49 67.082 0.868 8.2 5.62 9.67
5/31/2022 5:45:00 PM 19.44 66.992 0.869 8.19 5.54 9.54
5/31/2022 6:00:00 PM 19.39 66.902 0.873 8.17 6.39 9.41
5/31/2022 6:15:00 PM 19.32 66.776 0.878 8.15 5.42 9.26
5/31/2022 6:30:00 PM 19.26 66.668 0.885 8.13 5.55 9.11
5/31/2022 6:45:00 PM 19.19 66.542 0.892 8.11 6.47 8.98
5/31/2022 7:00:00 PM 19.11 66.398 0.897 8.1 5.61 8.86
5/31/2022 7:15:00 PM 19.03 66.254 0.9 8.09 6.58 8.74
5/31/2022 7:30:00 PM 18.94 66.092 0.901 8.06 6.11 8.62
5/31/2022 7:45:00 PM 18.84 65.912 0.901 8.05 6.84 8.5
5/31/2022 8:00:00 PM 18.73 65.714 0.901 8.04 6.02 8.38
5/31/2022 8:15:00 PM 18.63 65.534 0.899 8.02 5.7 8.26
5/31/2022 8:30:00 PM 18.51 65.318 0.896 8.01 6.12 8.17
5/31/2022 8:45:00 PM 18.4 65.12 0.893 7.99 7.24 8.09
5/31/2022 9:00:00 PM 18.28 64.904 0.889 7.98 7.04 8.02
5/31/2022 9:15:00 PM 18.16 64.688 0.886 7.97 7.17 7.94
5/31/2022 9:30:00 PM 18.04 64.472 0.884 7.96 6.65 7.89
5/31/2022 9:45:00 PM 17.92 64.256 0.883 7.95 7.44 7.83
5/31/2022 10:00:00 PM 17.8 64.04 0.882 7.94 7.5 7.8
5/31/2022 10:15:00 PM 17.68 63.824 0.882 7.93 8.31 7.76
5/31/2022 10:30:00 PM 17.56 63.608 0.881 7.91 8.17 7.73
5/31/2022 10:45:00 PM 17.45 63.41 0.882 7.91 7.69 7.71
5/31/2022 11:00:00 PM 17.34 63.212 0.883 7.9 7.62 7.68
5/31/2022 11:15:00 PM 17.23 63.014 0.885 7.89 7.57 7.67
5/31/2022 11:30:00 PM 17.13 62.834 0.888 7.89 8.1 7.65
5/31/2022 11:45:00 PM 17.03 62.654 0.89 7.87 7.49 7.63
6/1/2022 12:00:00 AM 16.93 62.474 0.891 7.88 8 7.63
6/1/2022 12:15:00 AM 16.83 62.294 0.891 7.86 8.23 7.63
6/1/2022 12:30:00 AM 16.73 62.114 0.89 7.86 8.32 7.63
6/1/2022 12:45:00 AM 16.64 61.952 0.89 7.86 7.77 7.63
6/1/2022 1:00:00 AM 16.55 61.79 0.891 7.85 8.16 7.65
6/1/2022 1:15:00 AM 16.47 61.646 0.892 7.85 7.9 7.66
6/1/2022 1:30:00 AM 16.4 61.52 0.892 7.83 7.84 7.67
6/1/2022 1:45:00 AM 16.33 61.394 0.891 7.84 8.01 7.68
6/1/2022 2:00:00 AM 16.25 61.25 0.889 7.83 7.33 7.69
6/1/2022 2:15:00 AM 16.18 61.124 0.888 7.84 7.83 7.7
6/1/2022 2:30:00 AM 16.11 60.998 0.886 7.83 7.31 7.73
6/1/2022 2:45:00 AM 16.05 60.89 0.884 7.83 7.49 7.74
6/1/2022 3:00:00 AM 15.99 60.782 0.881 7.83 7.58 7.75
6/1/2022 3:15:00 AM 15.92 60.656 0.878 7.83 7.73 7.77
6/1/2022 3:30:00 AM 15.86 60.548 0.875 7.82 7.92 7.79
6/1/2022 3:45:00 AM 15.8 60.44 0.872 7.83 9.2 7.82
6/1/2022 4:00:00 AM 15.75 60.35 0.868 7.83 8.45 7.83
6/1/2022 4:15:00 AM 15.69 60.242 0.865 7.82 8.86 7.85
6/1/2022 4:30:00 AM 15.63 60.134 0.862 7.83 8.23 7.87
6/1/2022 4:45:00 AM 15.58 60.044 0.859 7.83 8.09 7.89
6/1/2022 5:00:00 AM 15.53 59.954 0.854 7.83 8.29 7.9
6/1/2022 5:15:00 AM 15.47 59.846 0.849 7.83 8.15 7.93
6/1/2022 5:30:00 AM 15.42 59.756 0.844 7.83 7.89 7.96
6/1/2022 5:45:00 AM 15.36 59.648 0.839 7.82 8.57 7.99
6/1/2022 6:00:00 AM 15.31 59.558 0.835 7.83 7.61 8.02
6/1/2022 6:15:00 AM 15.26 59.468 0.832 7.84 7.34 8.05
6/1/2022 6:30:00 AM 15.22 59.396 0.83 7.84 7.1 8.09
6/1/2022 6:45:00 AM 15.18 59.324 0.829 7.83 7.27 8.15
6/1/2022 7:00:00 AM 15.15 59.27 0.829 7.85 7.5 8.21
6/1/2022 7:15:00 AM 15.13 59.234 0.828 7.85 6.49 8.27
6/1/2022 7:30:00 AM 15.11 59.198 0.829 7.85 6.73 8.34
6/1/2022 7:45:00 AM 15.1 59.18 0.831 7.86 6.58 8.41
6/1/2022 8:00:00 AM 15.11 59.198 0.834 7.86 6.4 8.49
6/1/2022 8:15:00 AM 15.12 59.216 0.836 7.87 6.2 8.57
6/1/2022 8:30:00 AM 15.15 59.27 0.839 7.88 6.46 8.67
6/1/2022 8:45:00 AM 15.18 59.324 0.841 7.89 6.2 8.77
6/1/2022 9:00:00 AM 15.23 59.414 0.844 7.91 6.34 8.92
6/1/2022 9:15:00 AM 15.28 59.504 0.846 7.91 6.89 9.04
6/1/2022 9:30:00 AM 15.33 59.594 0.848 7.92 5.89 9.16
6/1/2022 9:45:00 AM 15.41 59.738 0.848 7.94 6.15 9.3
6/1/2022 10:00:00 AM 15.5 59.9 0.849 7.96 6.13 9.42
6/1/2022 10:15:00 AM 15.6 60.08 0.85 7.97 6.26 9.57
6/1/2022 10:30:00 AM 15.71 60.278 0.853 7.99 6.29 9.73
6/1/2022 10:45:00 AM 15.82 60.476 0.856 8.01 6.31 9.87
6/1/2022 11:00:00 AM 15.96 60.728 0.863 8.03 5.97 10
6/1/2022 11:15:00 AM 16.13 61.034 0.872 8.04 6.59 10.14
6/1/2022 11:30:00 AM 16.32 61.376 0.885 8.06 6.29 10.26
6/1/2022 11:45:00 AM 16.54 61.772 0.901 8.09 6.41 10.39
6/1/2022 12:00:00 PM 16.76 62.168 0.917 8.1 6.3 10.5
6/1/2022 12:15:00 PM 17 62.6 0.932 8.13 6.21 10.62
6/1/2022 12:30:00 PM 17.23 63.014 0.943 8.14 6.18 10.72
6/1/2022 12:45:00 PM 17.44 63.392 0.949 8.17 6.74 10.76
6/1/2022 1:00:00 PM 17.65 63.77 0.95 8.18 5.99 10.84
6/1/2022 1:15:00 PM 17.84 64.112 0.948 8.2 6.65 10.83
6/1/2022 1:30:00 PM 17.97 64.346 0.946 8.2 6.4 10.73
6/1/2022 1:45:00 PM 18.14 64.652 0.945 8.2 5.92 10.69
6/1/2022 2:00:00 PM 18.31 64.958 0.944 8.22 5.88 10.76
6/1/2022 2:15:00 PM 18.48 65.264 0.943 8.24 6.32 10.83
6/1/2022 2:30:00 PM 18.65 65.57 0.941 8.24 5.39 10.85
6/1/2022 2:45:00 PM 18.8 65.84 0.939 8.26 6.22 10.85
6/1/2022 3:00:00 PM 18.93 66.074 0.938 8.26 6.08 10.78
6/1/2022 3:15:00 PM 19.04 66.272 0.935 8.26 5.8 10.72
6/1/2022 3:30:00 PM 19.11 66.398 0.932 8.27 5.52 10.6
6/1/2022 3:45:00 PM 19.16 66.488 0.928 8.27 5.59 10.52
6/1/2022 4:00:00 PM 19.2 66.56 0.925 8.27 5.52 10.46
6/1/2022 4:15:00 PM 19.22 66.596 0.924 8.26 5.81 10.36
6/1/2022 4:30:00 PM 19.24 66.632 0.925 8.26 5.74 10.29
6/1/2022 4:45:00 PM 19.23 66.614 0.926 8.25 5.51 10.12
6/1/2022 5:00:00 PM 19.23 66.614 0.926 8.24 5.21 10
6/1/2022 5:15:00 PM 19.19 66.542 0.927 8.22 5.95 9.81
6/1/2022 5:30:00 PM 19.15 66.47 0.929 8.21 6.48 9.67
6/1/2022 5:45:00 PM 19.12 66.416 0.93 8.2 5.86 9.58
6/1/2022 6:00:00 PM 19.07 66.326 0.93 8.18 5.41 9.47
6/1/2022 6:15:00 PM 19.01 66.218 0.93 8.18 5.82 9.37
6/1/2022 6:30:00 PM 18.96 66.128 0.93 8.16 5.55 9.25
6/1/2022 6:45:00 PM 18.89 66.002 0.934 8.13 6.05 9.11
6/1/2022 7:00:00 PM 18.82 65.876 0.94 8.13 6.39 8.98
6/1/2022 7:15:00 PM 18.76 65.768 0.947 8.11 5.52 8.88
6/1/2022 7:30:00 PM 18.7 65.66 0.954 8.1 5.9 8.77
6/1/2022 7:45:00 PM 18.62 65.516 0.959 8.08 6.47 8.64
6/1/2022 8:00:00 PM 18.54 65.372 0.961 8.05 6.04 8.51
6/1/2022 8:15:00 PM 18.44 65.192 0.961 8.04 6.01 8.38
6/1/2022 8:30:00 PM 18.35 65.03 0.959 8.02 5.88 8.26
6/1/2022 8:45:00 PM 18.25 64.85 0.955 8.01 6.01 8.16
6/1/2022 9:00:00 PM 18.15 64.67 0.948 8 6.52 8.08
6/1/2022 9:15:00 PM 18.05 64.49 0.94 7.99 6.89 7.99
6/1/2022 9:30:00 PM 17.94 64.292 0.934 7.96 6.95 7.94
6/1/2022 9:45:00 PM 17.84 64.112 0.93 7.96 7.38 7.87
6/1/2022 10:00:00 PM 17.74 63.932 0.929 7.95 7.68 7.84
6/1/2022 10:15:00 PM 17.66 63.788 0.928 7.94 7.42 7.79
6/1/2022 10:30:00 PM 17.59 63.662 0.928 7.94 9.6 7.72
6/1/2022 10:45:00 PM 17.5 63.5 0.929 7.93 9.42 7.65
6/1/2022 11:00:00 PM 17.41 63.338 0.93 7.93 8.38 7.66
6/1/2022 11:15:00 PM 17.33 63.194 0.932 7.92 8.35 7.65
6/1/2022 11:30:00 PM 17.24 63.032 0.934 7.91 8.33 7.62
6/1/2022 11:45:00 PM 17.15 62.87 0.934 7.91 7.85 7.59
6/2/2022 12:00:00 AM 17.06 62.708 0.935 7.91 8.06 7.58
6/2/2022 12:15:00 AM 16.98 62.564 0.935 7.9 8.03 7.57
6/2/2022 12:30:00 AM 16.9 62.42 0.935 7.9 8.5 7.57
6/2/2022 12:45:00 AM 16.81 62.258 0.935 7.89 7.95 7.56
6/2/2022 1:00:00 AM 16.73 62.114 0.935 7.88 7.8 7.56
6/2/2022 1:15:00 AM 16.66 61.988 0.935 7.89 8.11 7.57
6/2/2022 1:30:00 AM 16.59 61.862 0.936 7.88 7.9 7.57
6/2/2022 1:45:00 AM 16.53 61.754 0.935 7.88 7.63 7.57
6/2/2022 2:00:00 AM 16.47 61.646 0.934 7.88 8.87 7.58
6/2/2022 2:15:00 AM 16.41 61.538 0.933 7.88 8.58 7.59
6/2/2022 2:30:00 AM 16.36 61.448 0.93 7.88 8.3 7.61
6/2/2022 2:45:00 AM 16.31 61.358 0.927 7.88 8.02 7.62
6/2/2022 3:00:00 AM 16.25 61.25 0.922 7.88 8.26 7.62
6/2/2022 3:15:00 AM 16.2 61.16 0.917 7.88 7.9 7.65
6/2/2022 3:30:00 AM 16.15 61.07 0.913 7.87 8.24 7.66
6/2/2022 3:45:00 AM 16.1 60.98 0.908 7.88 8.1 7.68
6/2/2022 4:00:00 AM 16.05 60.89 0.902 7.88 8.09 7.69
6/2/2022 4:15:00 AM 16 60.8 0.895 7.87 8.06 7.7
6/2/2022 4:30:00 AM 15.95 60.71 0.888 7.89 7.97 7.73
6/2/2022 4:45:00 AM 15.89 60.602 0.881 7.89 8.21 7.75
6/2/2022 5:00:00 AM 15.84 60.512 0.874 7.88 8.07 7.77
6/2/2022 5:15:00 AM 15.79 60.422 0.866 7.88 7.89 7.79
6/2/2022 5:30:00 AM 15.74 60.332 0.858 7.89 7.6 7.81
6/2/2022 5:45:00 AM 15.69 60.242 0.851 7.89 7.79 7.84
6/2/2022 6:00:00 AM 15.64 60.152 0.843 7.88 7.79 7.86
6/2/2022 6:15:00 AM 15.6 60.08 0.836 7.89 7.75 7.86
6/2/2022 6:30:00 AM 15.55 59.99 0.831 7.89 7.72 7.91
6/2/2022 6:45:00 AM 15.51 59.918 0.826 7.89 7.38 7.96
6/2/2022 7:00:00 AM 15.48 59.864 0.823 7.9 7.07 8.04
6/2/2022 7:15:00 AM 15.45 59.81 0.82 7.9 7.32 8.12
6/2/2022 7:30:00 AM 15.43 59.774 0.818 7.91 7.28 8.2
6/2/2022 7:45:00 AM 15.42 59.756 0.817 7.91 6.74 8.23
6/2/2022 8:00:00 AM 15.41 59.738 0.817 7.91 6.55 8.28
6/2/2022 8:15:00 AM 15.41 59.738 0.818 7.91 6.17 8.36
6/2/2022 8:30:00 AM 15.41 59.738 0.818 7.92 6.44 8.45
6/2/2022 8:45:00 AM 15.43 59.774 0.819 7.93 6.38 8.58
6/2/2022 9:00:00 AM 15.46 59.828 0.821 7.93 6.72 8.7
6/2/2022 9:15:00 AM 15.5 59.9 0.823 7.94 6.45 8.86
6/2/2022 9:30:00 AM 15.53 59.954 0.824 7.96 6.34 8.99
6/2/2022 9:45:00 AM 15.59 60.062 0.825 7.97 6.71 9.21
6/2/2022 10:00:00 AM 15.64 60.152 0.827 7.99 6.35 9.34
6/2/2022 10:15:00 AM 15.71 60.278 0.829 8.01 6.37 9.51
6/2/2022 10:30:00 AM 15.77 60.386 0.831 8.02 5.95 9.64
6/2/2022 10:45:00 AM 15.84 60.512 0.833 8.03 6.23 9.78
6/2/2022 11:00:00 AM 15.91 60.638 0.838 8.04 6.4 9.85
6/2/2022 11:15:00 AM 16.07 60.926 0.845 8.06 5.73 10.01
6/2/2022 11:30:00 AM 16.19 61.142 0.855 8.08 5.86 10.13
6/2/2022 11:45:00 AM 16.37 61.466 0.866 8.1 6.24 10.3
6/2/2022 12:00:00 PM 16.5 61.7 0.877 8.11 5.95 10.31
6/2/2022 12:15:00 PM 16.75 62.15 0.887 8.12 5.96 10.53
6/2/2022 12:30:00 PM 16.88 62.384 0.893 8.14 5.52 10.48
6/2/2022 12:45:00 PM 16.98 62.564 0.897 8.15 6.27 10.45
6/2/2022 1:00:00 PM 17.17 62.906 0.898 8.17 5.83 10.61
6/2/2022 1:15:00 PM 17.34 63.212 0.899 8.19 5.83 10.72
6/2/2022 1:30:00 PM 17.47 63.446 0.899 8.19 5.73 10.68
6/2/2022 1:45:00 PM 17.61 63.698 0.898 8.21 5.73 10.72
6/2/2022 2:00:00 PM 17.69 63.842 0.898 8.21 5.56 10.53
6/2/2022 2:15:00 PM 17.78 64.004 0.897 8.21 6.15 10.49
6/2/2022 2:30:00 PM 17.85 64.13 0.896 8.21 5.71 10.46
6/2/2022 2:45:00 PM 17.92 64.256 0.894 8.2 5.81 10.4
6/2/2022 3:00:00 PM 18 64.4 0.893 8.22 5.91 10.37
6/2/2022 3:15:00 PM 18.01 64.418 0.892 8.21 5.71 10.18
6/2/2022 3:30:00 PM 18 64.4 0.891 8.19 5.84 10.03
6/2/2022 3:45:00 PM 18 64.4 0.89 8.17 5.6 9.93
6/2/2022 4:00:00 PM 17.99 64.382 0.889 8.18 5.94 9.9
6/2/2022 4:15:00 PM 17.97 64.346 0.888 8.17 5.59 9.78
6/2/2022 4:30:00 PM 17.94 64.292 0.887 8.16 5.5 9.61
6/2/2022 4:45:00 PM 17.9 64.22 0.887 8.15 6.58 9.43
6/2/2022 5:00:00 PM 17.84 64.112 0.887 8.13 6.09 9.33
6/2/2022 5:15:00 PM 17.75 63.95 0.889 8.1 6.11 9.14
6/2/2022 5:30:00 PM 17.68 63.824 0.891 8.1 5.67 9.03
6/2/2022 5:45:00 PM 17.62 63.716 0.893 8.08 5.74 8.97
6/2/2022 6:00:00 PM 17.56 63.608 0.896 8.08 6.11 8.89
6/2/2022 6:15:00 PM 17.5 63.5 0.898 8.07 6.13 8.78
6/2/2022 6:30:00 PM 17.43 63.374 0.9 8.05 5.71 8.68
6/2/2022 6:45:00 PM 17.37 63.266 0.903 8.04 5.91 8.64
6/2/2022 7:00:00 PM 17.3 63.14 0.907 8.03 5.97 8.55
6/2/2022 7:15:00 PM 17.25 63.05 0.912 8.02 5.85 8.5
6/2/2022 7:30:00 PM 17.19 62.942 0.916 8.01 5.9 8.45
6/2/2022 7:45:00 PM 17.13 62.834 0.92 8.01 5.93 8.4
6/2/2022 8:00:00 PM 17.06 62.708 0.921 8 6.2 8.35
6/2/2022 8:15:00 PM 16.99 62.582 0.921 7.98 6.48 8.25
6/2/2022 8:30:00 PM 16.91 62.438 0.919 7.96 6.2 8.17
6/2/2022 8:45:00 PM 16.83 62.294 0.917 7.96 6.24 8.08
6/2/2022 9:00:00 PM 16.76 62.168 0.912 7.95 6.61 8.02
6/2/2022 9:15:00 PM 16.68 62.024 0.907 7.94 7.23 7.99
6/2/2022 9:30:00 PM 16.6 61.88 0.902 7.94 8.33 7.95
6/2/2022 9:45:00 PM 16.53 61.754 0.899 7.92 7.25 7.92
6/2/2022 10:00:00 PM 16.47 61.646 0.899 7.92 7.66 7.88
6/2/2022 10:15:00 PM 16.41 61.538 0.9 7.92 7.32 7.88
6/2/2022 10:30:00 PM 16.35 61.43 0.903 7.91 7.85 7.87
6/2/2022 10:45:00 PM 16.3 61.34 0.905 7.9 7.57 7.86
6/2/2022 11:00:00 PM 16.25 61.25 0.907 7.9 7.46 7.84
6/2/2022 11:15:00 PM 16.19 61.142 0.91 7.89 7.87 7.81
6/2/2022 11:30:00 PM 16.14 61.052 0.913 7.87 7.83 7.79
6/2/2022 11:45:00 PM 16.08 60.944 0.915 7.88 7.51 7.76
6/3/2022 12:00:00 AM 16.03 60.854 0.916 7.87 7.74 7.75
6/3/2022 12:15:00 AM 15.98 60.764 0.917 7.85 7.62 7.71
6/3/2022 12:30:00 AM 15.93 60.674 0.918 7.85 8.05 7.67
6/3/2022 12:45:00 AM 15.88 60.584 0.919 7.84 8.17 7.64
6/3/2022 1:00:00 AM 15.83 60.494 0.92 7.83 7.45 7.63
6/3/2022 1:15:00 AM 15.78 60.404 0.921 7.81 7.74 7.63
6/3/2022 1:30:00 AM 15.74 60.332 0.922 7.82 7.86 7.63
6/3/2022 1:45:00 AM 15.7 60.26 0.922 7.82 7.45 7.65
6/3/2022 2:00:00 AM 15.66 60.188 0.922 7.82 7.96 7.66
6/3/2022 2:15:00 AM 15.61 60.098 0.922 7.81 8.34 7.68
6/3/2022 2:30:00 AM 15.58 60.044 0.922 7.82 8.31 7.69
6/3/2022 2:45:00 AM 15.53 59.954 0.922 7.83 8.09 7.71
6/3/2022 3:00:00 AM 15.49 59.882 0.921 7.82 8.19 7.73
6/3/2022 3:15:00 AM 15.45 59.81 0.919 7.82 7.73 7.75
6/3/2022 3:30:00 AM 15.4 59.72 0.915 7.83 7.78 7.77
6/3/2022 3:45:00 AM 15.36 59.648 0.911 7.82 8.28 7.8
6/3/2022 4:00:00 AM 15.32 59.576 0.906 7.84 7.62 7.84
6/3/2022 4:15:00 AM 15.28 59.504 0.9 7.84 7.92 7.86
6/3/2022 4:30:00 AM 15.24 59.432 0.894 7.84 7.87 7.87
6/3/2022 4:45:00 AM 15.2 59.36 0.888 7.84 8.27 7.89
6/3/2022 5:00:00 AM 15.16 59.288 0.881 7.84 7.94 7.91
6/3/2022 5:15:00 AM 15.12 59.216 0.875 7.84 8 7.92
6/3/2022 5:30:00 AM 15.08 59.144 0.868 7.85 8.47 7.97
6/3/2022 5:45:00 AM 15.04 59.072 0.862 7.84 7.7 7.98
6/3/2022 6:00:00 AM 15.01 59.018 0.856 7.85 7.39 8
6/3/2022 6:15:00 AM 14.98 58.964 0.852 7.86 7.48 8.05
6/3/2022 6:30:00 AM 14.95 58.91 0.848 7.86 7.58 8.08
6/3/2022 6:45:00 AM 14.93 58.874 0.844 7.87 7.14 8.13
6/3/2022 7:00:00 AM 14.91 58.838 0.84 7.86 7.13 8.2
6/3/2022 7:15:00 AM 14.92 58.856 0.835 7.88 6.53 8.25
6/3/2022 7:30:00 AM 14.95 58.91 0.83 7.89 6.81 8.35
6/3/2022 7:45:00 AM 14.96 58.928 0.828 7.89 7.06 8.41
6/3/2022 8:00:00 AM 14.99 58.982 0.826 7.9 6.69 8.5
6/3/2022 8:15:00 AM 15.01 59.018 0.827 7.9 6.8 8.59
6/3/2022 8:30:00 AM 15.04 59.072 0.83 7.92 6.53 8.64
6/3/2022 8:45:00 AM 15.07 59.126 0.832 7.93 6.45 8.75
6/3/2022 9:00:00 AM 15.12 59.216 0.832 7.94 6.58 8.85
6/3/2022 9:15:00 AM 15.16 59.288 0.833 7.94 6.62 8.96
6/3/2022 9:30:00 AM 15.21 59.378 0.833 7.97 6.5 9.05
6/3/2022 9:45:00 AM 15.26 59.468 0.835 7.98 6.95 9.17
6/3/2022 10:00:00 AM 15.32 59.576 0.836 7.98 6.56 9.3
6/3/2022 10:15:00 AM 15.38 59.684 0.836 8.01 6.44 9.39
6/3/2022 10:30:00 AM 15.45 59.81 0.837 8.01 7.08 9.55
6/3/2022 10:45:00 AM 15.54 59.972 0.84 8.04 6.59 9.69
6/3/2022 11:00:00 AM 15.63 60.134 0.846 8.06 6.27 9.85
6/3/2022 11:15:00 AM 15.74 60.332 0.854 8.06 6.65 9.96
6/3/2022 11:30:00 AM 15.88 60.584 0.864 8.09 6.41 10.1
6/3/2022 11:45:00 AM 16 60.8 0.875 8.1 6.29 10.22
6/3/2022 12:00:00 PM 16.17 61.106 0.886 8.13 5.84 10.37
6/3/2022 12:15:00 PM 16.34 61.412 0.898 8.15 6.15 10.52
6/3/2022 12:30:00 PM 16.51 61.718 0.909 8.17 6.25 10.61
6/3/2022 12:45:00 PM 16.71 62.078 0.918 8.19 6.13 10.72
6/3/2022 1:00:00 PM 16.89 62.402 0.923 8.2 6.37 10.77
6/3/2022 1:15:00 PM 17.06 62.708 0.925 8.22 6.33 10.85
6/3/2022 1:30:00 PM 17.22 62.996 0.926 8.23 6.08 10.88
6/3/2022 1:45:00 PM 17.4 63.32 0.926 8.25 6.14 10.95
6/3/2022 2:00:00 PM 17.57 63.626 0.924 8.25 5.92 10.99
6/3/2022 2:15:00 PM 17.73 63.914 0.922 8.27 5.5 10.99
6/3/2022 2:30:00 PM 17.88 64.184 0.92 8.28 5.81 10.96
6/3/2022 2:45:00 PM 18.01 64.418 0.917 8.29 5.81 10.93
6/3/2022 3:00:00 PM 18.11 64.598 0.914 8.29 5.77 10.89
6/3/2022 3:15:00 PM 18.19 64.742 0.913 8.29 5.48 10.83
6/3/2022 3:30:00 PM 18.25 64.85 0.912 8.3 5.52 10.77
6/3/2022 3:45:00 PM 18.31 64.958 0.911 8.3 5.77 10.7
6/3/2022 4:00:00 PM 18.34 65.012 0.911 8.3 5.71 10.61
6/3/2022 4:15:00 PM 18.36 65.048 0.909 8.29 5.63 10.5
6/3/2022 4:30:00 PM 18.37 65.066 0.907 8.29 5.99 10.42
6/3/2022 4:45:00 PM 18.37 65.066 0.905 8.28 5.93 10.32
6/3/2022 5:00:00 PM 18.35 65.03 0.902 8.27 6.47 10.19
6/3/2022 5:15:00 PM 18.33 64.994 0.899 8.26 6.2 10.07
6/3/2022 5:30:00 PM 18.3 64.94 0.897 8.24 5.7 9.99
6/3/2022 5:45:00 PM 18.27 64.886 0.894 8.24 5.75 9.88
6/3/2022 6:00:00 PM 18.23 64.814 0.892 8.22 6.1 9.77
6/3/2022 6:15:00 PM 18.18 64.724 0.892 8.21 6.64 9.66
6/3/2022 6:30:00 PM 18.12 64.616 0.892 8.21 6.55 9.55
6/3/2022 6:45:00 PM 18.04 64.472 0.892 8.19 6.51 9.41
6/3/2022 7:00:00 PM 17.96 64.328 0.891 8.16 6.09 9.28
6/3/2022 7:15:00 PM 17.86 64.148 0.892 8.16 6.01 9.18
6/3/2022 7:30:00 PM 17.78 64.004 0.892 8.14 6.37 9.05
6/3/2022 7:45:00 PM 17.7 63.86 0.893 8.13 6.61 8.95
6/3/2022 8:00:00 PM 17.61 63.698 0.894 8.11 6.7 8.85
6/3/2022 8:15:00 PM 17.51 63.518 0.895 8.08 6.83 8.73
6/3/2022 8:30:00 PM 17.41 63.338 0.896 8.07 5.99 8.6
6/3/2022 8:45:00 PM 17.31 63.158 0.898 8.06 6.06 8.5
6/3/2022 9:00:00 PM 17.2 62.96 0.9 8.05 6.39 8.39
6/3/2022 9:15:00 PM 17.1 62.78 0.902 8.04 7.1 8.31
6/3/2022 9:30:00 PM 16.99 62.582 0.903 8.01 7.14 8.2
6/3/2022 9:45:00 PM 16.89 62.402 0.904 8.01 7.14 8.15
6/3/2022 10:00:00 PM 16.77 62.186 0.905 8 7.36 8.11
6/3/2022 10:15:00 PM 16.67 62.006 0.905 7.99 7.44 8.08
6/3/2022 10:30:00 PM 16.56 61.808 0.904 7.99 6.9 8.04
6/3/2022 10:45:00 PM 16.46 61.628 0.904 7.97 7.3 8.01
6/3/2022 11:00:00 PM 16.35 61.43 0.904 7.97 7.27 7.98
6/3/2022 11:15:00 PM 16.25 61.25 0.903 7.96 7.48 7.95
6/3/2022 11:30:00 PM 16.14 61.052 0.903 7.95 7.94 7.92
6/3/2022 11:45:00 PM 16.04 60.872 0.901 7.95 7.88 7.91
6/4/2022 12:00:00 AM 15.94 60.692 0.9 7.94 8.07 7.89
6/4/2022 12:15:00 AM 15.84 60.512 0.899 7.94 7.25 7.88
6/4/2022 12:30:00 AM 15.75 60.35 0.898 7.93 8.07 7.89
6/4/2022 12:45:00 AM 15.66 60.188 0.897 7.93 7.95 7.88
6/4/2022 1:00:00 AM 15.57 60.026 0.895 7.91 7.78 7.89
6/4/2022 1:15:00 AM 15.48 59.864 0.893 7.91 7.76 7.91
6/4/2022 1:30:00 AM 15.4 59.72 0.893 7.92 8.12 7.92
6/4/2022 1:45:00 AM 15.31 59.558 0.893 7.91 7.54 7.93
6/4/2022 2:00:00 AM 15.24 59.432 0.895 7.9 8.95 7.95
6/4/2022 2:15:00 AM 15.17 59.306 0.897 7.91 7.59 7.94
6/4/2022 2:30:00 AM 15.1 59.18 0.897 7.91 6.96 7.96
6/4/2022 2:45:00 AM 15.04 59.072 0.897 7.91 7.29 7.98
6/4/2022 3:00:00 AM 14.98 58.964 0.897 7.91 7.42 8.01
6/4/2022 3:15:00 AM 14.93 58.874 0.896 7.9 7.61 8.01
6/4/2022 3:30:00 AM 14.88 58.784 0.896 7.9 7.4 8.02
6/4/2022 3:45:00 AM 14.83 58.694 0.896 7.88 8.53 8.04
6/4/2022 4:00:00 AM 14.78 58.604 0.895 7.9 7.97 8.05
6/4/2022 4:15:00 AM 14.73 58.514 0.893 7.9 8.18 8.07
6/4/2022 4:30:00 AM 14.67 58.406 0.89 7.9 7.81 8.08
6/4/2022 4:45:00 AM 14.62 58.316 0.888 7.9 7.81 8.1
6/4/2022 5:00:00 AM 14.57 58.226 0.884 7.9 8.06 8.1
6/4/2022 5:15:00 AM 14.51 58.118 0.881 7.89 7.74 8.14
6/4/2022 5:30:00 AM 14.45 58.01 0.877 7.91 7.71 8.16
6/4/2022 5:45:00 AM 14.4 57.92 0.873 7.9 7.32 8.18
6/4/2022 6:00:00 AM 14.34 57.812 0.868 7.9 7.17 8.22
6/4/2022 6:15:00 AM 14.29 57.722 0.864 7.91 6.6 8.24
6/4/2022 6:30:00 AM 14.24 57.632 0.861 7.92 6.89 8.3
6/4/2022 6:45:00 AM 14.19 57.542 0.857 7.92 6.53 8.35
6/4/2022 7:00:00 AM 14.15 57.47 0.853 7.92 7.03 8.41
6/4/2022 7:15:00 AM 14.12 57.416 0.848 7.93 6.93 8.47
6/4/2022 7:30:00 AM 14.09 57.362 0.845 7.93 6.61 8.53
6/4/2022 7:45:00 AM 14.07 57.326 0.843 7.93 6.62 8.59
6/4/2022 8:00:00 AM 14.08 57.344 0.842 7.94 6.59 8.69
6/4/2022 8:15:00 AM 14.1 57.38 0.842 7.95 6.33 8.78
6/4/2022 8:30:00 AM 14.13 57.434 0.844 7.96 6.14 8.89
6/4/2022 8:45:00 AM 14.18 57.524 0.848 7.97 6.46 9
6/4/2022 9:00:00 AM 14.23 57.614 0.851 7.98 6.39 9.09
6/4/2022 9:15:00 AM 14.29 57.722 0.853 7.99 6.27 9.2
6/4/2022 9:30:00 AM 14.36 57.848 0.853 8 6.3 9.31
6/4/2022 9:45:00 AM 14.43 57.974 0.851 8.01 6.51 9.41
6/4/2022 10:00:00 AM 14.51 58.118 0.849 8.02 6.29 9.53
6/4/2022 10:15:00 AM 14.6 58.28 0.846 8.03 6.9 9.64
6/4/2022 10:30:00 AM 14.7 58.46 0.845 8.05 6.84 9.78
6/4/2022 10:45:00 AM 14.81 58.658 0.844 8.07 6.56 9.92
6/4/2022 11:00:00 AM 14.94 58.892 0.844 8.08 7.07 10.04
6/4/2022 11:15:00 AM 15.1 59.18 0.847 8.1 7.09 10.16
6/4/2022 11:30:00 AM 15.27 59.486 0.851 8.12 6.48 10.29
6/4/2022 11:45:00 AM 15.44 59.792 0.859 8.12 6.58 10.36
6/4/2022 12:00:00 PM 15.68 60.224 0.869 8.15 6.86 10.52
6/4/2022 12:15:00 PM 15.92 60.656 0.881 8.17 6.51 10.63
6/4/2022 12:30:00 PM 16.17 61.106 0.893 8.18 6.61 10.73
6/4/2022 12:45:00 PM 16.42 61.556 0.904 8.2 7.55 10.8
6/4/2022 1:00:00 PM 16.66 61.988 0.915 8.21 6.22 10.87
6/4/2022 1:15:00 PM 16.91 62.438 0.925 8.23 6.45 10.94
6/4/2022 1:30:00 PM 17.15 62.87 0.933 8.25 6.31 10.97
6/4/2022 1:45:00 PM 17.39 63.302 0.941 8.26 6.21 10.97
6/4/2022 2:00:00 PM 17.61 63.698 0.948 8.27 6.2 10.99
6/4/2022 2:15:00 PM 17.81 64.058 0.955 8.27 6.52 10.93
6/4/2022 2:30:00 PM 18 64.4 0.961 8.28 6.45 10.89
6/4/2022 2:45:00 PM 18.17 64.706 0.965 8.27 6.33 10.82
6/4/2022 3:00:00 PM 18.3 64.94 0.968 8.29 6.43 10.76
6/4/2022 3:15:00 PM 18.42 65.156 0.969 8.29 6.58 10.67
6/4/2022 3:30:00 PM 18.52 65.336 0.969 8.28 6.5 10.56
6/4/2022 3:45:00 PM 18.59 65.462 0.968 8.28 6.46 10.46
6/4/2022 4:00:00 PM 18.66 65.588 0.968 8.28 6.23 10.36
6/4/2022 4:15:00 PM 18.71 65.67799 0.968 8.28 6.64 10.26
6/4/2022 4:30:00 PM 18.74 65.732 0.968 8.27 5.91 10.17
6/4/2022 4:45:00 PM 18.76 65.768 0.967 8.26 6.27 10.05
6/4/2022 5:00:00 PM 18.75 65.75 0.966 8.25 6.38 9.93
6/4/2022 5:15:00 PM 18.72 65.696 0.965 8.24 5.72 9.8
6/4/2022 5:30:00 PM 18.69 65.642 0.964 8.23 5.85 9.66
6/4/2022 5:45:00 PM 18.63 65.534 0.962 8.22 6.48 9.52
6/4/2022 6:00:00 PM 18.57 65.426 0.96 8.19 6.29 9.4
6/4/2022 6:15:00 PM 18.49 65.282 0.958 8.19 6.36 9.26
6/4/2022 6:30:00 PM 18.42 65.156 0.959 8.18 6.08 9.14
6/4/2022 6:45:00 PM 18.33 64.994 0.959 8.16 6.34 9.03
6/4/2022 7:00:00 PM 18.24 64.832 0.958 8.15 6.44 8.9
6/4/2022 7:15:00 PM 18.14 64.652 0.957 8.12 5.81 8.79
6/4/2022 7:30:00 PM 18.04 64.472 0.956 8.11 5.81 8.7
6/4/2022 7:45:00 PM 17.93 64.274 0.955 8.1 6.01 8.59
6/4/2022 8:00:00 PM 17.81 64.058 0.955 8.09 5.86 8.47
6/4/2022 8:15:00 PM 17.69 63.842 0.955 8.07 6.1 8.38
6/4/2022 8:30:00 PM 17.56 63.608 0.955 8.06 6.09 8.29
6/4/2022 8:45:00 PM 17.43 63.374 0.954 8.04 6.39 8.22
6/4/2022 9:00:00 PM 17.3 63.14 0.954 8.04 6.87 8.15
6/4/2022 9:15:00 PM 17.17 62.906 0.955 8.03 7.05 8.08
6/4/2022 9:30:00 PM 17.05 62.69 0.956 8.01 7.56 8.03
6/4/2022 9:45:00 PM 16.92 62.456 0.959 8.01 7.44 7.99
6/4/2022 10:00:00 PM 16.79 62.222 0.961 7.99 7.37 7.94
6/4/2022 10:15:00 PM 16.67 62.006 0.964 7.99 7.41 7.91
6/4/2022 10:30:00 PM 16.54 61.772 0.967 7.98 8.22 7.89
6/4/2022 10:45:00 PM 16.42 61.556 0.969 7.98 7.43 7.88
6/4/2022 11:00:00 PM 16.3 61.34 0.97 7.97 7.91 7.87
6/4/2022 11:15:00 PM 16.18 61.124 0.97 7.96 7.94 7.85
6/4/2022 11:30:00 PM 16.06 60.908 0.97 7.96 8.19 7.83
6/4/2022 11:45:00 PM 15.95 60.71 0.969 7.94 7.88 7.82
6/5/2022 12:00:00 AM 15.84 60.512 0.967 7.95 7.74 7.83
6/5/2022 12:15:00 AM 15.72 60.296 0.964 7.94 7.68 7.84
6/5/2022 12:30:00 AM 15.61 60.098 0.961 7.94 7.75 7.84
6/5/2022 12:45:00 AM 15.51 59.918 0.958 7.94 7.77 7.89
6/5/2022 1:00:00 AM 15.4 59.72 0.956 7.92 7.52 7.88
6/5/2022 1:15:00 AM 15.3 59.54 0.954 7.93 7.85 7.9
6/5/2022 1:30:00 AM 15.21 59.378 0.952 7.93 7.25 7.93
6/5/2022 1:45:00 AM 15.12 59.216 0.95 7.92 8.04 7.94
6/5/2022 2:00:00 AM 15.04 59.072 0.949 7.92 7.41 7.95
6/5/2022 2:15:00 AM 14.96 58.928 0.948 7.92 7.59 7.98
6/5/2022 2:30:00 AM 14.88 58.784 0.945 7.91 7.3 7.99
6/5/2022 2:45:00 AM 14.8 58.64 0.942 7.92 7.47 8.03
6/5/2022 3:00:00 AM 14.73 58.514 0.939 7.9 7.27 8.03
6/5/2022 3:15:00 AM 14.66 58.388 0.935 7.91 7.42 8.07
6/5/2022 3:30:00 AM 14.59 58.262 0.93 7.9 7.74 8.08
6/5/2022 3:45:00 AM 14.52 58.136 0.926 7.9 7.9 8.1
6/5/2022 4:00:00 AM 14.45 58.01 0.921 7.91 8.11 8.11
6/5/2022 4:15:00 AM 14.38 57.884 0.916 7.91 7.72 8.16
6/5/2022 4:30:00 AM 14.32 57.776 0.911 7.91 7.95 8.18
6/5/2022 4:45:00 AM 14.26 57.668 0.906 7.91 7.94 8.2
6/5/2022 5:00:00 AM 14.2 57.56 0.9 7.92 7.83 8.23
6/5/2022 5:15:00 AM 14.13 57.434 0.894 7.91 7.84 8.26
6/5/2022 5:30:00 AM 14.07 57.326 0.887 7.92 7.91 8.29
6/5/2022 5:45:00 AM 14 57.2 0.878 7.91 7.21 8.32
6/5/2022 6:00:00 AM 13.93 57.074 0.871 7.92 7.05 8.36
6/5/2022 6:15:00 AM 13.87 56.966 0.865 7.93 7.2 8.4
6/5/2022 6:30:00 AM 13.82 56.876 0.862 7.92 7.49 8.43
6/5/2022 6:45:00 AM 13.77 56.786 0.859 7.93 7.64 8.46
6/5/2022 7:00:00 AM 13.73 56.714 0.856 7.94 6.68 8.55
6/5/2022 7:15:00 AM 13.7 56.66 0.852 7.93 6.36 8.61
6/5/2022 7:30:00 AM 13.67 56.606 0.849 7.94 6.48 8.66
6/5/2022 7:45:00 AM 13.66 56.588 0.848 7.95 6.73 8.72
6/5/2022 8:00:00 AM 13.67 56.606 0.848 7.96 6.26 8.8
6/5/2022 8:15:00 AM 13.7 56.66 0.849 7.97 6.45 8.91
6/5/2022 8:30:00 AM 13.73 56.714 0.851 7.98 6.53 9.02
6/5/2022 8:45:00 AM 13.77 56.786 0.852 7.98 6.24 9.12
6/5/2022 9:00:00 AM 13.82 56.876 0.854 8 6.06 9.22
6/5/2022 9:15:00 AM 13.87 56.966 0.856 8 6.72 9.32
6/5/2022 9:30:00 AM 13.92 57.056 0.858 8.02 6.21 9.41
6/5/2022 9:45:00 AM 13.99 57.182 0.859 8.03 5.9 9.52
6/5/2022 10:00:00 AM 14.06 57.308 0.858 8.04 6.44 9.62
6/5/2022 10:15:00 AM 14.14 57.452 0.856 8.05 6.3 9.74
6/5/2022 10:30:00 AM 14.23 57.614 0.853 8.06 5.76 9.88
6/5/2022 10:45:00 AM 14.34 57.812 0.851 8.08 5.78 10.02
6/5/2022 11:00:00 AM 14.46 58.028 0.849 8.1 5.97 10.15
6/5/2022 11:15:00 AM 14.6 58.28 0.851 8.11 6.12 10.27
6/5/2022 11:30:00 AM 14.77 58.586 0.855 8.13 6.34 10.4
6/5/2022 11:45:00 AM 14.95 58.91 0.862 8.15 6.1 10.5
6/5/2022 12:00:00 PM 15.15 59.27 0.872 8.16 6.29 10.63
6/5/2022 12:15:00 PM 15.36 59.648 0.883 8.17 6.41 10.74
6/5/2022 12:30:00 PM 15.6 60.08 0.894 8.2 6.15 10.86
6/5/2022 12:45:00 PM 15.83 60.494 0.904 8.21 6.26 10.93
6/5/2022 1:00:00 PM 16.07 60.926 0.913 8.23 5.84 11
6/5/2022 1:15:00 PM 16.31 61.358 0.923 8.25 5.61 11.09
6/5/2022 1:30:00 PM 16.53 61.754 0.932 8.26 5.84 11.12
6/5/2022 1:45:00 PM 16.77 62.186 0.941 8.27 6.12 11.14
6/5/2022 2:00:00 PM 16.99 62.582 0.949 8.28 6.11 11.12
6/5/2022 2:15:00 PM 17.19 62.942 0.955 8.28 6.02 11.08
6/5/2022 2:30:00 PM 17.37 63.266 0.959 8.29 5.48 11.03
6/5/2022 2:45:00 PM 17.53 63.554 0.962 8.28 6.28 10.97
6/5/2022 3:00:00 PM 17.66 63.788 0.964 8.29 6.19 10.91
6/5/2022 3:15:00 PM 17.77 63.986 0.965 8.3 5.55 10.83
6/5/2022 3:30:00 PM 17.85 64.13 0.966 8.3 5.97 10.75
6/5/2022 3:45:00 PM 17.93 64.274 0.967 8.29 5.71 10.65
6/5/2022 4:00:00 PM 18 64.4 0.967 8.28 6.05 10.54
6/5/2022 4:15:00 PM 18.06 64.508 0.967 8.29 5.62 10.42
6/5/2022 4:30:00 PM 18.1 64.58 0.966 8.28 5.97 10.34
6/5/2022 4:45:00 PM 18.12 64.616 0.964 8.26 5.94 10.24
6/5/2022 5:00:00 PM 18.12 64.616 0.963 8.26 5.91 10.12
6/5/2022 5:15:00 PM 18.11 64.598 0.962 8.24 6.31 9.99
6/5/2022 5:30:00 PM 18.08 64.544 0.961 8.24 5.82 9.87
6/5/2022 5:45:00 PM 18.04 64.472 0.96 8.23 5.5 9.74
6/5/2022 6:00:00 PM 17.98 64.364 0.958 8.21 6.13 9.62
6/5/2022 6:15:00 PM 17.91 64.238 0.957 8.2 6.04 9.48
6/5/2022 6:30:00 PM 17.84 64.112 0.956 8.18 5.9 9.36
6/5/2022 6:45:00 PM 17.77 63.986 0.955 8.17 5.76 9.21
6/5/2022 7:00:00 PM 17.69 63.842 0.955 8.14 6.03 9.11
6/5/2022 7:15:00 PM 17.6 63.68 0.953 8.14 6.25 9
6/5/2022 7:30:00 PM 17.51 63.518 0.951 8.12 5.83 8.9
6/5/2022 7:45:00 PM 17.41 63.338 0.948 8.11 6.12 8.78
6/5/2022 8:00:00 PM 17.3 63.14 0.946 8.1 5.93 8.67
6/5/2022 8:15:00 PM 17.19 62.942 0.944 8.09 6.1 8.56
6/5/2022 8:30:00 PM 17.07 62.726 0.944 8.06 5.79 8.46
6/5/2022 8:45:00 PM 16.96 62.528 0.945 8.06 6.06 8.38
6/5/2022 9:00:00 PM 16.84 62.312 0.945 8.05 6.79 8.31
6/5/2022 9:15:00 PM 16.72 62.096 0.946 8.04 7.42 8.25
6/5/2022 9:30:00 PM 16.61 61.898 0.945 8.02 8.08 8.2
6/5/2022 9:45:00 PM 16.49 61.682 0.945 8.02 7.85 8.16
6/5/2022 10:00:00 PM 16.37 61.466 0.945 8.01 7.63 8.12
6/5/2022 10:15:00 PM 16.25 61.25 0.945 8 7.61 8.09
6/5/2022 10:30:00 PM 16.14 61.052 0.945 7.99 8.16 8.07
6/5/2022 10:45:00 PM 16.02 60.836 0.945 7.98 8.15 8.03
6/5/2022 11:00:00 PM 15.91 60.638 0.945 7.97 8.12 8.03
6/5/2022 11:15:00 PM 15.8 60.44 0.945 7.96 7.89 8.01
6/5/2022 11:30:00 PM 15.69 60.242 0.945 7.96 7.92 8.01
6/5/2022 11:45:00 PM 15.59 60.062 0.946 7.96 7.88 7.99
6/6/2022 12:00:00 AM 15.49 59.882 0.947 7.95 8.13 8
6/6/2022 12:15:00 AM 15.39 59.702 0.949 7.95 8.69 7.99
6/6/2022 12:30:00 AM 15.3 59.54 0.951 7.94 8.18 8
6/6/2022 12:45:00 AM 15.21 59.378 0.952 7.93 8.31 8.01
6/6/2022 1:00:00 AM 15.13 59.234 0.953 7.93 7.73 8.01
6/6/2022 1:15:00 AM 15.04 59.072 0.954 7.93 7.92 8.03
6/6/2022 1:30:00 AM 14.97 58.946 0.955 7.92 8.2 8.02
6/6/2022 1:45:00 AM 14.9 58.82 0.956 7.92 7.74 8.04
6/6/2022 2:00:00 AM 14.83 58.694 0.956 7.92 7.51 8.03
6/6/2022 2:15:00 AM 14.77 58.586 0.955 7.92 7.88 8.05
6/6/2022 2:30:00 AM 14.71 58.478 0.952 7.91 8.06 8.07
6/6/2022 2:45:00 AM 14.65 58.37 0.948 7.92 8.4 8.09
6/6/2022 3:00:00 AM 14.59 58.262 0.945 7.91 7.69 8.11
6/6/2022 3:15:00 AM 14.53 58.154 0.941 7.92 7.47 8.11
6/6/2022 3:30:00 AM 14.48 58.064 0.937 7.92 7.53 8.11
6/6/2022 3:45:00 AM 14.42 57.956 0.932 7.92 7.51 8.14
6/6/2022 4:00:00 AM 14.36 57.848 0.925 7.92 7.78 8.16
6/6/2022 4:15:00 AM 14.3 57.74 0.919 7.91 7.85 8.19
6/6/2022 4:30:00 AM 14.24 57.632 0.911 7.92 7.84 8.23
6/6/2022 4:45:00 AM 14.19 57.542 0.904 7.92 7.44 8.22
6/6/2022 5:00:00 AM 14.13 57.434 0.896 7.92 8.35 8.26
6/6/2022 5:15:00 AM 14.07 57.326 0.889 7.91 8.04 8.28
6/6/2022 5:30:00 AM 14.02 57.236 0.881 7.92 7.87 8.31
6/6/2022 5:45:00 AM 13.96 57.128 0.872 7.93 8.06 8.34
6/6/2022 6:00:00 AM 13.9 57.02 0.865 7.92 7.48 8.37
6/6/2022 6:15:00 AM 13.85 56.93 0.857 7.93 7.16 8.42
6/6/2022 6:30:00 AM 13.8 56.84 0.851 7.92 7.75 8.46
6/6/2022 6:45:00 AM 13.76 56.768 0.846 7.94 7.88 8.51
6/6/2022 7:00:00 AM 13.73 56.714 0.842 7.93 7.48 8.58
6/6/2022 7:15:00 AM 13.7 56.66 0.84 7.94 7.21 8.62
6/6/2022 7:30:00 AM 13.69 56.642 0.839 7.95 6.78 8.68
6/6/2022 7:45:00 AM 13.68 56.624 0.838 7.95 6.38 8.73
6/6/2022 8:00:00 AM 13.7 56.66 0.838 7.95 5.99 8.81
6/6/2022 8:15:00 AM 13.73 56.714 0.839 7.95 7.2 8.92
6/6/2022 8:30:00 AM 13.77 56.786 0.841 7.97 6.19 9.02
6/6/2022 8:45:00 AM 13.82 56.876 0.843 7.98 6.86 9.13
6/6/2022 9:00:00 AM 13.88 56.984 0.845 7.98 6.77 9.21
6/6/2022 9:15:00 AM 13.94 57.092 0.846 7.99 6.53 9.32
6/6/2022 9:30:00 AM 14.01 57.218 0.846 8 6.7 9.4
6/6/2022 9:45:00 AM 14.09 57.362 0.847 8.01 6.72 9.51
6/6/2022 10:00:00 AM 14.17 57.506 0.847 8.02 7.32 9.59
6/6/2022 10:15:00 AM 14.27 57.686 0.845 8.04 6.39 9.71
6/6/2022 10:30:00 AM 14.38 57.884 0.843 8.05 6.48 9.86
6/6/2022 10:45:00 AM 14.5 58.1 0.843 8.06 6.3 9.99
6/6/2022 11:00:00 AM 14.65 58.37 0.846 8.07 6.43 10.12
6/6/2022 11:15:00 AM 14.82 58.676 0.851 8.09 6.61 10.21
6/6/2022 11:30:00 AM 15.01 59.018 0.86 8.1 6.49 10.32
6/6/2022 11:45:00 AM 15.22 59.396 0.871 8.13 6.54 10.43
6/6/2022 12:00:00 PM 15.46 59.828 0.883 8.14 6.29 10.55
6/6/2022 12:15:00 PM 15.71 60.278 0.896 8.16 6.1 10.66
6/6/2022 12:30:00 PM 15.96 60.728 0.908 8.18 6.47 10.75
6/6/2022 12:45:00 PM 16.22 61.196 0.917 8.19 6.74 10.83
6/6/2022 1:00:00 PM 16.47 61.646 0.922 8.2 6.65 10.88
6/6/2022 1:15:00 PM 16.72 62.096 0.924 8.22 6.49 10.97
6/6/2022 1:30:00 PM 16.95 62.51 0.922 8.24 6.28 11.02
6/6/2022 1:45:00 PM 17.17 62.906 0.919 8.25 6.35 11.06
6/6/2022 2:00:00 PM 17.36 63.248 0.915 8.26 6.61 11.06
6/6/2022 2:15:00 PM 17.55 63.59 0.912 8.27 6.47 11.05
6/6/2022 2:30:00 PM 17.73 63.914 0.912 8.28 5.91 11.01
6/6/2022 2:45:00 PM 17.9 64.22 0.914 8.29 6.16 10.96
6/6/2022 3:00:00 PM 18.04 64.472 0.918 8.29 6.3 10.88
6/6/2022 3:15:00 PM 18.18 64.724 0.92 8.28 5.87 10.8
6/6/2022 3:30:00 PM 18.29 64.922 0.922 8.29 6.46 10.69
6/6/2022 3:45:00 PM 18.37 65.066 0.921 8.29 6.55 10.61
6/6/2022 4:00:00 PM 18.44 65.192 0.92 8.29 6.11 10.5
6/6/2022 4:15:00 PM 18.49 65.282 0.92 8.28 6.04 10.39
6/6/2022 4:30:00 PM 18.52 65.336 0.919 8.28 5.81 10.3
6/6/2022 4:45:00 PM 18.54 65.372 0.918 8.27 5.97 10.21
6/6/2022 5:00:00 PM 18.53 65.354 0.916 8.27 5.67 10.09
6/6/2022 5:15:00 PM 18.5 65.3 0.912 8.25 5.71 9.96
6/6/2022 5:30:00 PM 18.47 65.246 0.91 8.25 5.77 9.84
6/6/2022 5:45:00 PM 18.41 65.138 0.908 8.23 6.03 9.72
6/6/2022 6:00:00 PM 18.35 65.03 0.909 8.22 5.71 9.6
6/6/2022 6:15:00 PM 18.29 64.922 0.909 8.21 5.57 9.46
6/6/2022 6:30:00 PM 18.21 64.778 0.909 8.19 5.57 9.33
6/6/2022 6:45:00 PM 18.13 64.634 0.91 8.18 5.7 9.22
6/6/2022 7:00:00 PM 18.05 64.49 0.91 8.16 5.63 9.1
6/6/2022 7:15:00 PM 17.96 64.328 0.911 8.15 5.78 8.99
6/6/2022 7:30:00 PM 17.88 64.184 0.912 8.12 5.55 8.89
6/6/2022 7:45:00 PM 17.8 64.04 0.912 8.12 5.4 8.77
6/6/2022 8:00:00 PM 17.71 63.878 0.911 8.1 5.74 8.67
6/6/2022 8:15:00 PM 17.61 63.698 0.91 8.09 5.8 8.57
6/6/2022 8:30:00 PM 17.5 63.5 0.909 8.07 5.77 8.47
6/6/2022 8:45:00 PM 17.39 63.302 0.908 8.06 6.23 8.37
6/6/2022 9:00:00 PM 17.26 63.068 0.907 8.05 6.29 8.28
6/6/2022 9:15:00 PM 17.13 62.834 0.907 8.03 6.52 8.2
6/6/2022 9:30:00 PM 17.01 62.618 0.909 8.02 7 8.15
6/6/2022 9:45:00 PM 16.89 62.402 0.911 8.01 6.79 8.1
6/6/2022 10:00:00 PM 16.78 62.204 0.913 8 7 8.05
6/6/2022 10:15:00 PM 16.66 61.988 0.915 8 7.35 8.04
6/6/2022 10:30:00 PM 16.55 61.79 0.918 7.99 7.49 8.01
6/6/2022 10:45:00 PM 16.44 61.592 0.921 7.98 7.11 7.98
6/6/2022 11:00:00 PM 16.33 61.394 0.923 7.97 7.36 7.97
6/6/2022 11:15:00 PM 16.22 61.196 0.926 7.97 7.6 7.94
6/6/2022 11:30:00 PM 16.11 60.998 0.929 7.96 7.62 7.93
6/6/2022 11:45:00 PM 16 60.8 0.931 7.95 7.83 7.91
6/7/2022 12:00:00 AM 15.9 60.62 0.935 7.94 7.4 7.92
6/7/2022 12:15:00 AM 15.81 60.458 0.938 7.94 7.45 7.89
6/7/2022 12:30:00 AM 15.72 60.296 0.943 7.94 7.5 7.9
6/7/2022 12:45:00 AM 15.63 60.134 0.946 7.93 7.52 7.9
6/7/2022 1:00:00 AM 15.55 59.99 0.948 7.93 7.81 7.89
6/7/2022 1:15:00 AM 15.46 59.828 0.95 7.92 7.6 7.9
6/7/2022 1:30:00 AM 15.39 59.702 0.951 7.92 7.76 7.9
6/7/2022 1:45:00 AM 15.31 59.558 0.952 7.9 7.63 7.91
6/7/2022 2:00:00 AM 15.24 59.432 0.954 7.92 7.66 7.93
6/7/2022 2:15:00 AM 15.17 59.306 0.956 7.91 8.13 7.93
6/7/2022 2:30:00 AM 15.11 59.198 0.958 7.9 8.22 7.94
6/7/2022 2:45:00 AM 15.05 59.09 0.958 7.91 7.53 7.97
6/7/2022 3:00:00 AM 14.99 58.982 0.957 7.91 7.19 7.97
6/7/2022 3:15:00 AM 14.94 58.892 0.956 7.9 7.57 8
6/7/2022 3:30:00 AM 14.88 58.784 0.953 7.91 7.76 8.02
6/7/2022 3:45:00 AM 14.83 58.694 0.951 7.9 8.29 8.02
6/7/2022 4:00:00 AM 14.77 58.586 0.947 7.91 8.18 8.04
6/7/2022 4:15:00 AM 14.72 58.496 0.942 7.91 8.08 8.05
6/7/2022 4:30:00 AM 14.67 58.406 0.937 7.92 7.86 8.07
6/7/2022 4:45:00 AM 14.63 58.334 0.932 7.92 8 8.11
6/7/2022 5:00:00 AM 14.58 58.244 0.928 7.92 7.81 8.13
6/7/2022 5:15:00 AM 14.54 58.172 0.923 7.92 7.85 8.15
6/7/2022 5:30:00 AM 14.5 58.1 0.918 7.92 7.54 8.15
6/7/2022 5:45:00 AM 14.45 58.01 0.911 7.92 7.64 8.19
6/7/2022 6:00:00 AM 14.41 57.938 0.905 7.92 7.27 8.24
6/7/2022 6:15:00 AM 14.38 57.884 0.898 7.93 6.89 8.27
6/7/2022 6:30:00 AM 14.35 57.83 0.891 7.93 7.32 8.34
6/7/2022 6:45:00 AM 14.33 57.794 0.884 7.94 7.59 8.4
6/7/2022 7:00:00 AM 14.3 57.74 0.878 7.94 7.01 8.48
6/7/2022 7:15:00 AM 14.29 57.722 0.872 7.95 6.79 8.57
6/7/2022 7:30:00 AM 14.27 57.686 0.868 7.96 6.28 8.65
6/7/2022 7:45:00 AM 14.28 57.704 0.866 7.96 6.33 8.75
6/7/2022 8:00:00 AM 14.3 57.74 0.867 7.96 6.63 8.85
6/7/2022 8:15:00 AM 14.34 57.812 0.87 7.97 6.06 8.97
6/7/2022 8:30:00 AM 14.38 57.884 0.874 7.99 6.26 9.11
6/7/2022 8:45:00 AM 14.43 57.974 0.877 8 6.33 9.17
6/7/2022 9:00:00 AM 14.49 58.082 0.88 8.01 6.17 9.28
6/7/2022 9:15:00 AM 14.54 58.172 0.882 8.02 6.14 9.35
6/7/2022 9:30:00 AM 14.6 58.28 0.883 8.03 6.16 9.45
6/7/2022 9:45:00 AM 14.68 58.424 0.884 8.04 6.46 9.56
6/7/2022 10:00:00 AM 14.77 58.586 0.884 8.05 6.51 9.73
6/7/2022 10:15:00 AM 14.86 58.748 0.884 8.06 6.15 9.77
6/7/2022 10:30:00 AM 14.94 58.892 0.886 8.07 6.33 9.85
6/7/2022 10:45:00 AM 15.02 59.036 0.89 8.09 6.49 9.97
6/7/2022 11:00:00 AM 15.11 59.198 0.896 8.09 6.15 10.02
6/7/2022 11:15:00 AM 15.25 59.45 0.905 8.1 6.25 10.16
6/7/2022 11:30:00 AM 15.42 59.756 0.916 8.13 6.41 10.34
6/7/2022 11:45:00 AM 15.6 60.08 0.928 8.15 5.97 10.47
6/7/2022 12:00:00 PM 15.73 60.314 0.941 8.16 6.25 10.43
6/7/2022 12:15:00 PM 15.89 60.602 0.955 8.16 7.07 10.46
6/7/2022 12:30:00 PM 16.01 60.818 0.969 8.17 6.58 10.46
6/7/2022 12:45:00 PM 16.14 61.052 0.981 8.18 6.31 10.51
6/7/2022 1:00:00 PM 16.25 61.25 0.99 8.17 6.01 10.42
6/7/2022 1:15:00 PM 16.4 61.52 0.998 8.19 6.19 10.53
6/7/2022 1:30:00 PM 16.53 61.754 1.003 8.19 6.11 10.54
6/7/2022 1:45:00 PM 16.61 61.898 1.006 8.2 5.63 10.4
6/7/2022 2:00:00 PM 16.68 62.024 1.007 8.19 6.11 10.29
6/7/2022 2:15:00 PM 16.71 62.078 1.005 8.18 5.91 10.14
6/7/2022 2:30:00 PM 16.73 62.114 1.001 8.17 5.91 9.95
6/7/2022 2:45:00 PM 16.74 62.132 0.998 8.17 5.96 9.81
6/7/2022 3:00:00 PM 16.76 62.168 0.996 8.16 5.86 9.69
6/7/2022 3:15:00 PM 16.77 62.186 0.996 8.15 5.6 9.58
6/7/2022 3:30:00 PM 16.8 62.24 0.998 8.13 5.92 9.47
6/7/2022 3:45:00 PM 16.81 62.258 1 8.13 5.98 9.34
6/7/2022 4:00:00 PM 16.82 62.276 1.002 8.13 5.86 9.26
6/7/2022 4:15:00 PM 16.82 62.276 1.003 8.12 5.71 9.17
6/7/2022 4:30:00 PM 16.84 62.312 1.004 8.11 5.91 9.16
6/7/2022 4:45:00 PM 16.85 62.33 1.005 8.1 5.71 9.06
6/7/2022 5:00:00 PM 16.86 62.348 1.006 8.1 5.57 9.01
6/7/2022 5:15:00 PM 16.86 62.348 1.007 8.09 5.88 8.93
6/7/2022 5:30:00 PM 16.85 62.33 1.007 8.08 5.75 8.82
6/7/2022 5:45:00 PM 16.83 62.294 1.006 8.07 6.04 8.72
6/7/2022 6:00:00 PM 16.8 62.24 1.005 8.06 6.04 8.62
6/7/2022 6:15:00 PM 16.76 62.168 1.004 8.05 6.07 8.53
6/7/2022 6:30:00 PM 16.73 62.114 1.005 8.04 5.96 8.45
6/7/2022 6:45:00 PM 16.69 62.042 1.005 8.03 6.34 8.36
6/7/2022 7:00:00 PM 16.66 61.988 1.004 8.02 6.63 8.27
6/7/2022 7:15:00 PM 16.62 61.916 1.005 8.01 6.77 8.19
6/7/2022 7:30:00 PM 16.59 61.862 1.006 8 6.73 8.12
6/7/2022 7:45:00 PM 16.55 61.79 1.01 7.99 6.28 8.08
6/7/2022 8:00:00 PM 16.51 61.718 1.016 7.99 6.76 8.04
6/7/2022 8:15:00 PM 16.48 61.664 1.024 7.97 6.56 7.99
6/7/2022 8:30:00 PM 16.44 61.592 1.035 7.97 6.63 7.95
6/7/2022 8:45:00 PM 16.41 61.538 1.045 7.96 6.6 7.91
6/7/2022 9:00:00 PM 16.38 61.484 1.053 7.95 7.47 7.86
6/7/2022 9:15:00 PM 16.35 61.43 1.057 7.94 7.27 7.82
6/7/2022 9:30:00 PM 16.32 61.376 1.058 7.94 7.53 7.79
6/7/2022 9:45:00 PM 16.27 61.286 1.057 7.93 8.86 7.77
6/7/2022 10:00:00 PM 16.23 61.214 1.054 7.92 8.27 7.76
6/7/2022 10:15:00 PM 16.17 61.106 1.052 7.91 8.65 7.75
6/7/2022 10:30:00 PM 16.13 61.034 1.051 7.92 8.26 7.76
6/7/2022 10:45:00 PM 16.08 60.944 1.051 7.91 7.8 7.75
6/7/2022 11:00:00 PM 16.04 60.872 1.053 7.91 7.82 7.76
6/7/2022 11:15:00 PM 16.01 60.818 1.055 7.91 7.76 7.74
6/7/2022 11:30:00 PM 15.98 60.764 1.055 7.89 7.92 7.73
6/7/2022 11:45:00 PM 15.95 60.71 1.053 7.9 8.21 7.72
6/8/2022 12:00:00 AM 15.92 60.656 1.05 7.89 7.67 7.7
6/8/2022 12:15:00 AM 15.89 60.602 1.045 7.88 7.35 7.68
6/8/2022 12:30:00 AM 15.86 60.548 1.043 7.87 7.51 7.65
6/8/2022 12:45:00 AM 15.84 60.512 1.04 7.85 7.53 7.59
6/8/2022 1:00:00 AM 15.83 60.494 1.038 7.85 8.16 7.53
6/8/2022 1:15:00 AM 15.82 60.476 1.035 7.83 8.57 7.44
6/8/2022 1:30:00 AM 15.82 60.476 1.03 7.82 7.69 7.34
6/8/2022 1:45:00 AM 15.83 60.494 1.025 7.8 7.55 7.27
6/8/2022 2:00:00 AM 15.84 60.512 1.02 7.79 7.66 7.18
6/8/2022 2:15:00 AM 15.85 60.53 1.017 7.77 7.97 7.15
6/8/2022 2:30:00 AM 15.85 60.53 1.015 7.76 7.51 7.14
6/8/2022 2:45:00 AM 15.85 60.53 1.014 7.75 7.79 7.15
6/8/2022 3:00:00 AM 15.83 60.494 1.011 7.76 8.21 7.17
6/8/2022 3:15:00 AM 15.81 60.458 1.007 7.76 8.15 7.21
6/8/2022 3:30:00 AM 15.77 60.386 1.004 7.77 7.87 7.27
6/8/2022 3:45:00 AM 15.74 60.332 1.001 7.77 7.67 7.32
6/8/2022 4:00:00 AM 15.7 60.26 0.997 7.77 7.57 7.38
6/8/2022 4:15:00 AM 15.65 60.17 0.993 7.79 8.07 7.46
6/8/2022 4:30:00 AM 15.61 60.098 0.986 7.8 7.94 7.51
6/8/2022 4:45:00 AM 15.57 60.026 0.98 7.79 7.34 7.56
6/8/2022 5:00:00 AM 15.52 59.936 0.972 7.81 7.86 7.62
6/8/2022 5:15:00 AM 15.47 59.846 0.965 7.81 7.46 7.67
6/8/2022 5:30:00 AM 15.42 59.756 0.958 7.82 7.66 7.7
6/8/2022 5:45:00 AM 15.38 59.684 0.95 7.81 7.92 7.77
6/8/2022 6:00:00 AM 15.33 59.594 0.941 7.83 7.92 7.81
6/8/2022 6:15:00 AM 15.28 59.504 0.932 7.83 7.31 7.86
6/8/2022 6:30:00 AM 15.24 59.432 0.922 7.83 7.1 7.9
6/8/2022 6:45:00 AM 15.2 59.36 0.913 7.84 7.01 7.98
6/8/2022 7:00:00 AM 15.17 59.306 0.905 7.85 7.04 8.06
6/8/2022 7:15:00 AM 15.15 59.27 0.899 7.86 6.87 8.13
6/8/2022 7:30:00 AM 15.13 59.234 0.894 7.87 7.01 8.21
6/8/2022 7:45:00 AM 15.12 59.216 0.892 7.88 6.65 8.29
6/8/2022 8:00:00 AM 15.12 59.216 0.89 7.89 6.34 8.4
6/8/2022 8:15:00 AM 15.14 59.252 0.891 7.9 6.13 8.5
6/8/2022 8:30:00 AM 15.18 59.324 0.893 7.9 6.41 8.64
6/8/2022 8:45:00 AM 15.21 59.378 0.895 7.92 6.1 8.75
6/8/2022 9:00:00 AM 15.25 59.45 0.896 7.92 6.47 8.86
6/8/2022 9:15:00 AM 15.27 59.486 0.896 7.94 6.02 8.93
6/8/2022 9:30:00 AM 15.32 59.576 0.897 7.95 6.2 9.07
6/8/2022 9:45:00 AM 15.36 59.648 0.897 7.97 6.24 9.18
6/8/2022 10:00:00 AM 15.43 59.774 0.897 7.98 6.41 9.34
6/8/2022 10:15:00 AM 15.5 59.9 0.898 7.99 7.13 9.46
6/8/2022 10:30:00 AM 15.59 60.062 0.901 8.01 7.56 9.59
6/8/2022 10:45:00 AM 15.7 60.26 0.904 8.04 6.77 9.78
6/8/2022 11:00:00 AM 15.79 60.422 0.908 8.06 6.77 9.94
6/8/2022 11:15:00 AM 15.92 60.656 0.914 8.08 6.69 10.1
6/8/2022 11:30:00 AM 16.06 60.908 0.922 8.1 6.45 10.22
6/8/2022 11:45:00 AM 16.22 61.196 0.933 8.12 6.32 10.33
6/8/2022 12:00:00 PM 16.4 61.52 0.945 8.12 6.35 10.42
6/8/2022 12:15:00 PM 16.62 61.916 0.959 8.15 6.27 10.51
6/8/2022 12:30:00 PM 16.85 62.33 0.972 8.17 6.25 10.59
6/8/2022 12:45:00 PM 17.09 62.762 0.983 8.18 6.23 10.69
6/8/2022 1:00:00 PM 17.32 63.176 0.991 8.21 6.4 10.77
6/8/2022 1:15:00 PM 17.55 63.59 0.996 8.22 6.48 10.83
6/8/2022 1:30:00 PM 17.76 63.968 0.999 8.25 5.83 10.86
6/8/2022 1:45:00 PM 17.97 64.346 1.002 8.26 6.08 10.91
6/8/2022 2:00:00 PM 18.15 64.67 1.004 8.27 6.45 10.91
6/8/2022 2:15:00 PM 18.33 64.994 1.007 8.28 6.52 10.88
6/8/2022 2:30:00 PM 18.5 65.3 1.01 8.29 6.09 10.83
6/8/2022 2:45:00 PM 18.65 65.57 1.011 8.29 6.05 10.78
6/8/2022 3:00:00 PM 18.78 65.804 1.01 8.29 6.04 10.69
6/8/2022 3:15:00 PM 18.9 66.02 1.01 8.3 5.95 10.62
6/8/2022 3:30:00 PM 19 66.2 1.011 8.29 5.89 10.52
6/8/2022 3:45:00 PM 19.09 66.362 1.013 8.29 6.05 10.41
6/8/2022 4:00:00 PM 19.16 66.488 1.017 8.29 5.51 10.3
6/8/2022 4:15:00 PM 19.22 66.596 1.024 8.28 5.62 10.21
6/8/2022 4:30:00 PM 19.28 66.704 1.033 8.28 5.48 10.11
6/8/2022 4:45:00 PM 19.32 66.776 1.041 8.27 5.39 9.97
6/8/2022 5:00:00 PM 19.35 66.83 1.047 8.26 5.68 9.85
6/8/2022 5:15:00 PM 19.34 66.812 1.051 8.25 5.73 9.72
6/8/2022 5:30:00 PM 19.32 66.776 1.052 8.24 5.82 9.6
6/8/2022 5:45:00 PM 19.29 66.722 1.052 8.23 5.63 9.49
6/8/2022 6:00:00 PM 19.24 66.632 1.05 8.22 5.73 9.36
6/8/2022 6:15:00 PM 19.18 66.524 1.046 8.2 5.51 9.22
6/8/2022 6:30:00 PM 19.1 66.38 1.04 8.18 5.27 9.08
6/8/2022 6:45:00 PM 19.01 66.218 1.033 8.18 5.36 8.97
6/8/2022 7:00:00 PM 18.91 66.038 1.025 8.16 5.47 8.82
6/8/2022 7:15:00 PM 18.81 65.858 1.018 8.14 5.35 8.72
6/8/2022 7:30:00 PM 18.71 65.67799 1.013 8.13 5.66 8.6
6/8/2022 7:45:00 PM 18.6 65.48 1.009 8.11 5.63 8.45
6/8/2022 8:00:00 PM 18.5 65.3 1.006 8.1 5.63 8.34
6/8/2022 8:15:00 PM 18.41 65.138 1.005 8.08 5.64 8.25
6/8/2022 8:30:00 PM 18.31 64.958 1.003 8.06 5.75 8.15
6/8/2022 8:45:00 PM 18.21 64.778 1.001 8.06 5.95 8.05
6/8/2022 9:00:00 PM 18.11 64.598 0.998 8.04 6.23 7.98
6/8/2022 9:15:00 PM 18.01 64.418 0.995 8.02 7.72 7.91
6/8/2022 9:30:00 PM 17.91 64.238 0.993 8.02 7.51 7.85
6/8/2022 9:45:00 PM 17.8 64.04 0.993 8 7.3 7.8
6/8/2022 10:00:00 PM 17.7 63.86 0.995 8 7.5 7.74
6/8/2022 10:15:00 PM 17.59 63.662 0.997 7.99 7.07 7.72
6/8/2022 10:30:00 PM 17.49 63.482 1.001 7.97 7.85 7.68
6/8/2022 10:45:00 PM 17.4 63.32 1.004 7.97 7.42 7.62
6/8/2022 11:00:00 PM 17.31 63.158 1.008 7.96 7.25 7.6
6/8/2022 11:15:00 PM 17.22 62.996 1.011 7.95 7.86 7.59
6/8/2022 11:30:00 PM 17.14 62.852 1.014 7.95 7.98 7.57
6/8/2022 11:45:00 PM 17.06 62.708 1.017 7.94 7.66 7.55
6/9/2022 12:00:00 AM 16.99 62.582 1.02 7.93 7.7 7.52
6/9/2022 12:15:00 AM 16.92 62.456 1.022 7.93 7.32 7.47
6/9/2022 12:30:00 AM 16.86 62.348 1.024 7.92 7.47 7.49
6/9/2022 12:45:00 AM 16.79 62.222 1.025 7.9 7.64 7.46
6/9/2022 1:00:00 AM 16.76 62.168 1.02 7.91 8.11 7.45
6/9/2022 1:15:00 AM 16.72 62.096 1.016 7.91 9.62 7.44
6/9/2022 1:30:00 AM 16.67 62.006 1.015 7.91 9.06 7.45
6/9/2022 1:45:00 AM 16.6 61.88 1.015 7.91 8.79 7.46
6/9/2022 2:00:00 AM 16.54 61.772 1.012 7.9 8.67 7.47
6/9/2022 2:15:00 AM 16.49 61.682 1.008 7.89 8.13 7.47
6/9/2022 2:30:00 AM 16.44 61.592 1.004 7.9 8.59 7.47
6/9/2022 2:45:00 AM 16.41 61.538 0.999 7.9 8.25 7.47
6/9/2022 3:00:00 AM 16.36 61.448 0.995 7.89 9.23 7.49
6/9/2022 3:15:00 AM 16.31 61.358 0.993 7.89 12.11 7.53
6/9/2022 3:30:00 AM 16.25 61.25 0.99 7.88 14.77 7.58
6/9/2022 3:45:00 AM 16.19 61.142 0.983 7.88 13.12 7.59
6/9/2022 4:00:00 AM 16.12 61.016 0.97 7.88 12.51 7.63
6/9/2022 4:15:00 AM 16.04 60.872 0.952 7.87 12.07 7.67
6/9/2022 4:30:00 AM 15.98 60.764 0.932 7.87 11.33 7.69
6/9/2022 4:45:00 AM 15.94 60.692 0.909 7.86 10.48 7.69
6/9/2022 5:00:00 AM 15.92 60.656 0.884 7.87 10.47 7.69
6/9/2022 5:15:00 AM 15.91 60.638 0.859 7.87 9.91 7.68
6/9/2022 5:30:00 AM 15.9 60.62 0.836 7.86 9.15 7.65
6/9/2022 5:45:00 AM 15.93 60.674 0.815 7.86 9.25 7.61
6/9/2022 6:00:00 AM 15.98 60.764 0.796 7.85 8.9 7.53
6/9/2022 6:15:00 AM 16.08 60.944 0.779 7.84 8.83 7.44
6/9/2022 6:30:00 AM 16.21 61.178 0.762 7.82 8.38 7.31
6/9/2022 6:45:00 AM 16.37 61.466 0.745 7.81 8.86 7.18
6/9/2022 7:00:00 AM 16.54 61.772 0.73 7.79 8.64 7.04
6/9/2022 7:15:00 AM 16.71 62.078 0.718 7.78 8.22 6.93
6/9/2022 7:30:00 AM 16.85 62.33 0.713 7.76 8.68 6.85
6/9/2022 7:45:00 AM 16.97 62.546 0.715 7.74 8.35 6.81
6/9/2022 8:00:00 AM 17.07 62.726 0.723 7.75 7.61 6.83
6/9/2022 8:15:00 AM 17.13 62.834 0.733 7.74 8.19 6.91
6/9/2022 8:30:00 AM 17.17 62.906 0.745 7.76 8.3 7.03
6/9/2022 8:45:00 AM 17.19 62.942 0.758 7.76 7.87 7.18
6/9/2022 9:00:00 AM 17.19 62.942 0.773 7.79 7.67 7.36
6/9/2022 9:15:00 AM 17.18 62.924 0.788 7.81 7.53 7.56
6/9/2022 9:30:00 AM 17.16 62.888 0.803 7.83 7.07 7.79
6/9/2022 9:45:00 AM 17.12 62.816 0.816 7.84 7.11 7.97
6/9/2022 10:00:00 AM 17.07 62.726 0.825 7.86 6.77 8.18
6/9/2022 10:15:00 AM 17.01 62.618 0.833 7.89 7.18 8.3
6/9/2022 10:30:00 AM 17.01 62.618 0.84 7.9 6.61 8.56
6/9/2022 10:45:00 AM 17.01 62.618 0.848 7.94 6.41 8.74
6/9/2022 11:00:00 AM 17.02 62.636 0.857 7.95 6.7 8.92
6/9/2022 11:15:00 AM 17.11 62.798 0.867 7.99 6.24 9.19
6/9/2022 11:30:00 AM 17.22 62.996 0.879 8.01 6.77 9.39
6/9/2022 11:45:00 AM 17.32 63.176 0.891 8.04 6.41 9.53
6/9/2022 12:00:00 PM 17.46 63.428 0.903 8.06 6.92 9.71
6/9/2022 12:15:00 PM 17.62 63.716 0.916 8.08 6.74 9.87
6/9/2022 12:30:00 PM 17.75 63.95 0.928 8.1 6.18 9.94
6/9/2022 12:45:00 PM 17.89 64.202 0.94 8.12 6.04 9.96
6/9/2022 1:00:00 PM 18.07 64.526 0.949 8.14 6.84 10.09
6/9/2022 1:15:00 PM 18.17 64.706 0.956 8.14 6.01 10.06
6/9/2022 1:30:00 PM 18.29 64.922 0.96 8.17 6.03 10.07
6/9/2022 1:45:00 PM 18.4 65.12 0.962 8.18 6.02 10.05
6/9/2022 2:00:00 PM 18.51 65.318 0.962 8.17 5.96 10.07
6/9/2022 2:15:00 PM 18.63 65.534 0.962 8.19 5.98 10.05
6/9/2022 2:30:00 PM 18.8 65.84 0.963 8.21 6.1 10.16
6/9/2022 2:45:00 PM 18.95 66.11 0.964 8.23 6.06 10.22
6/9/2022 3:00:00 PM 19.08 66.344 0.967 8.23 6.22 10.24
6/9/2022 3:15:00 PM 19.14 66.452 0.968 8.23 6 10.06
6/9/2022 3:30:00 PM 19.17 66.506 0.966 8.24 5.99 10.01
6/9/2022 3:45:00 PM 19.16 66.488 0.965 8.23 5.94 9.87
6/9/2022 4:00:00 PM 19.16 66.488 0.971 8.22 6 9.78
6/9/2022 4:15:00 PM 19.18 66.524 0.981 8.22 6.31 9.66
6/9/2022 4:30:00 PM 19.23 66.614 0.993 8.22 5.89 9.66
6/9/2022 4:45:00 PM 19.28 66.704 1.004 8.21 5.91 9.63
6/9/2022 5:00:00 PM 19.33 66.794 1.011 8.22 5.77 9.58
6/9/2022 5:15:00 PM 19.35 66.83 1.015 8.21 5.86 9.5
6/9/2022 5:30:00 PM 19.33 66.794 1.017 8.2 5.94 9.39
6/9/2022 5:45:00 PM 19.27 66.686 1.017 8.19 5.99 9.27
6/9/2022 6:00:00 PM 19.22 66.596 1.016 8.18 6.42 9.14
6/9/2022 6:15:00 PM 19.14 66.452 1.013 8.18 5.73 9.03
6/9/2022 6:30:00 PM 19.05 66.29 1.008 8.16 6.2 8.91
6/9/2022 6:45:00 PM 18.94 66.092 1.001 8.15 5.86 8.75
6/9/2022 7:00:00 PM 18.82 65.876 0.993 8.13 5.47 8.68
6/9/2022 7:15:00 PM 18.7 65.66 0.985 8.12 5.7 8.58
6/9/2022 7:30:00 PM 18.58 65.444 0.979 8.11 5.91 8.46
6/9/2022 7:45:00 PM 18.48 65.264 0.974 8.09 5.63 8.34
6/9/2022 8:00:00 PM 18.37 65.066 0.969 8.09 5.98 8.25
6/9/2022 8:15:00 PM 18.26 64.868 0.964 8.08 5.85 8.17
6/9/2022 8:30:00 PM 18.16 64.688 0.96 8.06 5.79 8.08
6/9/2022 8:45:00 PM 18.04 64.472 0.957 8.04 6.54 8.01
6/9/2022 9:00:00 PM 17.93 64.274 0.954 8.04 6.53 7.95
6/9/2022 9:15:00 PM 17.82 64.076 0.953 8.03 6.62 7.89
6/9/2022 9:30:00 PM 17.7 63.86 0.953 8.02 7.66 7.85
6/9/2022 9:45:00 PM 17.58 63.644 0.952 8.01 6.99 7.81
6/9/2022 10:00:00 PM 17.46 63.428 0.953 8.01 7.27 7.78
6/9/2022 10:15:00 PM 17.34 63.212 0.954 7.99 7.85 7.75
6/9/2022 10:30:00 PM 17.22 62.996 0.956 7.99 7.66 7.73
6/9/2022 10:45:00 PM 17.1 62.78 0.958 7.99 7.26 7.69
6/9/2022 11:00:00 PM 16.99 62.582 0.962 7.98 8.01 7.68
6/9/2022 11:15:00 PM 16.87 62.366 0.965 7.97 7.54 7.67
6/9/2022 11:30:00 PM 16.77 62.186 0.967 7.97 7.67 7.64
6/9/2022 11:45:00 PM 16.66 61.988 0.969 7.96 8.2 7.64
6/10/2022 12:00:00 AM 16.55 61.79 0.97 7.96 7.84 7.63
6/10/2022 12:15:00 AM 16.45 61.61 0.971 7.95 7.83 7.63
6/10/2022 12:30:00 AM 16.35 61.43 0.972 7.95 9.06 7.63
6/10/2022 12:45:00 AM 16.25 61.25 0.972 7.93 7.76 7.63
6/10/2022 1:00:00 AM 16.15 61.07 0.971 7.93 7.94 7.64
6/10/2022 1:15:00 AM 16.05 60.89 0.97 7.94 7.73 7.65
6/10/2022 1:30:00 AM 15.95 60.71 0.968 7.93 8.24 7.68
6/10/2022 1:45:00 AM 15.86 60.548 0.966 7.93 8.19 7.69
6/10/2022 2:00:00 AM 15.77 60.386 0.965 7.92 8.28 7.71
6/10/2022 2:15:00 AM 15.7 60.26 0.963 7.92 9.05 7.73
6/10/2022 2:30:00 AM 15.62 60.116 0.962 7.93 7.84 7.75
6/10/2022 2:45:00 AM 15.54 59.972 0.961 7.92 7.48 7.77
6/10/2022 3:00:00 AM 15.47 59.846 0.96 7.93 8.48 7.78
6/10/2022 3:15:00 AM 15.41 59.738 0.958 7.93 8.19 7.8
6/10/2022 3:30:00 AM 15.34 59.612 0.954 7.93 7.62 7.82
6/10/2022 3:45:00 AM 15.27 59.486 0.949 7.92 7.61 7.84
6/10/2022 4:00:00 AM 15.2 59.36 0.944 7.91 7.48 7.86
6/10/2022 4:15:00 AM 15.13 59.234 0.94 7.91 8.84 7.88
6/10/2022 4:30:00 AM 15.06 59.108 0.935 7.92 7.9 7.91
6/10/2022 4:45:00 AM 14.99 58.982 0.931 7.92 8.09 7.93
6/10/2022 5:00:00 AM 14.93 58.874 0.925 7.92 7.91 7.95
6/10/2022 5:15:00 AM 14.86 58.748 0.919 7.93 8.3 7.98
6/10/2022 5:30:00 AM 14.8 58.64 0.911 7.93 8.12 8.01
6/10/2022 5:45:00 AM 14.72 58.496 0.903 7.92 7.95 8.04
6/10/2022 6:00:00 AM 14.65 58.37 0.895 7.92 7.26 8.07
6/10/2022 6:15:00 AM 14.57 58.226 0.888 7.93 7.2 8.11
6/10/2022 6:30:00 AM 14.51 58.118 0.881 7.93 7.33 8.16
6/10/2022 6:45:00 AM 14.46 58.028 0.874 7.94 6.72 8.21
6/10/2022 7:00:00 AM 14.41 57.938 0.868 7.94 6.87 8.26
6/10/2022 7:15:00 AM 14.37 57.866 0.863 7.93 6.73 8.32
6/10/2022 7:30:00 AM 14.33 57.794 0.859 7.95 6.47 8.38
6/10/2022 7:45:00 AM 14.31 57.758 0.855 7.95 6.63 8.43
6/10/2022 8:00:00 AM 14.31 57.758 0.853 7.96 6.46 8.52
6/10/2022 8:15:00 AM 14.33 57.794 0.852 7.97 6.02 8.63
6/10/2022 8:30:00 AM 14.36 57.848 0.852 7.97 6.5 8.74
6/10/2022 8:45:00 AM 14.39 57.902 0.852 7.99 6.89 8.85
6/10/2022 9:00:00 AM 14.44 57.992 0.853 8 6.82 8.93
6/10/2022 9:15:00 AM 14.49 58.082 0.855 8 7 9.01
6/10/2022 9:30:00 AM 14.55 58.19 0.857 8.02 7.77 9.1
6/10/2022 9:45:00 AM 14.62 58.316 0.859 8.03 8.06 9.2
6/10/2022 10:00:00 AM 14.7 58.46 0.859 8.04 7.62 9.32
6/10/2022 10:15:00 AM 14.79 58.622 0.857 8.05 7.51 9.44
6/10/2022 10:30:00 AM 14.89 58.802 0.856 8.07 7.04 9.64
6/10/2022 10:45:00 AM